<?xml version="1.0" encoding="UTF-8"?>
<gpx creator="Garmin Connect" version="1.1"
  xsi:schemaLocation="http://www.topografix.com/GPX/1/1 http://www.topografix.com/GPX/11.xsd"
  xmlns:ns3="http://www.garmin.com/xmlschemas/TrackPointExtension/v1"
  xmlns="http://www.topografix.com/GPX/1/1"
  xmlns:xsi="http://www.w3.org/2001/XMLSchema-instance" xmlns:ns2="http://www.garmin.com/xmlschemas/GpxExtensions/v3">
  <metadata>
    <name>Sin título</name>
    <link href="connect.garmin.com">
      <text>Garmin Connect</text>
    </link>
    <time>2022-10-04T14:21:15.000Z</time>
  </metadata>
  <trk>
    <name>Sin título</name>
    <trkseg>
      <trkpt lat="38.82123623974621" lon="0.0228685140609741">
        <ele>43.44712826001689</ele>
        <time>2022-10-04T14:21:15.000Z</time>
      </trkpt>
      <trkpt lat="38.821091651916504" lon="0.0229489803314209">
        <ele>43.53707095204763</ele>
        <time>2022-10-04T14:21:15.002Z</time>
      </trkpt>
      <trkpt lat="38.821081006899476" lon="0.0229382514953613">
        <ele>43.61820396685743</ele>
        <time>2022-10-04T14:21:15.005Z</time>
      </trkpt>
      <trkpt lat="38.821048736572266" lon="0.0229489803314209">
        <ele>43.67993990818262</ele>
        <time>2022-10-04T14:21:15.008Z</time>
      </trkpt>
      <trkpt lat="38.82100582122803" lon="0.0229811668395996">
        <ele>43.72282296137324</ele>
        <time>2022-10-04T14:21:15.012Z</time>
      </trkpt>
      <trkpt lat="38.82098444737494" lon="0.0230348110198975">
        <ele>43.762762005779024</ele>
        <time>2022-10-04T14:21:15.017Z</time>
      </trkpt>
      <trkpt lat="38.82098436355591" lon="0.0230562686920166">
        <ele>43.80526119006525</ele>
        <time>2022-10-04T14:21:15.022Z</time>
      </trkpt>
      <trkpt lat="38.820877159014344" lon="0.0232064723968506">
        <ele>43.7906981342902</ele>
        <time>2022-10-04T14:21:15.029Z</time>
      </trkpt>
      <trkpt lat="38.820823431015015" lon="0.0232923030853271">
        <ele>43.7700292258088</ele>
        <time>2022-10-04T14:21:15.038Z</time>
      </trkpt>
      <trkpt lat="38.820598125457764" lon="0.0235068798065186">
        <ele>43.81303949439796</ele>
        <time>2022-10-04T14:21:15.051Z</time>
      </trkpt>
      <trkpt lat="38.81992204114795" lon="0.024103419855237">
        <ele>44.315563540980776</ele>
        <time>2022-10-04T14:21:15.077Z</time>
      </trkpt>
      <trkpt lat="38.819921957328916" lon="0.0241035036742687">
        <ele>44.50348143111195</ele>
        <time>2022-10-04T14:21:15.103Z</time>
      </trkpt>
      <trkpt lat="38.81986856460571" lon="0.0241506099700928">
        <ele>44.574297761191524</ele>
        <time>2022-10-04T14:21:15.130Z</time>
      </trkpt>
      <trkpt lat="38.81969698704779" lon="0.0242578983306885">
        <ele>44.43603966408092</ele>
        <time>2022-10-04T14:21:15.160Z</time>
      </trkpt>
      <trkpt lat="38.819557428359985" lon="0.024268627166748">
        <ele>44.235061327187644</ele>
        <time>2022-10-04T14:21:15.192Z</time>
      </trkpt>
      <trkpt lat="38.81948232650757" lon="0.0242364406585693">
        <ele>44.007559423096104</ele>
        <time>2022-10-04T14:21:15.225Z</time>
      </trkpt>
      <trkpt lat="38.81939649581909" lon="0.0241291522979736">
        <ele>43.766207417512206</ele>
        <time>2022-10-04T14:21:15.260Z</time>
      </trkpt>
      <trkpt lat="38.81937503814697" lon="0.0240111351013184">
        <ele>43.489476330737176</ele>
        <time>2022-10-04T14:21:15.296Z</time>
      </trkpt>
      <trkpt lat="38.81938576698303" lon="0.0238502025604248">
        <ele>43.14921062101031</ele>
        <time>2022-10-04T14:21:15.334Z</time>
      </trkpt>
      <trkpt lat="38.81948676891625" lon="0.0235055387020111">
        <ele>42.61031359767633</ele>
        <time>2022-10-04T14:21:15.377Z</time>
      </trkpt>
      <trkpt lat="38.81948668509722" lon="0.0235057901591063">
        <ele>42.14622240518567</ele>
        <time>2022-10-04T14:21:15.420Z</time>
      </trkpt>
      <trkpt lat="38.819568157196045" lon="0.0232279300689697">
        <ele>41.54604679549021</ele>
        <time>2022-10-04T14:21:15.466Z</time>
      </trkpt>
      <trkpt lat="38.81969690322876" lon="0.0226271152496338">
        <ele>40.984859788550715</ele>
        <time>2022-10-04T14:21:15.520Z</time>
      </trkpt>
      <trkpt lat="38.81975054740906" lon="0.022197961807251">
        <ele>40.590771830046954</ele>
        <time>2022-10-04T14:21:15.579Z</time>
      </trkpt>
      <trkpt lat="38.819836378097534" lon="0.0213396549224854">
        <ele>40.00821797360216</ele>
        <time>2022-10-04T14:21:15.648Z</time>
      </trkpt>
      <trkpt lat="38.81986856460571" lon="0.0207602977752686">
        <ele>39.28756074772895</ele>
        <time>2022-10-04T14:21:15.724Z</time>
      </trkpt>
      <trkpt lat="38.81985967978835" lon="0.0205292925238609">
        <ele>38.60358966189451</ele>
        <time>2022-10-04T14:21:15.803Z</time>
      </trkpt>
      <trkpt lat="38.81985967978835" lon="0.0205293763428926">
        <ele>38.089980692017136</ele>
        <time>2022-10-04T14:21:15.882Z</time>
      </trkpt>
      <trkpt lat="38.81985783576965" lon="0.0204813480377197">
        <ele>37.61327451631193</ele>
        <time>2022-10-04T14:21:15.962Z</time>
      </trkpt>
      <trkpt lat="38.819814920425415" lon="0.0202453136444092">
        <ele>37.23377866596533</ele>
        <time>2022-10-04T14:21:16.045Z</time>
      </trkpt>
      <trkpt lat="38.81980427540839" lon="0.0200736522674561">
        <ele>36.98924492029481</ele>
        <time>2022-10-04T14:21:16.130Z</time>
      </trkpt>
      <trkpt lat="38.819825649261475" lon="0.0199985504150391">
        <ele>36.818085689475694</ele>
        <time>2022-10-04T14:21:16.216Z</time>
      </trkpt>
      <trkpt lat="38.819825649261475" lon="0.0198483467102051">
        <ele>36.7542294279841</ele>
        <time>2022-10-04T14:21:16.303Z</time>
      </trkpt>
      <trkpt lat="38.81978281773627" lon="0.0197517871856689">
        <ele>36.67778553037364</ele>
        <time>2022-10-04T14:21:16.392Z</time>
      </trkpt>
      <trkpt lat="38.81967544555664" lon="0.0196337699890137">
        <ele>36.61909062931888</ele>
        <time>2022-10-04T14:21:16.483Z</time>
      </trkpt>
      <trkpt lat="38.819578969851136" lon="0.0196123123168945">
        <ele>36.57352952694609</ele>
        <time>2022-10-04T14:21:16.575Z</time>
      </trkpt>
      <trkpt lat="38.81951451301575" lon="0.0196337699890137">
        <ele>36.58009064621621</ele>
        <time>2022-10-04T14:21:16.668Z</time>
      </trkpt>
      <trkpt lat="38.81946086883545" lon="0.0196659564971924">
        <ele>36.62978967363365</ele>
        <time>2022-10-04T14:21:16.762Z</time>
      </trkpt>
      <trkpt lat="38.81939657963812" lon="0.0197517871856689">
        <ele>36.71205539958599</ele>
        <time>2022-10-04T14:21:16.858Z</time>
      </trkpt>
      <trkpt lat="38.819375121966004" lon="0.0197947025299072">
        <ele>36.840413572126465</ele>
        <time>2022-10-04T14:21:16.954Z</time>
      </trkpt>
      <trkpt lat="38.81935358047485" lon="0.0199341773986816">
        <ele>37.00508598495733</ele>
        <time>2022-10-04T14:21:17.052Z</time>
      </trkpt>
      <trkpt lat="38.819375121966004" lon="0.0200521945953369">
        <ele>37.21673072695991</ele>
        <time>2022-10-04T14:21:17.152Z</time>
      </trkpt>
      <trkpt lat="38.81939649581909" lon="0.0200951099395752">
        <ele>37.46472439801954</ele>
        <time>2022-10-04T14:21:17.252Z</time>
      </trkpt>
      <trkpt lat="38.81941795349121" lon="0.0202023983001709">
        <ele>38.75546280531422</ele>
        <time>2022-10-04T14:21:17.353Z</time>
      </trkpt>
      <trkpt lat="38.81943941116333" lon="0.0206208229064941">
        <ele>39.145108584308666</ele>
        <time>2022-10-04T14:21:17.460Z</time>
      </trkpt>
      <trkpt lat="38.81949305534363" lon="0.0210928916931152">
        <ele>39.66094794722204</ele>
        <time>2022-10-04T14:21:17.572Z</time>
      </trkpt>
      <trkpt lat="38.81952524185181" lon="0.0217151641845703">
        <ele>40.25556108466891</ele>
        <time>2022-10-04T14:21:17.692Z</time>
      </trkpt>
      <trkpt lat="38.81948232650757" lon="0.0222408771514893">
        <ele>40.70778872415599</ele>
        <time>2022-10-04T14:21:17.818Z</time>
      </trkpt>
      <trkpt lat="38.81947545334697" lon="0.0222805235534906">
        <ele>41.17454387770401</ele>
        <time>2022-10-04T14:21:17.945Z</time>
      </trkpt>
      <trkpt lat="38.81947545334697" lon="0.0222803559154272">
        <ele>42.08469109147782</ele>
        <time>2022-10-04T14:21:18.072Z</time>
      </trkpt>
      <trkpt lat="38.81936430931091" lon="0.0229167938232422">
        <ele>42.56233047333152</ele>
        <time>2022-10-04T14:21:18.206Z</time>
      </trkpt>
      <trkpt lat="38.81922483444214" lon="0.0234746932983398">
        <ele>43.149073497322085</ele>
        <time>2022-10-04T14:21:18.347Z</time>
      </trkpt>
      <trkpt lat="38.819074630737305" lon="0.0239145755767822">
        <ele>43.64132545009489</ele>
        <time>2022-10-04T14:21:18.494Z</time>
      </trkpt>
      <trkpt lat="38.81895661354065" lon="0.0242042541503906">
        <ele>43.99605364946626</ele>
        <time>2022-10-04T14:21:18.645Z</time>
      </trkpt>
      <trkpt lat="38.818817138671875" lon="0.0244832038879395">
        <ele>44.34768746139787</ele>
        <time>2022-10-04T14:21:18.800Z</time>
      </trkpt>
      <trkpt lat="38.818548917770386" lon="0.0249552726745605">
        <ele>44.77672057726359</ele>
        <time>2022-10-04T14:21:18.962Z</time>
      </trkpt>
      <trkpt lat="38.818302154541016" lon="0.0253200531005859">
        <ele>45.1038638863632</ele>
        <time>2022-10-04T14:21:19.130Z</time>
      </trkpt>
      <trkpt lat="38.81821188144386" lon="0.0254260003566742">
        <ele>45.36937724862693</ele>
        <time>2022-10-04T14:21:19.300Z</time>
      </trkpt>
      <trkpt lat="38.81821196526289" lon="0.025425748899579">
        <ele>45.59079355140045</ele>
        <time>2022-10-04T14:21:19.470Z</time>
      </trkpt>
      <trkpt lat="38.818055391311646" lon="0.0256097316741943">
        <ele>45.779117174987995</ele>
        <time>2022-10-04T14:21:19.643Z</time>
      </trkpt>
      <trkpt lat="38.81800183095038" lon="0.0256633758544922">
        <ele>45.89938370480342</ele>
        <time>2022-10-04T14:21:19.817Z</time>
      </trkpt>
      <trkpt lat="38.81800174713135" lon="0.0256633758544922">
        <ele>46.006410109732116</ele>
        <time>2022-10-04T14:21:19.991Z</time>
      </trkpt>
      <trkpt lat="38.817561864852905" lon="0.0261247158050537">
        <ele>46.049421860463696</ele>
        <time>2022-10-04T14:21:20.174Z</time>
      </trkpt>
      <trkpt lat="38.817218542099" lon="0.0263714790344238">
        <ele>46.14936135528908</ele>
        <time>2022-10-04T14:21:20.363Z</time>
      </trkpt>
      <trkpt lat="38.81702550686896" lon="0.0265645980834961">
        <ele>46.15576362972213</ele>
        <time>2022-10-04T14:21:20.556Z</time>
      </trkpt>
      <trkpt lat="38.816628539934754" lon="0.0269508361816406">
        <ele>46.2193024896322</ele>
        <time>2022-10-04T14:21:20.756Z</time>
      </trkpt>
      <trkpt lat="38.81612420082092" lon="0.0274550914764404">
        <ele>45.95409438094418</ele>
        <time>2022-10-04T14:21:20.966Z</time>
      </trkpt>
      <trkpt lat="38.81563067436218" lon="0.0280129909515381">
        <ele>46.04437074705559</ele>
        <time>2022-10-04T14:21:21.186Z</time>
      </trkpt>
      <trkpt lat="38.81542691029608" lon="0.0281953811645508">
        <ele>46.054976309794796</ele>
        <time>2022-10-04T14:21:21.410Z</time>
      </trkpt>
      <trkpt lat="38.81504695862532" lon="0.028550773859024">
        <ele>46.132562552509214</ele>
        <time>2022-10-04T14:21:21.641Z</time>
      </trkpt>
      <trkpt lat="38.81504704244435" lon="0.028550773859024">
        <ele>46.10371455203547</ele>
        <time>2022-10-04T14:21:21.872Z</time>
      </trkpt>
      <trkpt lat="38.814589977264404" lon="0.0289785861968994">
        <ele>45.861391518058525</ele>
        <time>2022-10-04T14:21:22.112Z</time>
      </trkpt>
      <trkpt lat="38.81455787457526" lon="0.029064416885376">
        <ele>45.81135759033451</ele>
        <time>2022-10-04T14:21:22.353Z</time>
      </trkpt>
      <trkpt lat="38.81420373916626" lon="0.0294077396392822">
        <ele>45.645448968781324</ele>
        <time>2022-10-04T14:21:22.601Z</time>
      </trkpt>
      <trkpt lat="38.81412863731384" lon="0.0294721126556396">
        <ele>45.5967551596018</ele>
        <time>2022-10-04T14:21:22.851Z</time>
      </trkpt>
      <trkpt lat="38.813671907410026" lon="0.0298973266035318">
        <ele>45.70670705213779</ele>
        <time>2022-10-04T14:21:23.109Z</time>
      </trkpt>
      <trkpt lat="38.813671823590994" lon="0.0298974942415953">
        <ele>45.72238395407569</ele>
        <time>2022-10-04T14:21:23.367Z</time>
      </trkpt>
      <trkpt lat="38.81350636482239" lon="0.0300514698028564">
        <ele>45.92797137282105</ele>
        <time>2022-10-04T14:21:23.628Z</time>
      </trkpt>
      <trkpt lat="38.81350644864142" lon="0.0300514698028564">
        <ele>45.9831875573948</ele>
        <time>2022-10-04T14:21:23.889Z</time>
      </trkpt>
      <trkpt lat="38.81276615895331" lon="0.0307381153106689">
        <ele>46.12902696602765</ele>
        <time>2022-10-04T14:21:24.164Z</time>
      </trkpt>
      <trkpt lat="38.811585986986756" lon="0.0318324565887451">
        <ele>46.258319616010226</ele>
        <time>2022-10-04T14:21:24.462Z</time>
      </trkpt>
      <trkpt lat="38.81127485074103" lon="0.0321114063262939">
        <ele>46.424185124520186</ele>
        <time>2022-10-04T14:21:24.766Z</time>
      </trkpt>
      <trkpt lat="38.811124647036195" lon="0.0322508811950684">
        <ele>46.559624774790166</ele>
        <time>2022-10-04T14:21:25.073Z</time>
      </trkpt>
      <trkpt lat="38.81078132428229" lon="0.0325727462768555">
        <ele>46.64033315980421</ele>
        <time>2022-10-04T14:21:25.386Z</time>
      </trkpt>
      <trkpt lat="38.81049164570868" lon="0.0328409671783447">
        <ele>46.788718716868644</ele>
        <time>2022-10-04T14:21:25.705Z</time>
      </trkpt>
      <trkpt lat="38.81028779782355" lon="0.0330233573913574">
        <ele>46.86646552995592</ele>
        <time>2022-10-04T14:21:26.027Z</time>
      </trkpt>
      <trkpt lat="38.810083866119385" lon="0.0332057476043701">
        <ele>46.84608351007867</ele>
        <time>2022-10-04T14:21:26.353Z</time>
      </trkpt>
      <trkpt lat="38.81004095077515" lon="0.0332486629486084">
        <ele>46.906417402073856</ele>
        <time>2022-10-04T14:21:26.680Z</time>
      </trkpt>
      <trkpt lat="38.809654796496034" lon="0.0335705280303955">
        <ele>46.888575753981925</ele>
        <time>2022-10-04T14:21:27.014Z</time>
      </trkpt>
      <trkpt lat="38.80926847457886" lon="0.0339245796203613">
        <ele>47.03699225427633</ele>
        <time>2022-10-04T14:21:27.355Z</time>
      </trkpt>
      <trkpt lat="38.80848526954651" lon="0.0346648693084717">
        <ele>46.83295215232959</ele>
        <time>2022-10-04T14:21:27.711Z</time>
      </trkpt>
      <trkpt lat="38.808045387268066" lon="0.0350725650787354">
        <ele>47.119106904625774</ele>
        <time>2022-10-04T14:21:28.076Z</time>
      </trkpt>
      <trkpt lat="38.8080454710871" lon="0.0350725650787354">
        <ele>47.338743303597475</ele>
        <time>2022-10-04T14:21:28.441Z</time>
      </trkpt>
      <trkpt lat="38.807594776153564" lon="0.0354909896850586">
        <ele>47.7051632128471</ele>
        <time>2022-10-04T14:21:28.814Z</time>
      </trkpt>
      <trkpt lat="38.807594859972596" lon="0.0354909896850586">
        <ele>48.02284009104833</ele>
        <time>2022-10-04T14:21:29.187Z</time>
      </trkpt>
      <trkpt lat="38.806843841448426" lon="0.0361776351928711">
        <ele>48.434764692177446</ele>
        <time>2022-10-04T14:21:29.575Z</time>
      </trkpt>
      <trkpt lat="38.80648241378367" lon="0.0365052837878466">
        <ele>48.919678037865026</ele>
        <time>2022-10-04T14:21:29.969Z</time>
      </trkpt>
      <trkpt lat="38.80648241378367" lon="0.03650545142591">
        <ele>49.375780268671065</ele>
        <time>2022-10-04T14:21:30.363Z</time>
      </trkpt>
      <trkpt lat="38.806382501497865" lon="0.0365960597991943">
        <ele>49.98327234912195</ele>
        <time>2022-10-04T14:21:30.759Z</time>
      </trkpt>
      <trkpt lat="38.80601763725281" lon="0.0369393825531006">
        <ele>50.63106313090534</ele>
        <time>2022-10-04T14:21:31.162Z</time>
      </trkpt>
      <trkpt lat="38.80587816238403" lon="0.0371217727661133">
        <ele>51.09718288718083</ele>
        <time>2022-10-04T14:21:31.568Z</time>
      </trkpt>
      <trkpt lat="38.80569577217102" lon="0.0374221801757812">
        <ele>51.761082092614004</ele>
        <time>2022-10-04T14:21:31.979Z</time>
      </trkpt>
      <trkpt lat="38.805556297302246" lon="0.0377333164215088">
        <ele>52.51369318107997</ele>
        <time>2022-10-04T14:21:32.394Z</time>
      </trkpt>
      <trkpt lat="38.80526670254767" lon="0.0384950637817383">
        <ele>53.16086382198512</ele>
        <time>2022-10-04T14:21:32.819Z</time>
      </trkpt>
      <trkpt lat="38.805105770006776" lon="0.0389134883880615">
        <ele>53.86263569431031</ele>
        <time>2022-10-04T14:21:33.250Z</time>
      </trkpt>
      <trkpt lat="38.80497702397406" lon="0.0392353534698486">
        <ele>54.51713339661428</ele>
        <time>2022-10-04T14:21:33.685Z</time>
      </trkpt>
      <trkpt lat="38.80478382110596" lon="0.0396859645843506">
        <ele>55.13844586461736</ele>
        <time>2022-10-04T14:21:34.126Z</time>
      </trkpt>
      <trkpt lat="38.804590702056885" lon="0.0400614738464355">
        <ele>55.81124574016711</ele>
        <time>2022-10-04T14:21:34.573Z</time>
      </trkpt>
      <trkpt lat="38.80459078587592" lon="0.0400614738464355">
        <ele>56.40370211228959</ele>
        <time>2022-10-04T14:21:35.020Z</time>
      </trkpt>
      <trkpt lat="38.80425810813904" lon="0.0407052040100098">
        <ele>56.9538628809287</ele>
        <time>2022-10-04T14:21:35.476Z</time>
      </trkpt>
      <trkpt lat="38.80417420528829" lon="0.0408696569502354">
        <ele>57.50483035179569</ele>
        <time>2022-10-04T14:21:35.935Z</time>
      </trkpt>
      <trkpt lat="38.80417412146926" lon="0.0408698245882988">
        <ele>58.037363518570096</ele>
        <time>2022-10-04T14:21:36.394Z</time>
      </trkpt>
      <trkpt lat="38.80370020866394" lon="0.0417995452880859">
        <ele>58.64925922390085</ele>
        <time>2022-10-04T14:21:36.866Z</time>
      </trkpt>
      <trkpt lat="38.80297073163092" lon="0.0431728363037109">
        <ele>59.26616644545288</ele>
        <time>2022-10-04T14:21:37.358Z</time>
      </trkpt>
      <trkpt lat="38.80283125676215" lon="0.0434303283691406">
        <ele>59.801789587028395</ele>
        <time>2022-10-04T14:21:37.854Z</time>
      </trkpt>
      <trkpt lat="38.8026487827301" lon="0.0437843799591064">
        <ele>60.26352537569771</ele>
        <time>2022-10-04T14:21:38.355Z</time>
      </trkpt>
      <trkpt lat="38.802648866549134" lon="0.0437843799591064">
        <ele>60.66546807501118</ele>
        <time>2022-10-04T14:21:38.856Z</time>
      </trkpt>
      <trkpt lat="38.802112340927124" lon="0.0447607040405273">
        <ele>61.01384251478687</ele>
        <time>2022-10-04T14:21:39.371Z</time>
      </trkpt>
      <trkpt lat="38.80106418393552" lon="0.0468066427856684">
        <ele>61.33841408619863</ele>
        <time>2022-10-04T14:21:39.915Z</time>
      </trkpt>
      <trkpt lat="38.80106410011649" lon="0.0468067266047001">
        <ele>61.660088488676394</ele>
        <time>2022-10-04T14:21:40.459Z</time>
      </trkpt>
      <trkpt lat="38.80099662579596" lon="0.0469386577606201">
        <ele>61.95686697247153</ele>
        <time>2022-10-04T14:21:41.005Z</time>
      </trkpt>
      <trkpt lat="38.799666250124574" lon="0.0495028495788574">
        <ele>62.24200561925003</ele>
        <time>2022-10-04T14:21:41.588Z</time>
      </trkpt>
      <trkpt lat="38.79939794540405" lon="0.0499963760375977">
        <ele>62.648698973863226</ele>
        <time>2022-10-04T14:21:42.179Z</time>
      </trkpt>
      <trkpt lat="38.799398029223084" lon="0.0499963760375977">
        <ele>62.91739119714901</ele>
        <time>2022-10-04T14:21:42.770Z</time>
      </trkpt>
      <trkpt lat="38.79900106228888" lon="0.0507688522338867">
        <ele>62.97445528031286</ele>
        <time>2022-10-04T14:21:43.372Z</time>
      </trkpt>
      <trkpt lat="38.79877575673163" lon="0.0512087345123291">
        <ele>63.39239481218273</ele>
        <time>2022-10-04T14:21:43.980Z</time>
      </trkpt>
      <trkpt lat="38.79855036735535" lon="0.0516271591186523">
        <ele>63.71645233312823</ele>
        <time>2022-10-04T14:21:44.594Z</time>
      </trkpt>
      <trkpt lat="38.79855045117438" lon="0.0516271591186523">
        <ele>63.99680217042312</ele>
        <time>2022-10-04T14:21:45.208Z</time>
      </trkpt>
      <trkpt lat="38.79841089248657" lon="0.0519061088562012">
        <ele>64.35708589589072</ele>
        <time>2022-10-04T14:21:45.826Z</time>
      </trkpt>
      <trkpt lat="38.798410976305604" lon="0.0519061088562012">
        <ele>64.66609428662805</ele>
        <time>2022-10-04T14:21:46.444Z</time>
      </trkpt>
      <trkpt lat="38.79794955253601" lon="0.0527751445770264">
        <ele>64.86241332240948</ele>
        <time>2022-10-04T14:21:47.075Z</time>
      </trkpt>
      <trkpt lat="38.797863721847534" lon="0.0529789924621582">
        <ele>65.21147749390991</ele>
        <time>2022-10-04T14:21:47.709Z</time>
      </trkpt>
      <trkpt lat="38.797080516815186" lon="0.0544595718383789">
        <ele>65.68981189483446</ele>
        <time>2022-10-04T14:21:48.364Z</time>
      </trkpt>
      <trkpt lat="38.79623293876648" lon="0.0561010837554932">
        <ele>65.98142826567147</ele>
        <time>2022-10-04T14:21:49.043Z</time>
      </trkpt>
      <trkpt lat="38.796093463897705" lon="0.0563478469848633">
        <ele>66.496503979674</ele>
        <time>2022-10-04T14:21:49.725Z</time>
      </trkpt>
      <trkpt lat="38.79609354771674" lon="0.0563478469848633">
        <ele>66.9663364947934</ele>
        <time>2022-10-04T14:21:50.407Z</time>
      </trkpt>
      <trkpt lat="38.7960506323725" lon="0.0564229488372803">
        <ele>67.49978570067395</ele>
        <time>2022-10-04T14:21:51.090Z</time>
      </trkpt>
      <trkpt lat="38.792338371276855" lon="0.0635576248168945">
        <ele>68.19629532938123</ele>
        <time>2022-10-04T14:21:51.877Z</time>
      </trkpt>
      <trkpt lat="38.79233845509589" lon="0.0635576248168945">
        <ele>68.74805071635541</ele>
        <time>2022-10-04T14:21:52.664Z</time>
      </trkpt>
      <trkpt lat="38.790890062227845" lon="0.0663363933563232">
        <ele>69.33808120401969</ele>
        <time>2022-10-04T14:21:53.491Z</time>
      </trkpt>
      <trkpt lat="38.79084714688361" lon="0.0664222240447998">
        <ele>69.91310906680746</ele>
        <time>2022-10-04T14:21:54.319Z</time>
      </trkpt>
      <trkpt lat="38.78928073681891" lon="0.0694477558135986">
        <ele>70.77557690374874</ele>
        <time>2022-10-04T14:21:55.191Z</time>
      </trkpt>
      <trkpt lat="38.78819704055786" lon="0.0715184211730957">
        <ele>71.54172577838426</ele>
        <time>2022-10-04T14:21:56.093Z</time>
      </trkpt>
      <trkpt lat="38.78795027732849" lon="0.0719583034515381">
        <ele>72.1101495646254</ele>
        <time>2022-10-04T14:21:57.001Z</time>
      </trkpt>
      <trkpt lat="38.787392461672425" lon="0.073009729385376">
        <ele>72.71164802988321</ele>
        <time>2022-10-04T14:21:57.924Z</time>
      </trkpt>
      <trkpt lat="38.787392377853394" lon="0.073009729385376">
        <ele>73.27632569934426</ele>
        <time>2022-10-04T14:21:58.847Z</time>
      </trkpt>
      <trkpt lat="38.78707059659064" lon="0.0736105442047119">
        <ele>73.86823052972386</ele>
        <time>2022-10-04T14:21:59.779Z</time>
      </trkpt>
      <trkpt lat="38.787070512771606" lon="0.0736105442047119">
        <ele>74.39712015402634</ele>
        <time>2022-10-04T14:22:00.711Z</time>
      </trkpt>
      <trkpt lat="38.7870276812464" lon="0.0736963748931885">
        <ele>74.9059743152733</ele>
        <time>2022-10-04T14:22:01.644Z</time>
      </trkpt>
      <trkpt lat="38.78702759742737" lon="0.0736963748931885">
        <ele>75.39469837801508</ele>
        <time>2022-10-04T14:22:02.577Z</time>
      </trkpt>
      <trkpt lat="38.78694185055792" lon="0.0738680362701416">
        <ele>75.90122895544755</ele>
        <time>2022-10-04T14:22:03.513Z</time>
      </trkpt>
      <trkpt lat="38.78694176673889" lon="0.0738680362701416">
        <ele>76.3512342700344</ele>
        <time>2022-10-04T14:22:04.449Z</time>
      </trkpt>
      <trkpt lat="38.78601908683777" lon="0.0756490230560303">
        <ele>76.81736099702124</ele>
        <time>2022-10-04T14:22:05.410Z</time>
      </trkpt>
      <trkpt lat="38.78598690032959" lon="0.0757348537445068">
        <ele>77.21458037565844</ele>
        <time>2022-10-04T14:22:06.373Z</time>
      </trkpt>
      <trkpt lat="38.78592252731323" lon="0.0758206844329834">
        <ele>77.61662375538594</ele>
        <time>2022-10-04T14:22:07.337Z</time>
      </trkpt>
      <trkpt lat="38.785922611132264" lon="0.0758206844329834">
        <ele>78.00378836715238</ele>
        <time>2022-10-04T14:22:08.301Z</time>
      </trkpt>
      <trkpt lat="38.78579378128052" lon="0.0759708881378174">
        <ele>78.35740610569246</ele>
        <time>2022-10-04T14:22:09.268Z</time>
      </trkpt>
      <trkpt lat="38.785353899002075" lon="0.0763571262359619">
        <ele>78.7510022049888</ele>
        <time>2022-10-04T14:22:10.243Z</time>
      </trkpt>
      <trkpt lat="38.78448486328125" lon="0.0770974159240723">
        <ele>79.16784137821054</ele>
        <time>2022-10-04T14:22:11.234Z</time>
      </trkpt>
      <trkpt lat="38.78412963822484" lon="0.0773965660482645">
        <ele>79.68242056968134</ele>
        <time>2022-10-04T14:22:12.231Z</time>
      </trkpt>
      <trkpt lat="38.78412955440581" lon="0.0773966498672962">
        <ele>80.02888009037389</ele>
        <time>2022-10-04T14:22:13.229Z</time>
      </trkpt>
      <trkpt lat="38.783873319625854" lon="0.0776124000549316">
        <ele>80.33137563591524</ele>
        <time>2022-10-04T14:22:14.231Z</time>
      </trkpt>
      <trkpt lat="38.78349781036377" lon="0.0779235363006592">
        <ele>80.74546001625359</ele>
        <time>2022-10-04T14:22:15.240Z</time>
      </trkpt>
      <trkpt lat="38.78326185978949" lon="0.078127384185791">
        <ele>81.15478664981924</ele>
        <time>2022-10-04T14:22:16.253Z</time>
      </trkpt>
      <trkpt lat="38.78318667411804" lon="0.0781917572021484">
        <ele>81.52415327033177</ele>
        <time>2022-10-04T14:22:17.268Z</time>
      </trkpt>
      <trkpt lat="38.78316027112305" lon="0.0781310722231865">
        <ele>81.82965990838983</ele>
        <time>2022-10-04T14:22:18.284Z</time>
      </trkpt>
      <trkpt lat="38.78316035494208" lon="0.0781311560422182">
        <ele>82.15599693812021</ele>
        <time>2022-10-04T14:22:19.300Z</time>
      </trkpt>
      <trkpt lat="38.783079385757446" lon="0.0779449939727783">
        <ele>82.41488668678687</ele>
        <time>2022-10-04T14:22:20.318Z</time>
      </trkpt>
      <trkpt lat="38.78303647041321" lon="0.0778913497924805">
        <ele>82.74178952469273</ele>
        <time>2022-10-04T14:22:21.337Z</time>
      </trkpt>
      <trkpt lat="38.78284343518317" lon="0.0777626037597656">
        <ele>83.07230297792896</ele>
        <time>2022-10-04T14:22:22.360Z</time>
      </trkpt>
      <trkpt lat="38.78250002861023" lon="0.0775480270385742">
        <ele>83.60794311323475</ele>
        <time>2022-10-04T14:22:23.388Z</time>
      </trkpt>
      <trkpt lat="38.782349824905396" lon="0.0775158405303955">
        <ele>84.08509853273331</ele>
        <time>2022-10-04T14:22:24.419Z</time>
      </trkpt>
      <trkpt lat="38.78227472305298" lon="0.0775158405303955">
        <ele>84.5273910217277</ele>
        <time>2022-10-04T14:22:25.451Z</time>
      </trkpt>
      <trkpt lat="38.78219962120056" lon="0.0775587558746338">
        <ele>84.9690908912937</ele>
        <time>2022-10-04T14:22:26.484Z</time>
      </trkpt>
      <trkpt lat="38.782124519348145" lon="0.0776124000549316">
        <ele>85.40292242013342</ele>
        <time>2022-10-04T14:22:27.518Z</time>
      </trkpt>
      <trkpt lat="38.78200658597052" lon="0.0777304172515869">
        <ele>85.82152006435211</ele>
        <time>2022-10-04T14:22:28.555Z</time>
      </trkpt>
      <trkpt lat="38.781877756118774" lon="0.0778591632843018">
        <ele>86.22028591875217</ele>
        <time>2022-10-04T14:22:29.594Z</time>
      </trkpt>
      <trkpt lat="38.78175973892212" lon="0.0779128074645996">
        <ele>86.72172777862731</ele>
        <time>2022-10-04T14:22:30.635Z</time>
      </trkpt>
      <trkpt lat="38.78090143203735" lon="0.0779235363006592">
        <ele>87.11491585201139</ele>
        <time>2022-10-04T14:22:31.689Z</time>
      </trkpt>
      <trkpt lat="38.78054738044739" lon="0.077826976776123">
        <ele>87.94061126709111</ele>
        <time>2022-10-04T14:22:32.749Z</time>
      </trkpt>
      <trkpt lat="38.78045082092285" lon="0.0777947902679443">
        <ele>88.62432448465</ele>
        <time>2022-10-04T14:22:33.811Z</time>
      </trkpt>
      <trkpt lat="38.780397260561585" lon="0.0777411460876465">
        <ele>89.35258239581268</ele>
        <time>2022-10-04T14:22:34.874Z</time>
      </trkpt>
      <trkpt lat="38.77996802330017" lon="0.0773119926452637">
        <ele>90.1724852746706</ele>
        <time>2022-10-04T14:22:35.945Z</time>
      </trkpt>
      <trkpt lat="38.77973207272589" lon="0.0767219066619873">
        <ele>90.92364253114343</ele>
        <time>2022-10-04T14:22:37.024Z</time>
      </trkpt>
      <trkpt lat="38.77973198890686" lon="0.0767219066619873">
        <ele>91.6508932143158</ele>
        <time>2022-10-04T14:22:38.103Z</time>
      </trkpt>
      <trkpt lat="38.77956032752991" lon="0.0762712955474854">
        <ele>92.54099876969435</ele>
        <time>2022-10-04T14:22:39.188Z</time>
      </trkpt>
      <trkpt lat="38.77944231033325" lon="0.0758528709411621">
        <ele>93.35553244503217</ele>
        <time>2022-10-04T14:22:40.278Z</time>
      </trkpt>
      <trkpt lat="38.779377937316895" lon="0.075531005859375">
        <ele>94.0923822781809</ele>
        <time>2022-10-04T14:22:41.372Z</time>
      </trkpt>
      <trkpt lat="38.77929219044745" lon="0.0748658180236816">
        <ele>95.09011085755662</ele>
        <time>2022-10-04T14:22:42.474Z</time>
      </trkpt>
      <trkpt lat="38.779217004776" lon="0.0744366645812988">
        <ele>95.92125608023093</ele>
        <time>2022-10-04T14:22:43.582Z</time>
      </trkpt>
      <trkpt lat="38.779120445251465" lon="0.0740182399749756">
        <ele>96.63444474871959</ele>
        <time>2022-10-04T14:22:44.695Z</time>
      </trkpt>
      <trkpt lat="38.77893805503845" lon="0.0736641883850098">
        <ele>97.36815228634455</ele>
        <time>2022-10-04T14:22:45.813Z</time>
      </trkpt>
      <trkpt lat="38.77882062457502" lon="0.0733999069780111">
        <ele>98.04888372529227</ele>
        <time>2022-10-04T14:22:46.935Z</time>
      </trkpt>
      <trkpt lat="38.77882062457502" lon="0.0734000746160746">
        <ele>98.68352853076507</ele>
        <time>2022-10-04T14:22:48.057Z</time>
      </trkpt>
      <trkpt lat="38.778637731447816" lon="0.0729882717132568">
        <ele>99.194479107781</ele>
        <time>2022-10-04T14:22:49.184Z</time>
      </trkpt>
      <trkpt lat="38.778637647628784" lon="0.0729882717132568">
        <ele>99.78897351760921</ele>
        <time>2022-10-04T14:22:50.311Z</time>
      </trkpt>
      <trkpt lat="38.77849825657904" lon="0.0726878643035889">
        <ele>100.40985104739053</ele>
        <time>2022-10-04T14:22:51.443Z</time>
      </trkpt>
      <trkpt lat="38.778315782547" lon="0.0722587108612061">
        <ele>101.10495837620489</ele>
        <time>2022-10-04T14:22:52.580Z</time>
      </trkpt>
      <trkpt lat="38.77826222218573" lon="0.0721621513366699">
        <ele>101.67282654928408</ele>
        <time>2022-10-04T14:22:53.719Z</time>
      </trkpt>
      <trkpt lat="38.77807974815369" lon="0.0720334053039551">
        <ele>102.20425449623254</ele>
        <time>2022-10-04T14:22:54.861Z</time>
      </trkpt>
      <trkpt lat="38.77791881561279" lon="0.0718939304351807">
        <ele>102.71971127058808</ele>
        <time>2022-10-04T14:22:56.006Z</time>
      </trkpt>
      <trkpt lat="38.77779006958008" lon="0.0717329978942871">
        <ele>103.26389230305398</ele>
        <time>2022-10-04T14:22:57.154Z</time>
      </trkpt>
      <trkpt lat="38.7777042388916" lon="0.0715720653533936">
        <ele>103.84598580005569</ele>
        <time>2022-10-04T14:22:58.304Z</time>
      </trkpt>
      <trkpt lat="38.77748974598944" lon="0.0712823867797852">
        <ele>104.47096713449614</ele>
        <time>2022-10-04T14:22:59.459Z</time>
      </trkpt>
      <trkpt lat="38.777049863711" lon="0.0711536407470703">
        <ele>105.00974773289951</ele>
        <time>2022-10-04T14:23:00.621Z</time>
      </trkpt>
      <trkpt lat="38.776395320892334" lon="0.0708746910095215">
        <ele>105.82008624990453</ele>
        <time>2022-10-04T14:23:01.794Z</time>
      </trkpt>
      <trkpt lat="38.775858879089355" lon="0.0705850124359131">
        <ele>106.49675137264748</ele>
        <time>2022-10-04T14:23:02.976Z</time>
      </trkpt>
      <trkpt lat="38.77533316612244" lon="0.0702416896820068">
        <ele>107.13149243688464</ele>
        <time>2022-10-04T14:23:04.167Z</time>
      </trkpt>
      <trkpt lat="38.77480753697455" lon="0.0698661804199219">
        <ele>108.00262800595033</ele>
        <time>2022-10-04T14:23:05.367Z</time>
      </trkpt>
      <trkpt lat="38.77523082308471" lon="0.0689992401748896">
        <ele>108.83567074462829</ele>
        <time>2022-10-04T14:23:06.579Z</time>
      </trkpt>
      <trkpt lat="38.775230906903744" lon="0.0689990725368261">
        <ele>109.56858970800083</ele>
        <time>2022-10-04T14:23:07.791Z</time>
      </trkpt>
      <trkpt lat="38.77525814808905" lon="0.0689435005187988">
        <ele>110.30493146572144</ele>
        <time>2022-10-04T14:23:09.004Z</time>
      </trkpt>
      <trkpt lat="38.77530097961426" lon="0.0688254833221436">
        <ele>111.05227107412134</ele>
        <time>2022-10-04T14:23:10.218Z</time>
      </trkpt>
      <trkpt lat="38.77532243728638" lon="0.0686216354370117">
        <ele>111.82718757681437</ele>
        <time>2022-10-04T14:23:11.435Z</time>
      </trkpt>
      <trkpt lat="38.77530097961426" lon="0.0683963298797607">
        <ele>112.60722289211985</ele>
        <time>2022-10-04T14:23:12.655Z</time>
      </trkpt>
      <trkpt lat="38.77526887692511" lon="0.068289041519165">
        <ele>113.42839293054428</ele>
        <time>2022-10-04T14:23:13.876Z</time>
      </trkpt>
      <trkpt lat="38.77524741925299" lon="0.0682353973388672">
        <ele>114.27050831344783</ele>
        <time>2022-10-04T14:23:15.098Z</time>
      </trkpt>
      <trkpt lat="38.77501130104065" lon="0.0679779052734375">
        <ele>114.96054283674755</ele>
        <time>2022-10-04T14:23:16.325Z</time>
      </trkpt>
      <trkpt lat="38.77480745315552" lon="0.0678277015686035">
        <ele>115.67743371156604</ele>
        <time>2022-10-04T14:23:17.555Z</time>
      </trkpt>
      <trkpt lat="38.77445340156555" lon="0.067591667175293">
        <ele>116.77794006649422</ele>
        <time>2022-10-04T14:23:18.791Z</time>
      </trkpt>
      <trkpt lat="38.773852586746216" lon="0.0672054290771484">
        <ele>118.14152614798223</ele>
        <time>2022-10-04T14:23:20.038Z</time>
      </trkpt>
      <trkpt lat="38.77370238304138" lon="0.0670981407165527">
        <ele>119.01093594072682</ele>
        <time>2022-10-04T14:23:21.287Z</time>
      </trkpt>
      <trkpt lat="38.77358444966376" lon="0.0669479370117188">
        <ele>119.81801379387042</ele>
        <time>2022-10-04T14:23:22.539Z</time>
      </trkpt>
      <trkpt lat="38.77325177192688" lon="0.0665831565856934">
        <ele>120.5695626064711</ele>
        <time>2022-10-04T14:23:23.798Z</time>
      </trkpt>
      <trkpt lat="38.77300500869751" lon="0.0661647319793701">
        <ele>121.3538697715949</ele>
        <time>2022-10-04T14:23:25.063Z</time>
      </trkpt>
      <trkpt lat="38.77279043197632" lon="0.0656604766845703">
        <ele>122.16353510599622</ele>
        <time>2022-10-04T14:23:26.335Z</time>
      </trkpt>
      <trkpt lat="38.77216815948486" lon="0.0641155242919922">
        <ele>122.92396878896812</ele>
        <time>2022-10-04T14:23:27.628Z</time>
      </trkpt>
      <trkpt lat="38.77210387028754" lon="0.0639599561691284">
        <ele>123.2267844333456</ele>
        <time>2022-10-04T14:23:28.923Z</time>
      </trkpt>
      <trkpt lat="38.772103786468506" lon="0.063959788531065">
        <ele>123.38381108798676</ele>
        <time>2022-10-04T14:23:30.218Z</time>
      </trkpt>
      <trkpt lat="38.77183556556702" lon="0.0633108615875244">
        <ele>123.47914129316621</ele>
        <time>2022-10-04T14:23:31.522Z</time>
      </trkpt>
      <trkpt lat="38.7717068195343" lon="0.0630426406860352">
        <ele>123.43346182264489</ele>
        <time>2022-10-04T14:23:32.829Z</time>
      </trkpt>
      <trkpt lat="38.77129912376404" lon="0.0623238086700439">
        <ele>122.82705720995602</ele>
        <time>2022-10-04T14:23:34.147Z</time>
      </trkpt>
      <trkpt lat="38.77075203694403" lon="0.0615835189819336">
        <ele>121.91912479157531</ele>
        <time>2022-10-04T14:23:35.477Z</time>
      </trkpt>
      <trkpt lat="38.7706983089447" lon="0.0615191459655762">
        <ele>121.38065071991178</ele>
        <time>2022-10-04T14:23:36.809Z</time>
      </trkpt>
      <trkpt lat="38.77061256207526" lon="0.0613260269165039">
        <ele>120.80821216686104</ele>
        <time>2022-10-04T14:23:38.143Z</time>
      </trkpt>
      <trkpt lat="38.77054810523987" lon="0.0611007213592529">
        <ele>120.0983759000124</ele>
        <time>2022-10-04T14:23:39.480Z</time>
      </trkpt>
      <trkpt lat="38.77049446105957" lon="0.0608110427856445">
        <ele>119.24152730584174</ele>
        <time>2022-10-04T14:23:40.821Z</time>
      </trkpt>
      <trkpt lat="38.770397901535034" lon="0.0598883628845215">
        <ele>118.13705985732943</ele>
        <time>2022-10-04T14:23:42.173Z</time>
      </trkpt>
      <trkpt lat="38.770365715026855" lon="0.0597596168518066">
        <ele>117.19844931781104</ele>
        <time>2022-10-04T14:23:43.526Z</time>
      </trkpt>
      <trkpt lat="38.7703013420105" lon="0.0596201419830322">
        <ele>116.18829069193387</ele>
        <time>2022-10-04T14:23:44.881Z</time>
      </trkpt>
      <trkpt lat="38.77021551132202" lon="0.0595128536224365">
        <ele>115.19150400503523</ele>
        <time>2022-10-04T14:23:46.238Z</time>
      </trkpt>
      <trkpt lat="38.770118951797485" lon="0.0594592094421387">
        <ele>114.1345907535881</ele>
        <time>2022-10-04T14:23:47.597Z</time>
      </trkpt>
      <trkpt lat="38.76993656158447" lon="0.0594055652618408">
        <ele>112.907763093361</ele>
        <time>2022-10-04T14:23:48.959Z</time>
      </trkpt>
      <trkpt lat="38.769936645403504" lon="0.0594055652618408">
        <ele>111.92187671284424</ele>
        <time>2022-10-04T14:23:50.321Z</time>
      </trkpt>
      <trkpt lat="38.76973271369934" lon="0.0593411922454834">
        <ele>110.76192078691057</ele>
        <time>2022-10-04T14:23:51.686Z</time>
      </trkpt>
      <trkpt lat="38.76967906951904" lon="0.0593090057373047">
        <ele>109.83268916247387</ele>
        <time>2022-10-04T14:23:53.052Z</time>
      </trkpt>
      <trkpt lat="38.76958250999451" lon="0.0592339038848877">
        <ele>108.93155679547891</ele>
        <time>2022-10-04T14:23:54.420Z</time>
      </trkpt>
      <trkpt lat="38.76950740814209" lon="0.0591158866882324">
        <ele>108.1200668611929</ele>
        <time>2022-10-04T14:23:55.789Z</time>
      </trkpt>
      <trkpt lat="38.76946449279785" lon="0.0589871406555176">
        <ele>107.38148125001757</ele>
        <time>2022-10-04T14:23:57.160Z</time>
      </trkpt>
      <trkpt lat="38.769346475601196" lon="0.0580430030822754">
        <ele>106.81791175963264</ele>
        <time>2022-10-04T14:23:58.543Z</time>
      </trkpt>
      <trkpt lat="38.76928210258484" lon="0.057753324508667">
        <ele>106.2827071994696</ele>
        <time>2022-10-04T14:23:59.929Z</time>
      </trkpt>
      <trkpt lat="38.76867055892944" lon="0.0562727451324463">
        <ele>106.00503248036387</ele>
        <time>2022-10-04T14:24:01.335Z</time>
      </trkpt>
      <trkpt lat="38.768616914749146" lon="0.0561761856079102">
        <ele>105.68757909912989</ele>
        <time>2022-10-04T14:24:02.743Z</time>
      </trkpt>
      <trkpt lat="38.76854181289673" lon="0.0561225414276123">
        <ele>105.42954758157629</ele>
        <time>2022-10-04T14:24:04.152Z</time>
      </trkpt>
      <trkpt lat="38.768112659454346" lon="0.0558328628540039">
        <ele>105.34762768742262</ele>
        <time>2022-10-04T14:24:05.569Z</time>
      </trkpt>
      <trkpt lat="38.76811274327338" lon="0.0558328628540039">
        <ele>105.28202663955125</ele>
        <time>2022-10-04T14:24:06.986Z</time>
      </trkpt>
      <trkpt lat="38.76801618374884" lon="0.0557792186737061">
        <ele>105.32489066092747</ele>
        <time>2022-10-04T14:24:08.404Z</time>
      </trkpt>
      <trkpt lat="38.76746892929077" lon="0.0554037094116211">
        <ele>105.46654132708298</ele>
        <time>2022-10-04T14:24:09.832Z</time>
      </trkpt>
      <trkpt lat="38.76709350384772" lon="0.0550282001495361">
        <ele>105.68391702926127</ele>
        <time>2022-10-04T14:24:11.267Z</time>
      </trkpt>
      <trkpt lat="38.766621351242065" lon="0.0545346736907959">
        <ele>106.10493488416655</ele>
        <time>2022-10-04T14:24:12.712Z</time>
      </trkpt>
      <trkpt lat="38.76652479171753" lon="0.0544703006744385">
        <ele>106.37683990653358</ele>
        <time>2022-10-04T14:24:14.158Z</time>
      </trkpt>
      <trkpt lat="38.766385316848755" lon="0.0544381141662598">
        <ele>106.66604607850378</ele>
        <time>2022-10-04T14:24:15.606Z</time>
      </trkpt>
      <trkpt lat="38.76599907875061" lon="0.0545239448547363">
        <ele>107.03043650916896</ele>
        <time>2022-10-04T14:24:17.060Z</time>
      </trkpt>
      <trkpt lat="38.765891874209046" lon="0.0545239448547363">
        <ele>107.45188011942508</ele>
        <time>2022-10-04T14:24:18.516Z</time>
      </trkpt>
      <trkpt lat="38.76575231552124" lon="0.0544273853302002">
        <ele>107.84786341585388</ele>
        <time>2022-10-04T14:24:19.975Z</time>
      </trkpt>
      <trkpt lat="38.765709400177" lon="0.0543737411499023">
        <ele>108.3022481136396</ele>
        <time>2022-10-04T14:24:21.434Z</time>
      </trkpt>
      <trkpt lat="38.765645027160645" lon="0.0542557239532471">
        <ele>108.76468644066674</ele>
        <time>2022-10-04T14:24:22.895Z</time>
      </trkpt>
      <trkpt lat="38.76559138298035" lon="0.0540947914123535">
        <ele>109.22322903447619</ele>
        <time>2022-10-04T14:24:24.358Z</time>
      </trkpt>
      <trkpt lat="38.76552700996399" lon="0.0536549091339111">
        <ele>109.54276352314318</ele>
        <time>2022-10-04T14:24:25.827Z</time>
      </trkpt>
      <trkpt lat="38.765408992767334" lon="0.0529468059539795">
        <ele>110.13060384715462</ele>
        <time>2022-10-04T14:24:27.304Z</time>
      </trkpt>
      <trkpt lat="38.765409076586366" lon="0.0529038906097412">
        <ele>110.83512860381008</ele>
        <time>2022-10-04T14:24:28.782Z</time>
      </trkpt>
      <trkpt lat="38.76533389091492" lon="0.052485466003418">
        <ele>111.77519491168319</ele>
        <time>2022-10-04T14:24:30.265Z</time>
      </trkpt>
      <trkpt lat="38.76528024673462" lon="0.0522923469543457">
        <ele>112.61748970333198</ele>
        <time>2022-10-04T14:24:31.751Z</time>
      </trkpt>
      <trkpt lat="38.764861822128296" lon="0.0511229038238525">
        <ele>113.6086819111197</ele>
        <time>2022-10-04T14:24:33.252Z</time>
      </trkpt>
      <trkpt lat="38.76486190594733" lon="0.0511229038238525">
        <ele>114.46050212213585</ele>
        <time>2022-10-04T14:24:34.753Z</time>
      </trkpt>
      <trkpt lat="38.764443481341004" lon="0.0500178337097168">
        <ele>115.34004500165162</ele>
        <time>2022-10-04T14:24:36.269Z</time>
      </trkpt>
      <trkpt lat="38.76425036229193" lon="0.0494921207427979">
        <ele>116.42237836794038</ele>
        <time>2022-10-04T14:24:37.792Z</time>
      </trkpt>
      <trkpt lat="38.764153718948364" lon="0.0492024421691895">
        <ele>117.48723445673791</ele>
        <time>2022-10-04T14:24:39.319Z</time>
      </trkpt>
      <trkpt lat="38.764153718948364" lon="0.0490736961364746">
        <ele>118.43912025621756</ele>
        <time>2022-10-04T14:24:40.847Z</time>
      </trkpt>
      <trkpt lat="38.76418590545654" lon="0.0489342212677002">
        <ele>119.38335714519496</ele>
        <time>2022-10-04T14:24:42.377Z</time>
      </trkpt>
      <trkpt lat="38.76418590545654" lon="0.0488162040710449">
        <ele>120.30381134113847</ele>
        <time>2022-10-04T14:24:43.908Z</time>
      </trkpt>
      <trkpt lat="38.764121532440186" lon="0.0484299659729004">
        <ele>121.2743185191336</ele>
        <time>2022-10-04T14:24:45.444Z</time>
      </trkpt>
      <trkpt lat="38.76412161625922" lon="0.0484299659729004">
        <ele>122.09278746946043</ele>
        <time>2022-10-04T14:24:46.980Z</time>
      </trkpt>
      <trkpt lat="38.76403570175171" lon="0.0479257106781006">
        <ele>122.81994862419566</ele>
        <time>2022-10-04T14:24:48.522Z</time>
      </trkpt>
      <trkpt lat="38.763960683718324" lon="0.0477325916290283">
        <ele>123.6426252337329</ele>
        <time>2022-10-04T14:24:50.067Z</time>
      </trkpt>
      <trkpt lat="38.76331686973572" lon="0.0463378429412842">
        <ele>124.39859226530166</ele>
        <time>2022-10-04T14:24:51.631Z</time>
      </trkpt>
      <trkpt lat="38.76326322555542" lon="0.0462090969085693">
        <ele>125.14025327352886</ele>
        <time>2022-10-04T14:24:53.197Z</time>
      </trkpt>
      <trkpt lat="38.763198936358094" lon="0.0458872318267822">
        <ele>125.8906155657373</ele>
        <time>2022-10-04T14:24:54.767Z</time>
      </trkpt>
      <trkpt lat="38.763134479522705" lon="0.0455546379089355">
        <ele>126.54207534953957</ele>
        <time>2022-10-04T14:24:56.341Z</time>
      </trkpt>
      <trkpt lat="38.76299500465393" lon="0.0450718402862549">
        <ele>127.12120522268307</ele>
        <time>2022-10-04T14:24:57.921Z</time>
      </trkpt>
      <trkpt lat="38.76293876208365" lon="0.0449440162628889">
        <ele>127.60120449462897</ele>
        <time>2022-10-04T14:24:59.503Z</time>
      </trkpt>
      <trkpt lat="38.76293867826462" lon="0.0449438486248255">
        <ele>128.06619410557542</ele>
        <time>2022-10-04T14:25:01.085Z</time>
      </trkpt>
      <trkpt lat="38.76275897026062" lon="0.0445353984832764">
        <ele>128.2813165203246</ele>
        <time>2022-10-04T14:25:02.673Z</time>
      </trkpt>
      <trkpt lat="38.76270532608032" lon="0.0444602966308594">
        <ele>128.62344753534208</ele>
        <time>2022-10-04T14:25:04.262Z</time>
      </trkpt>
      <trkpt lat="38.762630224227905" lon="0.044395923614502">
        <ele>128.97364827682293</ele>
        <time>2022-10-04T14:25:05.852Z</time>
      </trkpt>
      <trkpt lat="38.7623405456543" lon="0.0442993640899658">
        <ele>129.3646377424772</ele>
        <time>2022-10-04T14:25:07.447Z</time>
      </trkpt>
      <trkpt lat="38.762158155441284" lon="0.0442886352539062">
        <ele>129.94745662873652</ele>
        <time>2022-10-04T14:25:09.045Z</time>
      </trkpt>
      <trkpt lat="38.76181483268738" lon="0.0442993640899658">
        <ele>130.64430377379483</ele>
        <time>2022-10-04T14:25:10.648Z</time>
      </trkpt>
      <trkpt lat="38.760913610458374" lon="0.0441169738769531">
        <ele>130.95649307459018</ele>
        <time>2022-10-04T14:25:12.265Z</time>
      </trkpt>
      <trkpt lat="38.75985145568848" lon="0.0436770915985107">
        <ele>131.01752090162526</ele>
        <time>2022-10-04T14:25:13.899Z</time>
      </trkpt>
      <trkpt lat="38.759765625" lon="0.0436234474182129">
        <ele>131.38419487368213</ele>
        <time>2022-10-04T14:25:15.535Z</time>
      </trkpt>
      <trkpt lat="38.75976570881903" lon="0.0436234474182129">
        <ele>131.7789555705594</ele>
        <time>2022-10-04T14:25:17.171Z</time>
      </trkpt>
      <trkpt lat="38.75962623395026" lon="0.043494701385498">
        <ele>132.17129204605777</ele>
        <time>2022-10-04T14:25:18.809Z</time>
      </trkpt>
      <trkpt lat="38.75905752182007" lon="0.0428831577301025">
        <ele>133.24630404510216</ele>
        <time>2022-10-04T14:25:20.459Z</time>
      </trkpt>
      <trkpt lat="38.75898241996765" lon="0.0427544116973877">
        <ele>133.72060260642712</ele>
        <time>2022-10-04T14:25:22.111Z</time>
      </trkpt>
      <trkpt lat="38.758885860443115" lon="0.042496919631958">
        <ele>134.04133373522393</ele>
        <time>2022-10-04T14:25:23.766Z</time>
      </trkpt>
      <trkpt lat="38.75883221626282" lon="0.0424003601074219">
        <ele>134.41642836453195</ele>
        <time>2022-10-04T14:25:25.423Z</time>
      </trkpt>
      <trkpt lat="38.75859618186951" lon="0.0421643257141113">
        <ele>134.8436442826694</ele>
        <time>2022-10-04T14:25:27.084Z</time>
      </trkpt>
      <trkpt lat="38.75856399536133" lon="0.0420999526977539">
        <ele>135.21043112272554</ele>
        <time>2022-10-04T14:25:28.746Z</time>
      </trkpt>
      <trkpt lat="38.75854253768921" lon="0.0420141220092773">
        <ele>135.60698703308083</ele>
        <time>2022-10-04T14:25:30.409Z</time>
      </trkpt>
      <trkpt lat="38.75853180885315" lon="0.0418210029602051">
        <ele>135.90753616162715</ele>
        <time>2022-10-04T14:25:32.075Z</time>
      </trkpt>
      <trkpt lat="38.75855326652527" lon="0.0406944751739502">
        <ele>136.44068200527437</ele>
        <time>2022-10-04T14:25:33.754Z</time>
      </trkpt>
      <trkpt lat="38.75858545303345" lon="0.0402545928955078">
        <ele>136.82587817151807</ele>
        <time>2022-10-04T14:25:35.438Z</time>
      </trkpt>
      <trkpt lat="38.758682096377015" lon="0.0395464897155762">
        <ele>137.46811663716488</ele>
        <time>2022-10-04T14:25:37.131Z</time>
      </trkpt>
      <trkpt lat="38.75877857208252" lon="0.0388383865356445">
        <ele>137.84429956887817</ele>
        <time>2022-10-04T14:25:38.833Z</time>
      </trkpt>
      <trkpt lat="38.75877865590155" lon="0.0388383865356445">
        <ele>138.28993299060414</ele>
        <time>2022-10-04T14:25:40.535Z</time>
      </trkpt>
      <trkpt lat="38.75882148742676" lon="0.038527250289917">
        <ele>138.7680763656374</ele>
        <time>2022-10-04T14:25:42.241Z</time>
      </trkpt>
      <trkpt lat="38.75882148742676" lon="0.0383341312408447">
        <ele>139.31094033514995</ele>
        <time>2022-10-04T14:25:43.949Z</time>
      </trkpt>
      <trkpt lat="38.75877857208252" lon="0.038151741027832">
        <ele>139.80960619846786</ele>
        <time>2022-10-04T14:25:45.659Z</time>
      </trkpt>
      <trkpt lat="38.75861772336066" lon="0.0376474857330322">
        <ele>140.31257626333385</ele>
        <time>2022-10-04T14:25:47.376Z</time>
      </trkpt>
      <trkpt lat="38.75851035118103" lon="0.0373578071594238">
        <ele>140.73561540637647</ele>
        <time>2022-10-04T14:25:49.097Z</time>
      </trkpt>
      <trkpt lat="38.758413875475526" lon="0.0371217727661133">
        <ele>141.13090827680242</ele>
        <time>2022-10-04T14:25:50.821Z</time>
      </trkpt>
      <trkpt lat="38.75814565457404" lon="0.0364887714385986">
        <ele>141.76248271954677</ele>
        <time>2022-10-04T14:25:52.553Z</time>
      </trkpt>
      <trkpt lat="38.757180059328675" lon="0.0341928005218506">
        <ele>142.45360717783615</ele>
        <time>2022-10-04T14:25:54.317Z</time>
      </trkpt>
      <trkpt lat="38.75700831413269" lon="0.0338494777679443">
        <ele>142.90379568457547</ele>
        <time>2022-10-04T14:25:56.086Z</time>
      </trkpt>
      <trkpt lat="38.756901025772095" lon="0.0337743759155273">
        <ele>143.42221867875764</ele>
        <time>2022-10-04T14:25:57.857Z</time>
      </trkpt>
      <trkpt lat="38.75678300857544" lon="0.0337636470794678">
        <ele>143.96997834460547</ele>
        <time>2022-10-04T14:25:59.629Z</time>
      </trkpt>
      <trkpt lat="38.75643968582153" lon="0.0338494777679443">
        <ele>144.52561817983008</ele>
        <time>2022-10-04T14:26:01.407Z</time>
      </trkpt>
      <trkpt lat="38.75621438026428" lon="0.033881664276123">
        <ele>145.01261502962473</ele>
        <time>2022-10-04T14:26:03.188Z</time>
      </trkpt>
      <trkpt lat="38.756128549575806" lon="0.033881664276123">
        <ele>145.4844938371528</ele>
        <time>2022-10-04T14:26:04.971Z</time>
      </trkpt>
      <trkpt lat="38.75601053237915" lon="0.0338387489318848">
        <ele>145.9379406156859</ele>
        <time>2022-10-04T14:26:06.755Z</time>
      </trkpt>
      <trkpt lat="38.755871057510376" lon="0.0336992740631104">
        <ele>146.35477539201852</ele>
        <time>2022-10-04T14:26:08.542Z</time>
      </trkpt>
      <trkpt lat="38.75509858131409" lon="0.0325405597686768">
        <ele>147.19544730150716</ele>
        <time>2022-10-04T14:26:10.347Z</time>
      </trkpt>
      <trkpt lat="38.75496983528137" lon="0.0323259830474854">
        <ele>147.6964447738789</ele>
        <time>2022-10-04T14:26:12.156Z</time>
      </trkpt>
      <trkpt lat="38.754916191101074" lon="0.0321114063262939">
        <ele>148.0335759283489</ele>
        <time>2022-10-04T14:26:13.967Z</time>
      </trkpt>
      <trkpt lat="38.75480890274048" lon="0.0309312343597412">
        <ele>147.99082732936967</ele>
        <time>2022-10-04T14:26:15.793Z</time>
      </trkpt>
      <trkpt lat="38.75477680005133" lon="0.0307381153106689">
        <ele>148.48666461588874</ele>
        <time>2022-10-04T14:26:17.621Z</time>
      </trkpt>
      <trkpt lat="38.75470161437988" lon="0.0305235385894775">
        <ele>149.08524860844446</ele>
        <time>2022-10-04T14:26:19.452Z</time>
      </trkpt>
      <trkpt lat="38.75453003682196" lon="0.030137300491333">
        <ele>149.6474856914178</ele>
        <time>2022-10-04T14:26:21.288Z</time>
      </trkpt>
      <trkpt lat="38.754379749298096" lon="0.0297725200653076">
        <ele>150.3932134225078</ele>
        <time>2022-10-04T14:26:23.129Z</time>
      </trkpt>
      <trkpt lat="38.75437983311713" lon="0.0297725200653076">
        <ele>150.98628483843734</ele>
        <time>2022-10-04T14:26:24.970Z</time>
      </trkpt>
      <trkpt lat="38.75430464744568" lon="0.0296115875244141">
        <ele>151.81552856064548</ele>
        <time>2022-10-04T14:26:26.814Z</time>
      </trkpt>
      <trkpt lat="38.75428318977356" lon="0.0295042991638184">
        <ele>152.50511589895476</ele>
        <time>2022-10-04T14:26:28.659Z</time>
      </trkpt>
      <trkpt lat="38.75429391860962" lon="0.0285494327545166">
        <ele>153.04749917487635</ele>
        <time>2022-10-04T14:26:30.515Z</time>
      </trkpt>
      <trkpt lat="38.75428318977356" lon="0.0283026695251465">
        <ele>153.82801494794865</ele>
        <time>2022-10-04T14:26:32.374Z</time>
      </trkpt>
      <trkpt lat="38.75397205352783" lon="0.0271117687225342">
        <ele>154.56837342617482</ele>
        <time>2022-10-04T14:26:34.248Z</time>
      </trkpt>
      <trkpt lat="38.75372529029846" lon="0.0258886814117432">
        <ele>155.61920543706594</ele>
        <time>2022-10-04T14:26:36.138Z</time>
      </trkpt>
      <trkpt lat="38.75347852706909" lon="0.0252556800842285">
        <ele>156.56014702233017</ele>
        <time>2022-10-04T14:26:38.036Z</time>
      </trkpt>
      <trkpt lat="38.753414154052734" lon="0.0251162052154541">
        <ele>157.40098595149004</ele>
        <time>2022-10-04T14:26:39.936Z</time>
      </trkpt>
      <trkpt lat="38.75318884849548" lon="0.0246763229370117">
        <ele>157.99006434315726</ele>
        <time>2022-10-04T14:26:41.842Z</time>
      </trkpt>
      <trkpt lat="38.75308156013489" lon="0.0245261192321777">
        <ele>158.80473732109047</ele>
        <time>2022-10-04T14:26:43.751Z</time>
      </trkpt>
      <trkpt lat="38.75301727093756" lon="0.0244724750518799">
        <ele>159.6914847922895</ele>
        <time>2022-10-04T14:26:45.661Z</time>
      </trkpt>
      <trkpt lat="38.752866983413696" lon="0.0243330001831055">
        <ele>160.59630758563284</ele>
        <time>2022-10-04T14:26:47.574Z</time>
      </trkpt>
      <trkpt lat="38.752641677856445" lon="0.0242149829864502">
        <ele>161.91576635074668</ele>
        <time>2022-10-04T14:26:49.491Z</time>
      </trkpt>
      <trkpt lat="38.75264176167548" lon="0.0242149829864502">
        <ele>162.82423238025655</ele>
        <time>2022-10-04T14:26:51.408Z</time>
      </trkpt>
      <trkpt lat="38.75156879425049" lon="0.0236892700195312">
        <ele>164.31986471527438</ele>
        <time>2022-10-04T14:26:53.342Z</time>
      </trkpt>
      <trkpt lat="38.751128911972046" lon="0.0235283374786377">
        <ele>165.32667396972556</ele>
        <time>2022-10-04T14:26:55.283Z</time>
      </trkpt>
      <trkpt lat="38.75081777572632" lon="0.0233352184295654">
        <ele>165.96600472131752</ele>
        <time>2022-10-04T14:26:57.230Z</time>
      </trkpt>
      <trkpt lat="38.75071048736572" lon="0.0233137607574463">
        <ele>166.77414270572302</ele>
        <time>2022-10-04T14:26:59.178Z</time>
      </trkpt>
      <trkpt lat="38.750710571184754" lon="0.0233137607574463">
        <ele>167.5822960755304</ele>
        <time>2022-10-04T14:27:01.126Z</time>
      </trkpt>
      <trkpt lat="38.750646114349365" lon="0.0233244895935059">
        <ele>168.36202585378734</ele>
        <time>2022-10-04T14:27:03.075Z</time>
      </trkpt>
      <trkpt lat="38.750367164611816" lon="0.023496150970459">
        <ele>169.03629148924904</ele>
        <time>2022-10-04T14:27:05.029Z</time>
      </trkpt>
      <trkpt lat="38.75028133392334" lon="0.0235176086425781">
        <ele>169.7788900191457</ele>
        <time>2022-10-04T14:27:06.984Z</time>
      </trkpt>
      <trkpt lat="38.750152587890625" lon="0.0235176086425781">
        <ele>170.49500960888977</ele>
        <time>2022-10-04T14:27:08.941Z</time>
      </trkpt>
      <trkpt lat="38.749680519104004" lon="0.0234532356262207">
        <ele>171.4596991198806</ele>
        <time>2022-10-04T14:27:10.906Z</time>
      </trkpt>
      <trkpt lat="38.74958395957947" lon="0.0234532356262207">
        <ele>172.20839199586288</ele>
        <time>2022-10-04T14:27:12.872Z</time>
      </trkpt>
      <trkpt lat="38.74948740005493" lon="0.0234854221343994">
        <ele>172.97677056942302</ele>
        <time>2022-10-04T14:27:14.840Z</time>
      </trkpt>
      <trkpt lat="38.74948748387396" lon="0.0234854221343994">
        <ele>173.69938207961633</ele>
        <time>2022-10-04T14:27:16.808Z</time>
      </trkpt>
      <trkpt lat="38.74935873784125" lon="0.0235927104949951">
        <ele>174.58312215351316</ele>
        <time>2022-10-04T14:27:18.778Z</time>
      </trkpt>
      <trkpt lat="38.749186992645264" lon="0.0237858295440674">
        <ele>175.46376614459746</ele>
        <time>2022-10-04T14:27:20.752Z</time>
      </trkpt>
      <trkpt lat="38.74909043312073" lon="0.0238394737243652">
        <ele>176.26951912727097</ele>
        <time>2022-10-04T14:27:22.727Z</time>
      </trkpt>
      <trkpt lat="38.74900460243225" lon="0.0238287448883057">
        <ele>176.99768969258963</ele>
        <time>2022-10-04T14:27:24.704Z</time>
      </trkpt>
      <trkpt lat="38.74889739789069" lon="0.0237429141998291">
        <ele>177.70503173722233</ele>
        <time>2022-10-04T14:27:26.682Z</time>
      </trkpt>
      <trkpt lat="38.74880075454712" lon="0.0234746932983398">
        <ele>178.4079151212167</ele>
        <time>2022-10-04T14:27:28.664Z</time>
      </trkpt>
      <trkpt lat="38.74873638153076" lon="0.0233781337738037">
        <ele>179.18111601363745</ele>
        <time>2022-10-04T14:27:30.648Z</time>
      </trkpt>
      <trkpt lat="38.748650550842285" lon="0.0233030319213867">
        <ele>179.96511026502864</ele>
        <time>2022-10-04T14:27:32.633Z</time>
      </trkpt>
      <trkpt lat="38.74854326248169" lon="0.0232923030853271">
        <ele>180.73423485200973</ele>
        <time>2022-10-04T14:27:34.620Z</time>
      </trkpt>
      <trkpt lat="38.74845743179321" lon="0.0233244895935059">
        <ele>181.59891424137044</ele>
        <time>2022-10-04T14:27:36.608Z</time>
      </trkpt>
      <trkpt lat="38.74803900718689" lon="0.0235927104949951">
        <ele>182.69161892202698</ele>
        <time>2022-10-04T14:27:38.603Z</time>
      </trkpt>
      <trkpt lat="38.74778151512146" lon="0.0236892700195312">
        <ele>183.9425704425551</ele>
        <time>2022-10-04T14:27:40.603Z</time>
      </trkpt>
      <trkpt lat="38.74759920872748" lon="0.0238716602325439">
        <ele>185.24044699100637</ele>
        <time>2022-10-04T14:27:42.606Z</time>
      </trkpt>
      <trkpt lat="38.74751329421997" lon="0.0239038467407227">
        <ele>186.30662020141853</ele>
        <time>2022-10-04T14:27:44.610Z</time>
      </trkpt>
      <trkpt lat="38.7472665309906" lon="0.0238716602325439">
        <ele>187.27680918403166</ele>
        <time>2022-10-04T14:27:46.618Z</time>
      </trkpt>
      <trkpt lat="38.74712713994086" lon="0.0239253044128418">
        <ele>188.56538991921173</ele>
        <time>2022-10-04T14:27:48.629Z</time>
      </trkpt>
      <trkpt lat="38.74704122543335" lon="0.0239360332489014">
        <ele>189.75199204641137</ele>
        <time>2022-10-04T14:27:50.641Z</time>
      </trkpt>
      <trkpt lat="38.74696612358093" lon="0.0239253044128418">
        <ele>190.90194681316652</ele>
        <time>2022-10-04T14:27:52.654Z</time>
      </trkpt>
      <trkpt lat="38.74678373336792" lon="0.0238287448883057">
        <ele>191.99217113290874</ele>
        <time>2022-10-04T14:27:54.670Z</time>
      </trkpt>
      <trkpt lat="38.746654987335205" lon="0.0238394737243652">
        <ele>193.18366876439939</ele>
        <time>2022-10-04T14:27:56.688Z</time>
      </trkpt>
      <trkpt lat="38.74659061431885" lon="0.0238716602325439">
        <ele>194.36635191489927</ele>
        <time>2022-10-04T14:27:58.707Z</time>
      </trkpt>
      <trkpt lat="38.74648332595825" lon="0.0239682197570801">
        <ele>195.4529986069848</ele>
        <time>2022-10-04T14:28:00.728Z</time>
      </trkpt>
      <trkpt lat="38.746376037597656" lon="0.0241291522979736">
        <ele>196.62842813050207</ele>
        <time>2022-10-04T14:28:02.752Z</time>
      </trkpt>
      <trkpt lat="38.74611854553223" lon="0.0247299671173096">
        <ele>198.09219493655377</ele>
        <time>2022-10-04T14:28:04.784Z</time>
      </trkpt>
      <trkpt lat="38.74604344367981" lon="0.0248372554779053">
        <ele>199.20273426124317</ele>
        <time>2022-10-04T14:28:06.818Z</time>
      </trkpt>
      <trkpt lat="38.745882511138916" lon="0.024944543838501">
        <ele>200.2134703167824</ele>
        <time>2022-10-04T14:28:08.854Z</time>
      </trkpt>
      <trkpt lat="38.745689392089844" lon="0.025019645690918">
        <ele>201.29248608159895</ele>
        <time>2022-10-04T14:28:10.894Z</time>
      </trkpt>
      <trkpt lat="38.74554991722107" lon="0.0250518321990967">
        <ele>202.2177370057139</ele>
        <time>2022-10-04T14:28:12.936Z</time>
      </trkpt>
      <trkpt lat="38.745410442352295" lon="0.025019645690918">
        <ele>203.0192210842692</ele>
        <time>2022-10-04T14:28:14.980Z</time>
      </trkpt>
      <trkpt lat="38.74533534049988" lon="0.0249123573303223">
        <ele>203.8183898942266</ele>
        <time>2022-10-04T14:28:17.026Z</time>
      </trkpt>
      <trkpt lat="38.74532461166382" lon="0.0248479843139648">
        <ele>204.65117101522418</ele>
        <time>2022-10-04T14:28:19.072Z</time>
      </trkpt>
      <trkpt lat="38.74532461166382" lon="0.0247621536254883">
        <ele>205.483892060835</ele>
        <time>2022-10-04T14:28:21.119Z</time>
      </trkpt>
      <trkpt lat="38.745378255844116" lon="0.024644136428833">
        <ele>206.30787165394742</ele>
        <time>2022-10-04T14:28:23.168Z</time>
      </trkpt>
      <trkpt lat="38.74551781453192" lon="0.0244617462158203">
        <ele>207.083148947229</ele>
        <time>2022-10-04T14:28:25.220Z</time>
      </trkpt>
      <trkpt lat="38.74557137489319" lon="0.0243866443634033">
        <ele>207.85588573537336</ele>
        <time>2022-10-04T14:28:27.273Z</time>
      </trkpt>
      <trkpt lat="38.745635747909546" lon="0.0242257118225098">
        <ele>208.6543213879221</ele>
        <time>2022-10-04T14:28:29.329Z</time>
      </trkpt>
      <trkpt lat="38.745657205581665" lon="0.0240862369537354">
        <ele>209.4871288902562</ele>
        <time>2022-10-04T14:28:31.386Z</time>
      </trkpt>
      <trkpt lat="38.745657205581665" lon="0.0239038467407227">
        <ele>210.36697815806428</ele>
        <time>2022-10-04T14:28:33.445Z</time>
      </trkpt>
      <trkpt lat="38.745635747909546" lon="0.0237536430358887">
        <ele>211.26425918384035</ele>
        <time>2022-10-04T14:28:35.506Z</time>
      </trkpt>
      <trkpt lat="38.74554991722107" lon="0.0236248970031738">
        <ele>212.16852671812643</ele>
        <time>2022-10-04T14:28:37.569Z</time>
      </trkpt>
      <trkpt lat="38.74548554420471" lon="0.0235390663146973">
        <ele>213.05737912056617</ele>
        <time>2022-10-04T14:28:39.634Z</time>
      </trkpt>
      <trkpt lat="38.74532461166382" lon="0.0234425067901611">
        <ele>214.04773138505874</ele>
        <time>2022-10-04T14:28:41.701Z</time>
      </trkpt>
      <trkpt lat="38.74523878097534" lon="0.0233244895935059">
        <ele>214.95775610503946</ele>
        <time>2022-10-04T14:28:43.770Z</time>
      </trkpt>
      <trkpt lat="38.745185220614076" lon="0.0232064723968506">
        <ele>215.82810174317748</ele>
        <time>2022-10-04T14:28:45.841Z</time>
      </trkpt>
      <trkpt lat="38.745163679122925" lon="0.0230562686920166">
        <ele>216.59626936987206</ele>
        <time>2022-10-04T14:28:47.914Z</time>
      </trkpt>
      <trkpt lat="38.745185136795044" lon="0.022895336151123">
        <ele>217.3196091054926</ele>
        <time>2022-10-04T14:28:49.989Z</time>
      </trkpt>
      <trkpt lat="38.74523878097534" lon="0.0226593017578125">
        <ele>218.03094165671126</ele>
        <time>2022-10-04T14:28:52.067Z</time>
      </trkpt>
      <trkpt lat="38.745356798172" lon="0.0223159790039062">
        <ele>218.93809626483238</ele>
        <time>2022-10-04T14:28:54.149Z</time>
      </trkpt>
      <trkpt lat="38.74554991722107" lon="0.0219404697418213">
        <ele>219.64692987649946</ele>
        <time>2022-10-04T14:28:56.237Z</time>
      </trkpt>
      <trkpt lat="38.74557137489319" lon="0.0218009948730469">
        <ele>220.41792037200557</ele>
        <time>2022-10-04T14:28:58.326Z</time>
      </trkpt>
      <trkpt lat="38.74551773071289" lon="0.0214576721191406">
        <ele>221.22079017517808</ele>
        <time>2022-10-04T14:29:00.420Z</time>
      </trkpt>
      <trkpt lat="38.74548554420471" lon="0.0213181972503662">
        <ele>221.87398305710133</ele>
        <time>2022-10-04T14:29:02.515Z</time>
      </trkpt>
      <trkpt lat="38.745442628860474" lon="0.0209641456604004">
        <ele>222.67104248788854</ele>
        <time>2022-10-04T14:29:04.615Z</time>
      </trkpt>
      <trkpt lat="38.745431900024414" lon="0.0207388401031494">
        <ele>223.50071625947473</ele>
        <time>2022-10-04T14:29:06.717Z</time>
      </trkpt>
      <trkpt lat="38.745442628860474" lon="0.0206208229064941">
        <ele>224.10395736974039</ele>
        <time>2022-10-04T14:29:08.821Z</time>
      </trkpt>
      <trkpt lat="38.74546408653259" lon="0.0205349922180176">
        <ele>224.56244030865827</ele>
        <time>2022-10-04T14:29:10.926Z</time>
      </trkpt>
      <trkpt lat="38.74549627304077" lon="0.0204706192016602">
        <ele>224.89803443910412</ele>
        <time>2022-10-04T14:29:13.032Z</time>
      </trkpt>
      <trkpt lat="38.7458074092865" lon="0.020148754119873">
        <ele>224.80397540577263</ele>
        <time>2022-10-04T14:29:15.144Z</time>
      </trkpt>
      <trkpt lat="38.74585032463074" lon="0.0200307369232178">
        <ele>224.9101488980538</ele>
        <time>2022-10-04T14:29:17.258Z</time>
      </trkpt>
      <trkpt lat="38.74586113728583" lon="0.0199019908905029">
        <ele>224.98256134122073</ele>
        <time>2022-10-04T14:29:19.373Z</time>
      </trkpt>
      <trkpt lat="38.74581822194159" lon="0.0197410583496094">
        <ele>225.0196742014723</ele>
        <time>2022-10-04T14:29:21.490Z</time>
      </trkpt>
      <trkpt lat="38.74571084976196" lon="0.0193226337432861">
        <ele>224.970739671874</ele>
        <time>2022-10-04T14:29:23.613Z</time>
      </trkpt>
      <trkpt lat="38.745635747909546" lon="0.0192046165466309">
        <ele>224.88483079282327</ele>
        <time>2022-10-04T14:29:25.737Z</time>
      </trkpt>
      <trkpt lat="38.74558210372925" lon="0.0191617012023926">
        <ele>224.73401964302593</ele>
        <time>2022-10-04T14:29:27.862Z</time>
      </trkpt>
      <trkpt lat="38.74460586346686" lon="0.0188076496124268">
        <ele>224.50927666029006</ele>
        <time>2022-10-04T14:29:30.003Z</time>
      </trkpt>
      <trkpt lat="38.74405860900879" lon="0.0186252593994141">
        <ele>224.06355027536284</ele>
        <time>2022-10-04T14:29:32.153Z</time>
      </trkpt>
      <trkpt lat="38.743940591812134" lon="0.0186252593994141">
        <ele>223.57621234433162</ele>
        <time>2022-10-04T14:29:34.304Z</time>
      </trkpt>
      <trkpt lat="38.74377965927124" lon="0.0186681747436523">
        <ele>222.96460410883046</ele>
        <time>2022-10-04T14:29:36.458Z</time>
      </trkpt>
      <trkpt lat="38.7432324886322" lon="0.0189363956451416">
        <ele>222.14548497036157</ele>
        <time>2022-10-04T14:29:38.621Z</time>
      </trkpt>
      <trkpt lat="38.74310374259949" lon="0.0189685821533203">
        <ele>221.4394110446391</ele>
        <time>2022-10-04T14:29:40.786Z</time>
      </trkpt>
      <trkpt lat="38.742942810058594" lon="0.0189042091369629">
        <ele>220.65139922490505</ele>
        <time>2022-10-04T14:29:42.954Z</time>
      </trkpt>
      <trkpt lat="38.742835521698" lon="0.0187969207763672">
        <ele>219.8606213503929</ele>
        <time>2022-10-04T14:29:45.124Z</time>
      </trkpt>
      <trkpt lat="38.742685317993164" lon="0.0185179710388184">
        <ele>219.00356800607497</ele>
        <time>2022-10-04T14:29:47.298Z</time>
      </trkpt>
      <trkpt lat="38.74251365661621" lon="0.0181102752685547">
        <ele>218.11428418314847</ele>
        <time>2022-10-04T14:29:49.477Z</time>
      </trkpt>
      <trkpt lat="38.74251374043524" lon="0.0181102752685547">
        <ele>217.28068305163035</ele>
        <time>2022-10-04T14:29:51.656Z</time>
      </trkpt>
      <trkpt lat="38.74244928359985" lon="0.0179815292358398">
        <ele>216.37273067673505</ele>
        <time>2022-10-04T14:29:53.837Z</time>
      </trkpt>
      <trkpt lat="38.742427825927734" lon="0.0178849697113037">
        <ele>215.48612325307235</ele>
        <time>2022-10-04T14:29:56.019Z</time>
      </trkpt>
      <trkpt lat="38.742438638582826" lon="0.0174665451049805">
        <ele>214.66871887467573</ele>
        <time>2022-10-04T14:29:58.206Z</time>
      </trkpt>
      <trkpt lat="38.74245741404593" lon="0.017032865434885">
        <ele>213.68498248450175</ele>
        <time>2022-10-04T14:30:00.399Z</time>
      </trkpt>
      <trkpt lat="38.74245749786496" lon="0.0170326139777899">
        <ele>212.76713982839553</ele>
        <time>2022-10-04T14:30:02.592Z</time>
      </trkpt>
      <trkpt lat="38.74246001243591" lon="0.0169730186462402">
        <ele>211.7901340751563</ele>
        <time>2022-10-04T14:30:04.785Z</time>
      </trkpt>
      <trkpt lat="38.74250292778015" lon="0.0168442726135254">
        <ele>210.7941200921018</ele>
        <time>2022-10-04T14:30:06.980Z</time>
      </trkpt>
      <trkpt lat="38.74261021614075" lon="0.0166189670562744">
        <ele>209.74793402942402</ele>
        <time>2022-10-04T14:30:09.178Z</time>
      </trkpt>
      <trkpt lat="38.742631673812866" lon="0.0165331363677979">
        <ele>208.73667203755065</ele>
        <time>2022-10-04T14:30:11.377Z</time>
      </trkpt>
      <trkpt lat="38.742642402648926" lon="0.0164473056793213">
        <ele>207.7813549382097</ele>
        <time>2022-10-04T14:30:13.577Z</time>
      </trkpt>
      <trkpt lat="38.74262094497681" lon="0.0162756443023682">
        <ele>206.77212169187493</ele>
        <time>2022-10-04T14:30:15.779Z</time>
      </trkpt>
      <trkpt lat="38.74256730079651" lon="0.0161254405975342">
        <ele>205.73573130181074</ele>
        <time>2022-10-04T14:30:17.983Z</time>
      </trkpt>
      <trkpt lat="38.74241718091071" lon="0.0158679485321045">
        <ele>204.61979719812206</ele>
        <time>2022-10-04T14:30:20.191Z</time>
      </trkpt>
      <trkpt lat="38.74239572323859" lon="0.0158357620239258">
        <ele>203.60241470208047</ele>
        <time>2022-10-04T14:30:22.400Z</time>
      </trkpt>
      <trkpt lat="38.74237418174744" lon="0.0158035755157471">
        <ele>202.582371373816</ele>
        <time>2022-10-04T14:30:24.609Z</time>
      </trkpt>
      <trkpt lat="38.74234199523926" lon="0.0156426429748535">
        <ele>201.54987697149886</ele>
        <time>2022-10-04T14:30:26.820Z</time>
      </trkpt>
      <trkpt lat="38.74232053756714" lon="0.0152456760406494">
        <ele>200.52212130615652</ele>
        <time>2022-10-04T14:30:29.036Z</time>
      </trkpt>
      <trkpt lat="38.74226689338684" lon="0.0151169300079346">
        <ele>199.4718881201169</ele>
        <time>2022-10-04T14:30:31.254Z</time>
      </trkpt>
      <trkpt lat="38.742191791534424" lon="0.0150203704833984">
        <ele>198.3904204017133</ele>
        <time>2022-10-04T14:30:33.473Z</time>
      </trkpt>
      <trkpt lat="38.74205231666565" lon="0.0149023532867432">
        <ele>197.22838716914356</ele>
        <time>2022-10-04T14:30:35.695Z</time>
      </trkpt>
      <trkpt lat="38.74197721481323" lon="0.0147736072540283">
        <ele>196.2079995950637</ele>
        <time>2022-10-04T14:30:37.919Z</time>
      </trkpt>
      <trkpt lat="38.741934299468994" lon="0.0146341323852539">
        <ele>195.26598591355904</ele>
        <time>2022-10-04T14:30:40.145Z</time>
      </trkpt>
      <trkpt lat="38.74188073910773" lon="0.0142264366149902">
        <ele>194.3231459440252</ele>
        <time>2022-10-04T14:30:42.376Z</time>
      </trkpt>
      <trkpt lat="38.74178409576416" lon="0.0134754180908203">
        <ele>193.29691847824972</ele>
        <time>2022-10-04T14:30:44.616Z</time>
      </trkpt>
      <trkpt lat="38.7417733669281" lon="0.013357400894165">
        <ele>192.3887246724584</ele>
        <time>2022-10-04T14:30:46.857Z</time>
      </trkpt>
      <trkpt lat="38.74178417958319" lon="0.0131642818450928">
        <ele>191.53829666054435</ele>
        <time>2022-10-04T14:30:49.101Z</time>
      </trkpt>
      <trkpt lat="38.7418270111084" lon="0.0127565860748291">
        <ele>190.74826378229838</ele>
        <time>2022-10-04T14:30:51.350Z</time>
      </trkpt>
      <trkpt lat="38.74182709492743" lon="0.0125420093536377">
        <ele>189.93872773882163</ele>
        <time>2022-10-04T14:30:53.601Z</time>
      </trkpt>
      <trkpt lat="38.74173045158386" lon="0.0117480754852295">
        <ele>188.89374674577329</ele>
        <time>2022-10-04T14:30:55.862Z</time>
      </trkpt>
      <trkpt lat="38.74170899391174" lon="0.0113832950592041">
        <ele>187.90824895941023</ele>
        <time>2022-10-04T14:30:58.127Z</time>
      </trkpt>
      <trkpt lat="38.7417197227478" lon="0.011136531829834">
        <ele>187.16448528133847</ele>
        <time>2022-10-04T14:31:00.395Z</time>
      </trkpt>
      <trkpt lat="38.74181628227234" lon="0.0105679035186768">
        <ele>186.6606326633119</ele>
        <time>2022-10-04T14:31:02.670Z</time>
      </trkpt>
      <trkpt lat="38.74181628227234" lon="0.0104820728302002">
        <ele>186.06215625670956</ele>
        <time>2022-10-04T14:31:04.946Z</time>
      </trkpt>
      <trkpt lat="38.74180555343628" lon="0.0103747844696045">
        <ele>185.51270627725813</ele>
        <time>2022-10-04T14:31:07.224Z</time>
      </trkpt>
      <trkpt lat="38.741709077730775" lon="0.0101172924041748">
        <ele>184.80290590697797</ele>
        <time>2022-10-04T14:31:09.505Z</time>
      </trkpt>
      <trkpt lat="38.741687620058656" lon="0.010063648223877">
        <ele>184.3725314327308</ele>
        <time>2022-10-04T14:31:11.787Z</time>
      </trkpt>
      <trkpt lat="38.741676807403564" lon="0.00998854637146">
        <ele>183.9901136677429</ele>
        <time>2022-10-04T14:31:14.070Z</time>
      </trkpt>
      <trkpt lat="38.7417197227478" lon="0.0098276138305664">
        <ele>183.6430229670546</ele>
        <time>2022-10-04T14:31:16.355Z</time>
      </trkpt>
      <trkpt lat="38.74203085899353" lon="0.00923752784729">
        <ele>183.54914706175992</ele>
        <time>2022-10-04T14:31:18.648Z</time>
      </trkpt>
      <trkpt lat="38.74232062138617" lon="0.0085937976837158">
        <ele>183.55263308753672</ele>
        <time>2022-10-04T14:31:20.950Z</time>
      </trkpt>
      <trkpt lat="38.74235272407532" lon="0.008465051651001">
        <ele>183.39724531479956</ele>
        <time>2022-10-04T14:31:23.254Z</time>
      </trkpt>
      <trkpt lat="38.742427825927734" lon="0.0077140331268311">
        <ele>183.14066816178706</ele>
        <time>2022-10-04T14:31:25.567Z</time>
      </trkpt>
      <trkpt lat="38.74249219894409" lon="0.0073385238647461">
        <ele>183.04254950935018</ele>
        <time>2022-10-04T14:31:27.885Z</time>
      </trkpt>
      <trkpt lat="38.74278196133673" lon="0.0064265727996826">
        <ele>183.0376717866948</ele>
        <time>2022-10-04T14:31:30.214Z</time>
      </trkpt>
      <trkpt lat="38.74283560551703" lon="0.0062012672424316">
        <ele>182.914911809692</ele>
        <time>2022-10-04T14:31:32.546Z</time>
      </trkpt>
      <trkpt lat="38.742910623550415" lon="0.0058150291442871">
        <ele>182.84345522340556</ele>
        <time>2022-10-04T14:31:34.883Z</time>
      </trkpt>
      <trkpt lat="38.74291070736945" lon="0.0058150291442871">
        <ele>182.737256539946</ele>
        <time>2022-10-04T14:31:37.220Z</time>
      </trkpt>
      <trkpt lat="38.74298572540283" lon="0.0055468082427979">
        <ele>182.53860335456733</ele>
        <time>2022-10-04T14:31:39.561Z</time>
      </trkpt>
      <trkpt lat="38.742985809221864" lon="0.0055468082427979">
        <ele>182.42358063502988</ele>
        <time>2022-10-04T14:31:41.902Z</time>
      </trkpt>
      <trkpt lat="38.74299645423889" lon="0.0055360794067383">
        <ele>182.3035900660166</ele>
        <time>2022-10-04T14:31:44.243Z</time>
      </trkpt>
      <trkpt lat="38.74306091107428" lon="0.0054502487182617">
        <ele>182.170377889824</ele>
        <time>2022-10-04T14:31:46.585Z</time>
      </trkpt>
      <trkpt lat="38.74311447143555" lon="0.0053858757019043">
        <ele>182.03375049010629</ele>
        <time>2022-10-04T14:31:48.928Z</time>
      </trkpt>
      <trkpt lat="38.74315747059882" lon="0.0051820278167725">
        <ele>181.77448790127852</ele>
        <time>2022-10-04T14:31:51.274Z</time>
      </trkpt>
      <trkpt lat="38.743189573287964" lon="0.0048065185546875">
        <ele>181.59142985073453</ele>
        <time>2022-10-04T14:31:53.624Z</time>
      </trkpt>
      <trkpt lat="38.74326467514038" lon="0.0043773651123047">
        <ele>181.405504400575</ele>
        <time>2022-10-04T14:31:55.980Z</time>
      </trkpt>
      <trkpt lat="38.74326467514038" lon="0.0042915344238281">
        <ele>181.27343920497108</ele>
        <time>2022-10-04T14:31:58.337Z</time>
      </trkpt>
      <trkpt lat="38.74326475895941" lon="0.0042915344238281">
        <ele>181.19138867895424</ele>
        <time>2022-10-04T14:32:00.694Z</time>
      </trkpt>
      <trkpt lat="38.7432324886322" lon="0.0042378902435303">
        <ele>181.11218729971796</ele>
        <time>2022-10-04T14:32:03.052Z</time>
      </trkpt>
      <trkpt lat="38.74308228492737" lon="0.0040984153747559">
        <ele>181.01424150199497</ele>
        <time>2022-10-04T14:32:05.412Z</time>
      </trkpt>
      <trkpt lat="38.74300718307495" lon="0.003969669342041">
        <ele>180.94792220645445</ele>
        <time>2022-10-04T14:32:07.774Z</time>
      </trkpt>
      <trkpt lat="38.74297499656677" lon="0.0038838386535645">
        <ele>180.92190351815609</ele>
        <time>2022-10-04T14:32:10.137Z</time>
      </trkpt>
      <trkpt lat="38.742899894714355" lon="0.0034332275390625">
        <ele>180.76512716049083</ele>
        <time>2022-10-04T14:32:12.506Z</time>
      </trkpt>
      <trkpt lat="38.74203094281256" lon="-0.0014913082122803">
        <ele>181.07925286732763</ele>
        <time>2022-10-04T14:32:14.936Z</time>
      </trkpt>
      <trkpt lat="38.741912841796875" lon="-0.0021243095397949">
        <ele>181.3753841774069</ele>
        <time>2022-10-04T14:32:17.374Z</time>
      </trkpt>
      <trkpt lat="38.741676891222596" lon="-0.0035083293914795">
        <ele>181.56557285949535</ele>
        <time>2022-10-04T14:32:19.829Z</time>
      </trkpt>
      <trkpt lat="38.74160170555115" lon="-0.0039267539978027">
        <ele>181.74066099347175</ele>
        <time>2022-10-04T14:32:22.289Z</time>
      </trkpt>
      <trkpt lat="38.74160178937018" lon="-0.0039267539978027">
        <ele>181.8738596889934</ele>
        <time>2022-10-04T14:32:24.749Z</time>
      </trkpt>
      <trkpt lat="38.74159106053412" lon="-0.0040555000305176">
        <ele>182.035877434396</ele>
        <time>2022-10-04T14:32:27.210Z</time>
      </trkpt>
      <trkpt lat="38.74156951904297" lon="-0.0042808055877686">
        <ele>182.19808665626238</ele>
        <time>2022-10-04T14:32:29.674Z</time>
      </trkpt>
      <trkpt lat="38.74158024787903" lon="-0.0047099590301514">
        <ele>182.36233973300557</ele>
        <time>2022-10-04T14:32:32.143Z</time>
      </trkpt>
      <trkpt lat="38.74159097671509" lon="-0.0048708915710449">
        <ele>182.47257721027137</ele>
        <time>2022-10-04T14:32:34.614Z</time>
      </trkpt>
      <trkpt lat="38.74159106053412" lon="-0.0048708915710449">
        <ele>182.58408827964203</ele>
        <time>2022-10-04T14:32:37.085Z</time>
      </trkpt>
      <trkpt lat="38.74161243438721" lon="-0.0051391124725342">
        <ele>182.67672318374585</ele>
        <time>2022-10-04T14:32:39.559Z</time>
      </trkpt>
      <trkpt lat="38.7417197227478" lon="-0.0058794021606445">
        <ele>182.83614526879563</ele>
        <time>2022-10-04T14:32:42.043Z</time>
      </trkpt>
      <trkpt lat="38.741719806566834" lon="-0.0058794021606445">
        <ele>182.91745590508248</ele>
        <time>2022-10-04T14:32:44.527Z</time>
      </trkpt>
      <trkpt lat="38.7418270111084" lon="-0.00649094581604">
        <ele>182.90252754235618</ele>
        <time>2022-10-04T14:32:47.018Z</time>
      </trkpt>
      <trkpt lat="38.741912841796875" lon="-0.0073277950286865">
        <ele>182.84362649218025</ele>
        <time>2022-10-04T14:32:49.519Z</time>
      </trkpt>
      <trkpt lat="38.741945028305054" lon="-0.0074672698974609">
        <ele>182.8685838775207</ele>
        <time>2022-10-04T14:32:52.022Z</time>
      </trkpt>
      <trkpt lat="38.74200940132141" lon="-0.0075638294219971">
        <ele>182.86582654828055</ele>
        <time>2022-10-04T14:32:54.527Z</time>
      </trkpt>
      <trkpt lat="38.74203085899353" lon="-0.0075852870941162">
        <ele>182.94441546598506</ele>
        <time>2022-10-04T14:32:57.032Z</time>
      </trkpt>
      <trkpt lat="38.74206304550171" lon="-0.0076389312744141">
        <ele>183.0216685784029</ele>
        <time>2022-10-04T14:32:59.538Z</time>
      </trkpt>
      <trkpt lat="38.7420738581568" lon="-0.0076818466186523">
        <ele>183.12600363629915</ele>
        <time>2022-10-04T14:33:02.044Z</time>
      </trkpt>
      <trkpt lat="38.74206304550171" lon="-0.0077354907989502">
        <ele>183.23873566150885</ele>
        <time>2022-10-04T14:33:04.551Z</time>
      </trkpt>
      <trkpt lat="38.74203085899353" lon="-0.0078535079956055">
        <ele>183.36889634830487</ele>
        <time>2022-10-04T14:33:07.059Z</time>
      </trkpt>
      <trkpt lat="38.74204158782959" lon="-0.0080358982086182">
        <ele>183.57020222108156</ele>
        <time>2022-10-04T14:33:09.570Z</time>
      </trkpt>
      <trkpt lat="38.74214896000922" lon="-0.0084435939788818">
        <ele>183.86690826019665</ele>
        <time>2022-10-04T14:33:12.086Z</time>
      </trkpt>
      <trkpt lat="38.74227770604193" lon="-0.0089585781097412">
        <ele>184.07120329007623</ele>
        <time>2022-10-04T14:33:14.608Z</time>
      </trkpt>
      <trkpt lat="38.7423312664032" lon="-0.0092160701751709">
        <ele>184.19371136861173</ele>
        <time>2022-10-04T14:33:17.134Z</time>
      </trkpt>
      <trkpt lat="38.74233135022223" lon="-0.0092160701751709">
        <ele>184.30357954395487</ele>
        <time>2022-10-04T14:33:19.660Z</time>
      </trkpt>
      <trkpt lat="38.74236345291138" lon="-0.0093770027160645">
        <ele>184.42920298098443</ele>
        <time>2022-10-04T14:33:22.188Z</time>
      </trkpt>
      <trkpt lat="38.74236353673041" lon="-0.0093770027160645">
        <ele>184.52455444757018</ele>
        <time>2022-10-04T14:33:24.716Z</time>
      </trkpt>
      <trkpt lat="38.74255456030369" lon="-0.0103151053190231">
        <ele>184.62596188931158</ele>
        <time>2022-10-04T14:33:27.255Z</time>
      </trkpt>
      <trkpt lat="38.74255464412272" lon="-0.0103153567761183">
        <ele>184.70942352183903</ele>
        <time>2022-10-04T14:33:29.794Z</time>
      </trkpt>
      <trkpt lat="38.74259948730469" lon="-0.010535717010498">
        <ele>184.7128156292017</ele>
        <time>2022-10-04T14:33:32.336Z</time>
      </trkpt>
      <trkpt lat="38.74259957112372" lon="-0.010535717010498">
        <ele>184.79476204222613</ele>
        <time>2022-10-04T14:33:34.878Z</time>
      </trkpt>
      <trkpt lat="38.74261029995978" lon="-0.0105786323547363">
        <ele>184.863772083223</ele>
        <time>2022-10-04T14:33:37.421Z</time>
      </trkpt>
      <trkpt lat="38.742674589157104" lon="-0.010986328125">
        <ele>184.84398672883714</ele>
        <time>2022-10-04T14:33:39.969Z</time>
      </trkpt>
      <trkpt lat="38.742685317993164" lon="-0.0110507011413574">
        <ele>184.93350960172052</ele>
        <time>2022-10-04T14:33:42.517Z</time>
      </trkpt>
      <trkpt lat="38.742685401812196" lon="-0.0110507011413574">
        <ele>185.06065000609115</ele>
        <time>2022-10-04T14:33:45.065Z</time>
      </trkpt>
      <trkpt lat="38.742696130648255" lon="-0.0112330913543701">
        <ele>185.16401134271294</ele>
        <time>2022-10-04T14:33:47.616Z</time>
      </trkpt>
      <trkpt lat="38.742706859484315" lon="-0.0123381614685059">
        <ele>185.31889369019154</ele>
        <time>2022-10-04T14:33:50.180Z</time>
      </trkpt>
      <trkpt lat="38.74276050366461" lon="-0.0129711627960205">
        <ele>185.56128951662555</ele>
        <time>2022-10-04T14:33:52.751Z</time>
      </trkpt>
      <trkpt lat="38.74271750450134" lon="-0.0135183334350586">
        <ele>185.90483666294975</ele>
        <time>2022-10-04T14:33:55.329Z</time>
      </trkpt>
      <trkpt lat="38.74274969100952" lon="-0.0137865543365479">
        <ele>186.1705067947808</ele>
        <time>2022-10-04T14:33:57.910Z</time>
      </trkpt>
      <trkpt lat="38.74279260635376" lon="-0.0139153003692627">
        <ele>186.44064099016015</ele>
        <time>2022-10-04T14:34:00.493Z</time>
      </trkpt>
      <trkpt lat="38.74281414784491" lon="-0.0139689445495605">
        <ele>186.72254772823646</ele>
        <time>2022-10-04T14:34:03.077Z</time>
      </trkpt>
      <trkpt lat="38.74281406402588" lon="-0.0139689445495605">
        <ele>187.0188931934734</ele>
        <time>2022-10-04T14:34:05.661Z</time>
      </trkpt>
      <trkpt lat="38.74280333518982" lon="-0.0140762329101562">
        <ele>187.3475016877868</ele>
        <time>2022-10-04T14:34:08.246Z</time>
      </trkpt>
      <trkpt lat="38.74276041984558" lon="-0.0142693519592285">
        <ele>187.71834840757919</ele>
        <time>2022-10-04T14:34:10.833Z</time>
      </trkpt>
      <trkpt lat="38.74274969100952" lon="-0.0143444538116455">
        <ele>188.05863199499913</ele>
        <time>2022-10-04T14:34:13.421Z</time>
      </trkpt>
      <trkpt lat="38.7427818775177" lon="-0.0145053863525391">
        <ele>188.41331363453227</ele>
        <time>2022-10-04T14:34:16.011Z</time>
      </trkpt>
      <trkpt lat="38.742889165878296" lon="-0.01473069190979">
        <ele>188.77603519986405</ele>
        <time>2022-10-04T14:34:18.605Z</time>
      </trkpt>
      <trkpt lat="38.74288924969733" lon="-0.01473069190979">
        <ele>189.10660148391435</ele>
        <time>2022-10-04T14:34:21.199Z</time>
      </trkpt>
      <trkpt lat="38.74326467514038" lon="-0.0152885913848877">
        <ele>189.59087824686299</ele>
        <time>2022-10-04T14:34:23.801Z</time>
      </trkpt>
      <trkpt lat="38.74337196350098" lon="-0.0155246257781982">
        <ele>189.92092041754978</ele>
        <time>2022-10-04T14:34:26.407Z</time>
      </trkpt>
      <trkpt lat="38.743436420336366" lon="-0.0157284736633301">
        <ele>190.23158157607133</ele>
        <time>2022-10-04T14:34:29.015Z</time>
      </trkpt>
      <trkpt lat="38.74359726905823" lon="-0.0165760517120361">
        <ele>190.71434762972189</ele>
        <time>2022-10-04T14:34:31.634Z</time>
      </trkpt>
      <trkpt lat="38.74359735287726" lon="-0.0165760517120361">
        <ele>190.95945360545733</ele>
        <time>2022-10-04T14:34:34.253Z</time>
      </trkpt>
      <trkpt lat="38.743672370910645" lon="-0.0169408321380615">
        <ele>191.06836160003357</ele>
        <time>2022-10-04T14:34:36.876Z</time>
      </trkpt>
      <trkpt lat="38.74381184577942" lon="-0.0174129009246826">
        <ele>191.19510642271038</ele>
        <time>2022-10-04T14:34:39.505Z</time>
      </trkpt>
      <trkpt lat="38.744133710861206" lon="-0.0184857845306396">
        <ele>191.42616203587787</ele>
        <time>2022-10-04T14:34:42.148Z</time>
      </trkpt>
      <trkpt lat="38.74433755874634" lon="-0.0191187858581543">
        <ele>191.41873412865664</ele>
        <time>2022-10-04T14:34:44.800Z</time>
      </trkpt>
      <trkpt lat="38.74433764256537" lon="-0.0191187858581543">
        <ele>191.5555468958196</ele>
        <time>2022-10-04T14:34:47.452Z</time>
      </trkpt>
      <trkpt lat="38.74435910023749" lon="-0.0191617012023926">
        <ele>191.70226191820984</ele>
        <time>2022-10-04T14:34:50.104Z</time>
      </trkpt>
      <trkpt lat="38.74447703361511" lon="-0.0195372104644775">
        <ele>191.96063239539905</ele>
        <time>2022-10-04T14:34:52.761Z</time>
      </trkpt>
      <trkpt lat="38.744487846270204" lon="-0.0197410583496094">
        <ele>192.0981952795138</ele>
        <time>2022-10-04T14:34:55.420Z</time>
      </trkpt>
      <trkpt lat="38.74445557594299" lon="-0.0201809406280518">
        <ele>192.1249510682474</ele>
        <time>2022-10-04T14:34:58.085Z</time>
      </trkpt>
      <trkpt lat="38.744477117434144" lon="-0.0203311443328857">
        <ele>192.22302616504334</ele>
        <time>2022-10-04T14:35:00.752Z</time>
      </trkpt>
      <trkpt lat="38.74454140663147" lon="-0.0204277038574219">
        <ele>192.3292963339477</ele>
        <time>2022-10-04T14:35:03.420Z</time>
      </trkpt>
      <trkpt lat="38.74498128890991" lon="-0.0206208229064941">
        <ele>192.34534450945608</ele>
        <time>2022-10-04T14:35:06.095Z</time>
      </trkpt>
      <trkpt lat="38.744981372728944" lon="-0.0206208229064941">
        <ele>192.46324006997247</ele>
        <time>2022-10-04T14:35:08.770Z</time>
      </trkpt>
      <trkpt lat="38.74506720341742" lon="-0.0206959247589111">
        <ele>192.58099450425146</ele>
        <time>2022-10-04T14:35:11.447Z</time>
      </trkpt>
      <trkpt lat="38.74508857727051" lon="-0.0207602977752686">
        <ele>192.74879587178967</ele>
        <time>2022-10-04T14:35:14.125Z</time>
      </trkpt>
      <trkpt lat="38.74509930610657" lon="-0.0210392475128174">
        <ele>193.0008675740911</ele>
        <time>2022-10-04T14:35:16.806Z</time>
      </trkpt>
      <trkpt lat="38.7450993899256" lon="-0.0210392475128174">
        <ele>193.19597211240418</ele>
        <time>2022-10-04T14:35:19.487Z</time>
      </trkpt>
      <trkpt lat="38.74508857727051" lon="-0.0214469432830811">
        <ele>193.5432264486236</ele>
        <time>2022-10-04T14:35:22.173Z</time>
      </trkpt>
      <trkpt lat="38.74508866108954" lon="-0.0214469432830811">
        <ele>193.78455391805238</ele>
        <time>2022-10-04T14:35:24.859Z</time>
      </trkpt>
      <trkpt lat="38.74512076377869" lon="-0.0216078758239746">
        <ele>194.0984594914698</ele>
        <time>2022-10-04T14:35:27.547Z</time>
      </trkpt>
      <trkpt lat="38.7453031539917" lon="-0.0221550464630127">
        <ele>194.47660186100615</ele>
        <time>2022-10-04T14:35:30.242Z</time>
      </trkpt>
      <trkpt lat="38.74554849229753" lon="-0.0227453839033842">
        <ele>194.73177917648965</ele>
        <time>2022-10-04T14:35:32.945Z</time>
      </trkpt>
      <trkpt lat="38.74554857611656" lon="-0.0227455515414476">
        <ele>195.07245352443198</ele>
        <time>2022-10-04T14:35:35.648Z</time>
      </trkpt>
      <trkpt lat="38.74564656056464" lon="-0.0229811668395996">
        <ele>195.3778219446453</ele>
        <time>2022-10-04T14:35:38.354Z</time>
      </trkpt>
      <trkpt lat="38.74598988331854" lon="-0.0237643718719482">
        <ele>195.89904393161373</ele>
        <time>2022-10-04T14:35:41.071Z</time>
      </trkpt>
      <trkpt lat="38.74630093574524" lon="-0.024493932723999">
        <ele>196.3968071090369</ele>
        <time>2022-10-04T14:35:43.798Z</time>
      </trkpt>
      <trkpt lat="38.74633320607245" lon="-0.0246334075927734">
        <ele>196.87384163429067</ele>
        <time>2022-10-04T14:35:46.527Z</time>
      </trkpt>
      <trkpt lat="38.74635466374457" lon="-0.0247085094451904">
        <ele>197.38684582812047</ele>
        <time>2022-10-04T14:35:49.257Z</time>
      </trkpt>
      <trkpt lat="38.746418952941895" lon="-0.0249338150024414">
        <ele>197.97797186648535</ele>
        <time>2022-10-04T14:35:51.990Z</time>
      </trkpt>
      <trkpt lat="38.7465048674494" lon="-0.0254702568054199">
        <ele>198.61207739328893</ele>
        <time>2022-10-04T14:35:54.729Z</time>
      </trkpt>
      <trkpt lat="38.746676445007324" lon="-0.0266933441162109">
        <ele>199.01533779438074</ele>
        <time>2022-10-04T14:35:57.483Z</time>
      </trkpt>
      <trkpt lat="38.74675163067877" lon="-0.0270581245422363">
        <ele>199.64873828436203</ele>
        <time>2022-10-04T14:36:00.242Z</time>
      </trkpt>
      <trkpt lat="38.74675163067877" lon="-0.027090311050415">
        <ele>200.31682883229993</ele>
        <time>2022-10-04T14:36:03.001Z</time>
      </trkpt>
      <trkpt lat="38.7468159198761" lon="-0.0274443626403809">
        <ele>201.13082090508811</ele>
        <time>2022-10-04T14:36:05.765Z</time>
      </trkpt>
      <trkpt lat="38.746891021728516" lon="-0.0277447700500488">
        <ele>201.94811631663518</ele>
        <time>2022-10-04T14:36:08.533Z</time>
      </trkpt>
      <trkpt lat="38.747191512957215" lon="-0.0284850597381592">
        <ele>202.99948646373872</ele>
        <time>2022-10-04T14:36:11.311Z</time>
      </trkpt>
      <trkpt lat="38.74734171666205" lon="-0.0289356708526611">
        <ele>203.9844389913643</ele>
        <time>2022-10-04T14:36:14.094Z</time>
      </trkpt>
      <trkpt lat="38.747395277023315" lon="-0.0295686721801758">
        <ele>204.81823683786587</ele>
        <time>2022-10-04T14:36:16.885Z</time>
      </trkpt>
      <trkpt lat="38.747438192367554" lon="-0.0299012660980225">
        <ele>205.54581631715848</ele>
        <time>2022-10-04T14:36:19.680Z</time>
      </trkpt>
      <trkpt lat="38.74754548072815" lon="-0.0304269790649414">
        <ele>206.44777152048584</ele>
        <time>2022-10-04T14:36:22.482Z</time>
      </trkpt>
      <trkpt lat="38.74773868359625" lon="-0.0311028957366943">
        <ele>207.47812571016055</ele>
        <time>2022-10-04T14:36:25.292Z</time>
      </trkpt>
      <trkpt lat="38.747888803482056" lon="-0.0315964221954346">
        <ele>208.38163307333718</ele>
        <time>2022-10-04T14:36:28.109Z</time>
      </trkpt>
      <trkpt lat="38.74797463417053" lon="-0.0319933891296387">
        <ele>209.2573562629202</ele>
        <time>2022-10-04T14:36:30.931Z</time>
      </trkpt>
      <trkpt lat="38.74798536300659" lon="-0.0321972370147705">
        <ele>210.16874373506346</ele>
        <time>2022-10-04T14:36:33.755Z</time>
      </trkpt>
      <trkpt lat="38.74798544682562" lon="-0.0324225425720215">
        <ele>211.1462554225937</ele>
        <time>2022-10-04T14:36:36.582Z</time>
      </trkpt>
      <trkpt lat="38.74794244766235" lon="-0.0329911708831787">
        <ele>212.1443033400554</ele>
        <time>2022-10-04T14:36:39.416Z</time>
      </trkpt>
      <trkpt lat="38.74794244766235" lon="-0.0333988666534424">
        <ele>213.31995913664673</ele>
        <time>2022-10-04T14:36:42.255Z</time>
      </trkpt>
      <trkpt lat="38.74798536300659" lon="-0.0336241722106934">
        <ele>214.5446243769784</ele>
        <time>2022-10-04T14:36:45.096Z</time>
      </trkpt>
      <trkpt lat="38.74808200635016" lon="-0.033881664276123">
        <ele>215.81678818065126</ele>
        <time>2022-10-04T14:36:47.941Z</time>
      </trkpt>
      <trkpt lat="38.74847888946533" lon="-0.034482479095459">
        <ele>217.2659201881259</ele>
        <time>2022-10-04T14:36:50.795Z</time>
      </trkpt>
      <trkpt lat="38.74887594021857" lon="-0.035254955291748">
        <ele>218.2262924392826</ele>
        <time>2022-10-04T14:36:53.660Z</time>
      </trkpt>
      <trkpt lat="38.749433755874634" lon="-0.0363278388977051">
        <ele>219.4467512523566</ele>
        <time>2022-10-04T14:36:56.541Z</time>
      </trkpt>
      <trkpt lat="38.74951958656311" lon="-0.0365531444549561">
        <ele>220.45873603919262</ele>
        <time>2022-10-04T14:36:59.425Z</time>
      </trkpt>
      <trkpt lat="38.74958395957947" lon="-0.0368857383728027">
        <ele>221.54131395025814</ele>
        <time>2022-10-04T14:37:02.313Z</time>
      </trkpt>
      <trkpt lat="38.7495840433985" lon="-0.0368857383728027">
        <ele>222.5187978945699</ele>
        <time>2022-10-04T14:37:05.201Z</time>
      </trkpt>
      <trkpt lat="38.749680519104004" lon="-0.037529468536377">
        <ele>223.58296458953004</ele>
        <time>2022-10-04T14:37:08.097Z</time>
      </trkpt>
      <trkpt lat="38.74973424710333" lon="-0.0377225875854492">
        <ele>225.32837549794152</ele>
        <time>2022-10-04T14:37:10.995Z</time>
      </trkpt>
      <trkpt lat="38.7497341632843" lon="-0.0377440452575684">
        <ele>226.1404700669961</ele>
        <time>2022-10-04T14:37:13.894Z</time>
      </trkpt>
      <trkpt lat="38.74973424710333" lon="-0.0377440452575684">
        <ele>226.8996047053759</ele>
        <time>2022-10-04T14:37:16.793Z</time>
      </trkpt>
      <trkpt lat="38.74987372197211" lon="-0.0379908084869385">
        <ele>227.57855689447211</ele>
        <time>2022-10-04T14:37:19.695Z</time>
      </trkpt>
      <trkpt lat="38.749927366152406" lon="-0.0380659103393555">
        <ele>228.19184754060387</ele>
        <time>2022-10-04T14:37:22.599Z</time>
      </trkpt>
      <trkpt lat="38.750120401382446" lon="-0.0382375717163086">
        <ele>228.87172889395322</ele>
        <time>2022-10-04T14:37:25.506Z</time>
      </trkpt>
      <trkpt lat="38.75052809715271" lon="-0.038527250289917">
        <ele>229.68827307661928</ele>
        <time>2022-10-04T14:37:28.420Z</time>
      </trkpt>
      <trkpt lat="38.75081785954535" lon="-0.0388383865356445">
        <ele>230.32292964692834</ele>
        <time>2022-10-04T14:37:31.340Z</time>
      </trkpt>
      <trkpt lat="38.75094652175903" lon="-0.0390315055847168">
        <ele>230.76391419476738</ele>
        <time>2022-10-04T14:37:34.263Z</time>
      </trkpt>
      <trkpt lat="38.75101097859442" lon="-0.0391817092895508">
        <ele>231.12500448645764</ele>
        <time>2022-10-04T14:37:37.188Z</time>
      </trkpt>
      <trkpt lat="38.75108599662781" lon="-0.0394392013549805">
        <ele>231.43856598612712</ele>
        <time>2022-10-04T14:37:40.117Z</time>
      </trkpt>
      <trkpt lat="38.751128911972046" lon="-0.0399112701416016">
        <ele>231.80170962559137</ele>
        <time>2022-10-04T14:37:43.051Z</time>
      </trkpt>
      <trkpt lat="38.751161098480225" lon="-0.0400722026824951">
        <ele>231.93006292687215</ele>
        <time>2022-10-04T14:37:45.987Z</time>
      </trkpt>
      <trkpt lat="38.75121474266052" lon="-0.0402116775512695">
        <ele>232.00272541668363</ele>
        <time>2022-10-04T14:37:48.925Z</time>
      </trkpt>
      <trkpt lat="38.75128984451294" lon="-0.0403833389282227">
        <ele>232.01270571585502</ele>
        <time>2022-10-04T14:37:51.866Z</time>
      </trkpt>
      <trkpt lat="38.75152596272528" lon="-0.0407803058624268">
        <ele>232.0176070010483</ele>
        <time>2022-10-04T14:37:54.813Z</time>
      </trkpt>
      <trkpt lat="38.75182628631592" lon="-0.041348934173584">
        <ele>231.7624402769756</ele>
        <time>2022-10-04T14:37:57.768Z</time>
      </trkpt>
      <trkpt lat="38.75183701515198" lon="-0.0414454936981201">
        <ele>231.6348374867972</ele>
        <time>2022-10-04T14:38:00.724Z</time>
      </trkpt>
      <trkpt lat="38.751890659332275" lon="-0.0417029857635498">
        <ele>231.44862775905773</ele>
        <time>2022-10-04T14:38:03.683Z</time>
      </trkpt>
      <trkpt lat="38.751890659332275" lon="-0.0417995452880859">
        <ele>231.32553554680365</ele>
        <time>2022-10-04T14:38:06.643Z</time>
      </trkpt>
      <trkpt lat="38.75186928547919" lon="-0.0418639183044434">
        <ele>231.20971791204147</ele>
        <time>2022-10-04T14:38:09.604Z</time>
      </trkpt>
      <trkpt lat="38.75148891471326" lon="-0.0421419460326433">
        <ele>231.22147618702263</ele>
        <time>2022-10-04T14:38:12.572Z</time>
      </trkpt>
      <trkpt lat="38.75148883089423" lon="-0.0421419460326433">
        <ele>231.13767525394707</ele>
        <time>2022-10-04T14:38:15.540Z</time>
      </trkpt>
      <trkpt lat="38.75131130218506" lon="-0.042271614074707">
        <ele>231.04432030874136</ele>
        <time>2022-10-04T14:38:18.511Z</time>
      </trkpt>
      <trkpt lat="38.75131138600409" lon="-0.042271614074707">
        <ele>231.0339920868023</ele>
        <time>2022-10-04T14:38:21.482Z</time>
      </trkpt>
      <trkpt lat="38.7512469291687" lon="-0.0423145294189453">
        <ele>231.05719029626337</ele>
        <time>2022-10-04T14:38:24.454Z</time>
      </trkpt>
      <trkpt lat="38.75133275985718" lon="-0.0424754619598389">
        <ele>231.13436718603293</ele>
        <time>2022-10-04T14:38:27.429Z</time>
      </trkpt>
      <trkpt lat="38.75175126828253" lon="-0.0430548191070557">
        <ele>231.32839329346933</ele>
        <time>2022-10-04T14:38:30.413Z</time>
      </trkpt>
      <trkpt lat="38.751890659332275" lon="-0.0432479381561279">
        <ele>231.65918750019117</ele>
        <time>2022-10-04T14:38:33.400Z</time>
      </trkpt>
      <trkpt lat="38.75189074315131" lon="-0.0432479381561279">
        <ele>231.98607375617487</ele>
        <time>2022-10-04T14:38:36.387Z</time>
      </trkpt>
      <trkpt lat="38.75197649002075" lon="-0.0433874130249023">
        <ele>232.46816370128028</ele>
        <time>2022-10-04T14:38:39.376Z</time>
      </trkpt>
      <trkpt lat="38.75207304954529" lon="-0.0435805320739746">
        <ele>233.03171669276787</ele>
        <time>2022-10-04T14:38:42.368Z</time>
      </trkpt>
      <trkpt lat="38.752126693725586" lon="-0.0437843799591064">
        <ele>233.63182575320886</ele>
        <time>2022-10-04T14:38:45.363Z</time>
      </trkpt>
      <trkpt lat="38.75219106674194" lon="-0.0441384315490723">
        <ele>234.2621349181175</ele>
        <time>2022-10-04T14:38:48.362Z</time>
      </trkpt>
      <trkpt lat="38.752191150560975" lon="-0.0441384315490723">
        <ele>235.0553358363751</ele>
        <time>2022-10-04T14:38:51.361Z</time>
      </trkpt>
      <trkpt lat="38.75235199928284" lon="-0.0449752807617188">
        <ele>236.19482899094083</ele>
        <time>2022-10-04T14:38:54.370Z</time>
      </trkpt>
      <trkpt lat="38.75235208310187" lon="-0.0449752807617188">
        <ele>237.18610429612994</ele>
        <time>2022-10-04T14:38:57.379Z</time>
      </trkpt>
      <trkpt lat="38.752373456954956" lon="-0.0450611114501953">
        <ele>238.2910154822988</ele>
        <time>2022-10-04T14:39:00.390Z</time>
      </trkpt>
      <trkpt lat="38.752448642626405" lon="-0.0451898574829102">
        <ele>239.4423306902125</ele>
        <time>2022-10-04T14:39:03.402Z</time>
      </trkpt>
      <trkpt lat="38.75259876251221" lon="-0.0453507900238037">
        <ele>240.66956122940798</ele>
        <time>2022-10-04T14:39:06.417Z</time>
      </trkpt>
      <trkpt lat="38.752931356430054" lon="-0.0455760955810547">
        <ele>242.2167827763473</ele>
        <time>2022-10-04T14:39:09.438Z</time>
      </trkpt>
      <trkpt lat="38.752931440249085" lon="-0.0455760955810547">
        <ele>243.6531781480993</ele>
        <time>2022-10-04T14:39:12.459Z</time>
      </trkpt>
      <trkpt lat="38.75373601913452" lon="-0.0460803508758545">
        <ele>245.41315089049382</ele>
        <time>2022-10-04T14:39:15.494Z</time>
      </trkpt>
      <trkpt lat="38.75385403633118" lon="-0.0461554527282715">
        <ele>247.04221236164545</ele>
        <time>2022-10-04T14:39:18.531Z</time>
      </trkpt>
      <trkpt lat="38.75395059585571" lon="-0.0462520122528076">
        <ele>248.6899021808597</ele>
        <time>2022-10-04T14:39:21.570Z</time>
      </trkpt>
      <trkpt lat="38.75401496887207" lon="-0.0463593006134033">
        <ele>250.3630549384178</ele>
        <time>2022-10-04T14:39:24.611Z</time>
      </trkpt>
      <trkpt lat="38.75406861305237" lon="-0.0465309619903564">
        <ele>252.02109013542986</ele>
        <time>2022-10-04T14:39:27.654Z</time>
      </trkpt>
      <trkpt lat="38.75406861305237" lon="-0.046917200088501">
        <ele>253.8410720198604</ele>
        <time>2022-10-04T14:39:30.701Z</time>
      </trkpt>
      <trkpt lat="38.7540686968714" lon="-0.046917200088501">
        <ele>255.50380102088332</ele>
        <time>2022-10-04T14:39:33.748Z</time>
      </trkpt>
      <trkpt lat="38.75403642654419" lon="-0.0473785400390625">
        <ele>257.35262184298006</ele>
        <time>2022-10-04T14:39:36.801Z</time>
      </trkpt>
      <trkpt lat="38.75407934188843" lon="-0.0476467609405518">
        <ele>259.08219464192393</ele>
        <time>2022-10-04T14:39:39.857Z</time>
      </trkpt>
      <trkpt lat="38.75413306988776" lon="-0.047914981842041">
        <ele>260.6661427364099</ele>
        <time>2022-10-04T14:39:42.917Z</time>
      </trkpt>
      <trkpt lat="38.75426181592047" lon="-0.0483763217926025">
        <ele>262.18723536833755</ele>
        <time>2022-10-04T14:39:45.983Z</time>
      </trkpt>
      <trkpt lat="38.75428318977356" lon="-0.0485908985137939">
        <ele>263.58337086451525</ele>
        <time>2022-10-04T14:39:49.051Z</time>
      </trkpt>
      <trkpt lat="38.75422962941229" lon="-0.0491487979888916">
        <ele>265.10331836897524</ele>
        <time>2022-10-04T14:39:52.126Z</time>
      </trkpt>
      <trkpt lat="38.754218900576234" lon="-0.0492346286773682">
        <ele>266.3129763171811</ele>
        <time>2022-10-04T14:39:55.202Z</time>
      </trkpt>
      <trkpt lat="38.754218900576234" lon="-0.0492990016937256">
        <ele>267.36601125051686</ele>
        <time>2022-10-04T14:39:58.279Z</time>
      </trkpt>
      <trkpt lat="38.754186714068055" lon="-0.0495779514312744">
        <ele>268.2975071980866</ele>
        <time>2022-10-04T14:40:01.359Z</time>
      </trkpt>
      <trkpt lat="38.75419735908508" lon="-0.0497603416442871">
        <ele>269.01681638815046</ele>
        <time>2022-10-04T14:40:04.441Z</time>
      </trkpt>
      <trkpt lat="38.75424027442932" lon="-0.0500714778900146">
        <ele>269.58769303052554</ele>
        <time>2022-10-04T14:40:07.527Z</time>
      </trkpt>
      <trkpt lat="38.75431537628174" lon="-0.0502645969390869">
        <ele>269.7784187278744</ele>
        <time>2022-10-04T14:40:10.616Z</time>
      </trkpt>
      <trkpt lat="38.754369020462036" lon="-0.0503718852996826">
        <ele>269.75230134161313</ele>
        <time>2022-10-04T14:40:13.706Z</time>
      </trkpt>
      <trkpt lat="38.75449785031378" lon="-0.0505650043487549">
        <ele>269.40297583231495</ele>
        <time>2022-10-04T14:40:16.799Z</time>
      </trkpt>
      <trkpt lat="38.75469088554382" lon="-0.0508224964141846">
        <ele>268.8164734722897</ele>
        <time>2022-10-04T14:40:19.897Z</time>
      </trkpt>
      <trkpt lat="38.7547767162323" lon="-0.0508975982666016">
        <ele>268.28348729695165</ele>
        <time>2022-10-04T14:40:22.996Z</time>
      </trkpt>
      <trkpt lat="38.75544190406799" lon="-0.0512516498565674">
        <ele>267.99660095678564</ele>
        <time>2022-10-04T14:40:26.106Z</time>
      </trkpt>
      <trkpt lat="38.755624294281006" lon="-0.0513696670532227">
        <ele>267.44984018782554</ele>
        <time>2022-10-04T14:40:29.219Z</time>
      </trkpt>
      <trkpt lat="38.755667209625244" lon="-0.0514554977416992">
        <ele>266.6024653806078</ele>
        <time>2022-10-04T14:40:32.334Z</time>
      </trkpt>
      <trkpt lat="38.755688751116395" lon="-0.0515520572662354">
        <ele>265.48561597473457</ele>
        <time>2022-10-04T14:40:35.450Z</time>
      </trkpt>
      <trkpt lat="38.755677938461304" lon="-0.0516593456268311">
        <ele>264.0384918046848</ele>
        <time>2022-10-04T14:40:38.567Z</time>
      </trkpt>
      <trkpt lat="38.75547409057617" lon="-0.0520563125610352">
        <ele>261.7420344484804</ele>
        <time>2022-10-04T14:40:41.690Z</time>
      </trkpt>
      <trkpt lat="38.7553346157074" lon="-0.0523996353149414">
        <ele>259.64365157467523</ele>
        <time>2022-10-04T14:40:44.818Z</time>
      </trkpt>
      <trkpt lat="38.75524878501892" lon="-0.0528395175933838">
        <ele>257.59974398079953</ele>
        <time>2022-10-04T14:40:47.951Z</time>
      </trkpt>
      <trkpt lat="38.75519514083862" lon="-0.0536549091339111">
        <ele>255.50280769120792</ele>
        <time>2022-10-04T14:40:51.094Z</time>
      </trkpt>
      <trkpt lat="38.755173683166504" lon="-0.0542342662811279">
        <ele>253.51528373207384</ele>
        <time>2022-10-04T14:40:54.244Z</time>
      </trkpt>
      <trkpt lat="38.75519514083862" lon="-0.0546741485595703">
        <ele>251.71393500075175</ele>
        <time>2022-10-04T14:40:57.399Z</time>
      </trkpt>
      <trkpt lat="38.75518441200256" lon="-0.0548136234283447">
        <ele>250.01996220914788</ele>
        <time>2022-10-04T14:41:00.556Z</time>
      </trkpt>
      <trkpt lat="38.755162954330444" lon="-0.054931640625">
        <ele>248.41128870260815</ele>
        <time>2022-10-04T14:41:03.714Z</time>
      </trkpt>
      <trkpt lat="38.75505566596985" lon="-0.0553178787231445">
        <ele>246.82126437576002</ele>
        <time>2022-10-04T14:41:06.877Z</time>
      </trkpt>
      <trkpt lat="38.75501275062561" lon="-0.0555109977722168">
        <ele>245.41944668603588</ele>
        <time>2022-10-04T14:41:10.043Z</time>
      </trkpt>
      <trkpt lat="38.75500202178955" lon="-0.0557148456573486">
        <ele>244.23408914895703</ele>
        <time>2022-10-04T14:41:13.211Z</time>
      </trkpt>
      <trkpt lat="38.75502347946167" lon="-0.0558972358703613">
        <ele>243.2592212216583</ele>
        <time>2022-10-04T14:41:16.381Z</time>
      </trkpt>
      <trkpt lat="38.75506639480591" lon="-0.056079626083374">
        <ele>242.466271478858</ele>
        <time>2022-10-04T14:41:19.554Z</time>
      </trkpt>
      <trkpt lat="38.75514158047736" lon="-0.0562191009521484">
        <ele>241.85139162398087</ele>
        <time>2022-10-04T14:41:22.729Z</time>
      </trkpt>
      <trkpt lat="38.755409717559814" lon="-0.0565624237060547">
        <ele>241.42005530669934</ele>
        <time>2022-10-04T14:41:25.909Z</time>
      </trkpt>
      <trkpt lat="38.75560283660889" lon="-0.0568521022796631">
        <ele>241.03799855705785</ele>
        <time>2022-10-04T14:41:29.094Z</time>
      </trkpt>
      <trkpt lat="38.755677938461304" lon="-0.0570774078369141">
        <ele>240.8920802299683</ele>
        <time>2022-10-04T14:41:32.282Z</time>
      </trkpt>
      <trkpt lat="38.755892515182495" lon="-0.0577855110168457">
        <ele>240.88735905414876</ele>
        <time>2022-10-04T14:41:35.479Z</time>
      </trkpt>
      <trkpt lat="38.75589259900153" lon="-0.0577855110168457">
        <ele>241.09489088522338</ele>
        <time>2022-10-04T14:41:38.676Z</time>
      </trkpt>
      <trkpt lat="38.75594615936279" lon="-0.0579249858856201">
        <ele>241.49145027105038</ele>
        <time>2022-10-04T14:41:41.875Z</time>
      </trkpt>
      <trkpt lat="38.755946243181825" lon="-0.0579249858856201">
        <ele>242.01750188723418</ele>
        <time>2022-10-04T14:41:45.074Z</time>
      </trkpt>
      <trkpt lat="38.756364583969116" lon="-0.0588583946228027">
        <ele>242.73539130600165</ele>
        <time>2022-10-04T14:41:48.286Z</time>
      </trkpt>
      <trkpt lat="38.75694394111633" lon="-0.0604569911956787">
        <ele>243.69249751822375</ele>
        <time>2022-10-04T14:41:51.519Z</time>
      </trkpt>
      <trkpt lat="38.75730880536139" lon="-0.0613152980804443">
        <ele>244.92755567531873</ele>
        <time>2022-10-04T14:41:54.764Z</time>
      </trkpt>
      <trkpt lat="38.75733017921448" lon="-0.0613582134246826">
        <ele>245.91333046092177</ele>
        <time>2022-10-04T14:41:58.010Z</time>
      </trkpt>
      <trkpt lat="38.75743746757507" lon="-0.0615620613098145">
        <ele>246.9627467548196</ele>
        <time>2022-10-04T14:42:01.258Z</time>
      </trkpt>
      <trkpt lat="38.75748038291931" lon="-0.0616908073425293">
        <ele>248.07361430297007</ele>
        <time>2022-10-04T14:42:04.508Z</time>
      </trkpt>
      <trkpt lat="38.75949748791754" lon="-0.0625491142272949">
        <ele>249.09556440991562</ele>
        <time>2022-10-04T14:42:07.791Z</time>
      </trkpt>
      <trkpt lat="38.76069903373718" lon="-0.0630319118499756">
        <ele>250.49164524873618</ele>
        <time>2022-10-04T14:42:11.093Z</time>
      </trkpt>
      <trkpt lat="38.76223334111273" lon="-0.0632679462432861">
        <ele>251.8186827253745</ele>
        <time>2022-10-04T14:42:14.419Z</time>
      </trkpt>
      <trkpt lat="38.76253366470337" lon="-0.0632786750793457">
        <ele>253.25069070502724</ele>
        <time>2022-10-04T14:42:17.750Z</time>
      </trkpt>
      <trkpt lat="38.7625509314239" lon="-0.0632770825177431">
        <ele>254.4676626851277</ele>
        <time>2022-10-04T14:42:21.081Z</time>
      </trkpt>
      <trkpt lat="38.76255084760487" lon="-0.0632772501558065">
        <ele>255.62798848094815</ele>
        <time>2022-10-04T14:42:24.412Z</time>
      </trkpt>
      <trkpt lat="38.762876987457275" lon="-0.063246488571167">
        <ele>256.8113524674701</ele>
        <time>2022-10-04T14:42:27.748Z</time>
      </trkpt>
      <trkpt lat="38.76320958137512" lon="-0.0632035732269287">
        <ele>257.8751577916324</ele>
        <time>2022-10-04T14:42:31.089Z</time>
      </trkpt>
      <trkpt lat="38.7632954120636" lon="-0.06317138671875">
        <ele>258.8104846270036</ele>
        <time>2022-10-04T14:42:34.431Z</time>
      </trkpt>
      <trkpt lat="38.76344561576843" lon="-0.0630855560302734">
        <ele>259.6494098689454</ele>
        <time>2022-10-04T14:42:37.776Z</time>
      </trkpt>
      <trkpt lat="38.7636923789978" lon="-0.0628066062927246">
        <ele>260.3907347230528</ele>
        <time>2022-10-04T14:42:41.126Z</time>
      </trkpt>
      <trkpt lat="38.76383193768561" lon="-0.0627422332763672">
        <ele>261.0474552078201</ele>
        <time>2022-10-04T14:42:44.478Z</time>
      </trkpt>
      <trkpt lat="38.76397141255438" lon="-0.0627315044403076">
        <ele>261.55967600635125</ele>
        <time>2022-10-04T14:42:47.832Z</time>
      </trkpt>
      <trkpt lat="38.76447566784918" lon="-0.0627422332763672">
        <ele>262.0441062832424</ele>
        <time>2022-10-04T14:42:51.194Z</time>
      </trkpt>
      <trkpt lat="38.7644971255213" lon="-0.0627422332763672">
        <ele>262.17389761362574</ele>
        <time>2022-10-04T14:42:54.556Z</time>
      </trkpt>
      <trkpt lat="38.764883279800415" lon="-0.0627529621124268">
        <ele>262.132575735349</ele>
        <time>2022-10-04T14:42:57.924Z</time>
      </trkpt>
      <trkpt lat="38.76499056816101" lon="-0.0627315044403076">
        <ele>261.9337493108234</ele>
        <time>2022-10-04T14:43:01.294Z</time>
      </trkpt>
      <trkpt lat="38.76507639884949" lon="-0.0626993179321289">
        <ele>261.5637797535129</ele>
        <time>2022-10-04T14:43:04.665Z</time>
      </trkpt>
      <trkpt lat="38.76646041870117" lon="-0.061722993850708">
        <ele>261.0664103936635</ele>
        <time>2022-10-04T14:43:08.061Z</time>
      </trkpt>
      <trkpt lat="38.76683592796326" lon="-0.0614333152770996">
        <ele>259.87850200607994</ele>
        <time>2022-10-04T14:43:11.463Z</time>
      </trkpt>
      <trkpt lat="38.766900300979614" lon="-0.0613582134246826">
        <ele>258.8974194166113</ele>
        <time>2022-10-04T14:43:14.867Z</time>
      </trkpt>
      <trkpt lat="38.76696467399597" lon="-0.0612509250640869">
        <ele>257.7848253800006</ele>
        <time>2022-10-04T14:43:18.272Z</time>
      </trkpt>
      <trkpt lat="38.76698613166809" lon="-0.0611650943756104">
        <ele>256.58368081587406</ele>
        <time>2022-10-04T14:43:21.679Z</time>
      </trkpt>
      <trkpt lat="38.76699686050415" lon="-0.0610470771789551">
        <ele>255.28940228226958</ele>
        <time>2022-10-04T14:43:25.087Z</time>
      </trkpt>
      <trkpt lat="38.76692175865173" lon="-0.0598025321960449">
        <ele>253.52303949005716</ele>
        <time>2022-10-04T14:43:28.510Z</time>
      </trkpt>
      <trkpt lat="38.766911029815674" lon="-0.0590622425079346">
        <ele>252.50513494517523</ele>
        <time>2022-10-04T14:43:31.942Z</time>
      </trkpt>
      <trkpt lat="38.76692175865173" lon="-0.0587832927703857">
        <ele>250.9501911153081</ele>
        <time>2022-10-04T14:43:35.377Z</time>
      </trkpt>
      <trkpt lat="38.76697540283203" lon="-0.0584721565246582">
        <ele>249.11173308361572</ele>
        <time>2022-10-04T14:43:38.816Z</time>
      </trkpt>
      <trkpt lat="38.76703977584839" lon="-0.0582468509674072">
        <ele>247.1971570161794</ele>
        <time>2022-10-04T14:43:42.258Z</time>
      </trkpt>
      <trkpt lat="38.767136335372925" lon="-0.0579249858856201">
        <ele>245.219884396449</ele>
        <time>2022-10-04T14:43:45.704Z</time>
      </trkpt>
      <trkpt lat="38.767383098602295" lon="-0.057302713394165">
        <ele>243.11493336397874</ele>
        <time>2022-10-04T14:43:49.159Z</time>
      </trkpt>
      <trkpt lat="38.76742601394653" lon="-0.0571525096893311">
        <ele>241.4120633959701</ele>
        <time>2022-10-04T14:43:52.615Z</time>
      </trkpt>
      <trkpt lat="38.76744747161865" lon="-0.0567340850830078">
        <ele>239.9506056994336</ele>
        <time>2022-10-04T14:43:56.077Z</time>
      </trkpt>
      <trkpt lat="38.76747965812683" lon="-0.0566589832305908">
        <ele>238.2782969228084</ele>
        <time>2022-10-04T14:43:59.540Z</time>
      </trkpt>
      <trkpt lat="38.76754403114319" lon="-0.0566375255584717">
        <ele>236.5300602101433</ele>
        <time>2022-10-04T14:44:03.004Z</time>
      </trkpt>
      <trkpt lat="38.767640590667725" lon="-0.05668044090271">
        <ele>234.70846730146525</ele>
        <time>2022-10-04T14:44:06.469Z</time>
      </trkpt>
      <trkpt lat="38.76771569252014" lon="-0.0568091869354248">
        <ele>233.07614494375207</ele>
        <time>2022-10-04T14:44:09.936Z</time>
      </trkpt>
      <trkpt lat="38.76771569252014" lon="-0.0569057464599609">
        <ele>231.59033487320104</ele>
        <time>2022-10-04T14:44:13.404Z</time>
      </trkpt>
      <trkpt lat="38.767640590667725" lon="-0.0576245784759521">
        <ele>230.00019305490827</ele>
        <time>2022-10-04T14:44:16.881Z</time>
      </trkpt>
      <trkpt lat="38.76750111579895" lon="-0.0584721565246582">
        <ele>228.9948099461721</ele>
        <time>2022-10-04T14:44:20.368Z</time>
      </trkpt>
      <trkpt lat="38.76749038696289" lon="-0.0586652755737305">
        <ele>227.79655898728524</ele>
        <time>2022-10-04T14:44:23.858Z</time>
      </trkpt>
      <trkpt lat="38.76751192845404" lon="-0.0592124462127686">
        <ele>226.6617565584625</ele>
        <time>2022-10-04T14:44:27.354Z</time>
      </trkpt>
      <trkpt lat="38.76751184463501" lon="-0.0592124462127686">
        <ele>225.50104824602323</ele>
        <time>2022-10-04T14:44:30.850Z</time>
      </trkpt>
      <trkpt lat="38.76754403114319" lon="-0.0600278377532959">
        <ele>224.13800127102945</ele>
        <time>2022-10-04T14:44:34.356Z</time>
      </trkpt>
      <trkpt lat="38.767597675323486" lon="-0.060199499130249">
        <ele>222.9438432406915</ele>
        <time>2022-10-04T14:44:37.864Z</time>
      </trkpt>
      <trkpt lat="38.76793026924133" lon="-0.0607788562774658">
        <ele>221.5430441727895</ele>
        <time>2022-10-04T14:44:41.381Z</time>
      </trkpt>
      <trkpt lat="38.76800537109375" lon="-0.0609827041625977">
        <ele>220.41800924130854</ele>
        <time>2022-10-04T14:44:44.901Z</time>
      </trkpt>
      <trkpt lat="38.76802682876587" lon="-0.0610792636871338">
        <ele>219.39292503792484</ele>
        <time>2022-10-04T14:44:48.422Z</time>
      </trkpt>
      <trkpt lat="38.76797318458557" lon="-0.0613689422607422">
        <ele>218.6058514968935</ele>
        <time>2022-10-04T14:44:51.946Z</time>
      </trkpt>
      <trkpt lat="38.76798391342163" lon="-0.0614655017852783">
        <ele>217.63769950473323</ele>
        <time>2022-10-04T14:44:55.472Z</time>
      </trkpt>
      <trkpt lat="38.76805901527405" lon="-0.0616049766540527">
        <ele>216.58559819777878</ele>
        <time>2022-10-04T14:44:59.000Z</time>
      </trkpt>
      <trkpt lat="38.768112659454346" lon="-0.0616586208343506">
        <ele>215.57760670779368</ele>
        <time>2022-10-04T14:45:02.529Z</time>
      </trkpt>
      <trkpt lat="38.7681770324707" lon="-0.0616693496704102">
        <ele>214.54458185492038</ele>
        <time>2022-10-04T14:45:06.059Z</time>
      </trkpt>
      <trkpt lat="38.76824140548706" lon="-0.0616586208343506">
        <ele>213.4737463501205</ele>
        <time>2022-10-04T14:45:09.590Z</time>
      </trkpt>
      <trkpt lat="38.76842379570007" lon="-0.0615620613098145">
        <ele>212.28008193705685</ele>
        <time>2022-10-04T14:45:13.124Z</time>
      </trkpt>
      <trkpt lat="38.76855254173279" lon="-0.0615084171295166">
        <ele>211.0935153076459</ele>
        <time>2022-10-04T14:45:16.660Z</time>
      </trkpt>
      <trkpt lat="38.768874406814575" lon="-0.0614333152770996">
        <ele>209.67525813679137</ele>
        <time>2022-10-04T14:45:20.201Z</time>
      </trkpt>
      <trkpt lat="38.769110441207886" lon="-0.0613582134246826">
        <ele>208.20080366111915</ele>
        <time>2022-10-04T14:45:23.746Z</time>
      </trkpt>
      <trkpt lat="38.76919627189636" lon="-0.0613582134246826">
        <ele>206.8689796361748</ele>
        <time>2022-10-04T14:45:27.292Z</time>
      </trkpt>
      <trkpt lat="38.76936801709235" lon="-0.0614655017852783">
        <ele>205.43974380587485</ele>
        <time>2022-10-04T14:45:30.841Z</time>
      </trkpt>
      <trkpt lat="38.76967906951904" lon="-0.0617766380310059">
        <ele>204.18371949697547</ele>
        <time>2022-10-04T14:45:34.396Z</time>
      </trkpt>
      <trkpt lat="38.76976490020752" lon="-0.0618302822113037">
        <ele>202.62144971274228</ele>
        <time>2022-10-04T14:45:37.952Z</time>
      </trkpt>
      <trkpt lat="38.77005457878113" lon="-0.0619268417358398">
        <ele>201.07785940920004</ele>
        <time>2022-10-04T14:45:41.513Z</time>
      </trkpt>
      <trkpt lat="38.77047300338745" lon="-0.0620126724243164">
        <ele>199.55904719732877</ele>
        <time>2022-10-04T14:45:45.081Z</time>
      </trkpt>
      <trkpt lat="38.771138191223145" lon="-0.0620019435882568">
        <ele>197.5847329026228</ele>
        <time>2022-10-04T14:45:48.659Z</time>
      </trkpt>
      <trkpt lat="38.77137430943549" lon="-0.0620448589324951">
        <ele>195.6654489467137</ele>
        <time>2022-10-04T14:45:52.240Z</time>
      </trkpt>
      <trkpt lat="38.77154588699341" lon="-0.0620877742767334">
        <ele>193.73396014602582</ele>
        <time>2022-10-04T14:45:55.824Z</time>
      </trkpt>
      <trkpt lat="38.77171754837036" lon="-0.062098503112793">
        <ele>191.63209102751546</ele>
        <time>2022-10-04T14:45:59.411Z</time>
      </trkpt>
      <trkpt lat="38.771921480074525" lon="-0.0619912147521973">
        <ele>189.90089173565127</ele>
        <time>2022-10-04T14:46:03.001Z</time>
      </trkpt>
      <trkpt lat="38.77230763435364" lon="-0.061722993850708">
        <ele>188.38802580393582</ele>
        <time>2022-10-04T14:46:06.598Z</time>
      </trkpt>
      <trkpt lat="38.77241492271423" lon="-0.0617015361785889">
        <ele>186.68954975088587</ele>
        <time>2022-10-04T14:46:10.197Z</time>
      </trkpt>
      <trkpt lat="38.77253293991089" lon="-0.0617015361785889">
        <ele>185.06757137477263</ele>
        <time>2022-10-04T14:46:13.797Z</time>
      </trkpt>
      <trkpt lat="38.77319812774658" lon="-0.0618624687194824">
        <ele>183.16622217714092</ele>
        <time>2022-10-04T14:46:17.408Z</time>
      </trkpt>
      <trkpt lat="38.77354145050049" lon="-0.0619804859161377">
        <ele>181.38170119926457</ele>
        <time>2022-10-04T14:46:21.024Z</time>
      </trkpt>
      <trkpt lat="38.7737774848938" lon="-0.0620877742767334">
        <ele>179.6152510725595</ele>
        <time>2022-10-04T14:46:24.644Z</time>
      </trkpt>
      <trkpt lat="38.774195993319154" lon="-0.0624096393585205">
        <ele>178.053958149087</ele>
        <time>2022-10-04T14:46:28.272Z</time>
      </trkpt>
      <trkpt lat="38.77433546818793" lon="-0.0625383853912354">
        <ele>176.22406390205563</ele>
        <time>2022-10-04T14:46:31.902Z</time>
      </trkpt>
      <trkpt lat="38.77450712956488" lon="-0.0626778602600098">
        <ele>174.2207192705393</ele>
        <time>2022-10-04T14:46:35.535Z</time>
      </trkpt>
      <trkpt lat="38.77450704574585" lon="-0.0626778602600098">
        <ele>172.5079731715477</ele>
        <time>2022-10-04T14:46:39.168Z</time>
      </trkpt>
      <trkpt lat="38.77553701400757" lon="-0.0635147094726562">
        <ele>171.0504181477362</ele>
        <time>2022-10-04T14:46:42.820Z</time>
      </trkpt>
      <trkpt lat="38.77596616744995" lon="-0.0639331340789795">
        <ele>169.2707505630679</ele>
        <time>2022-10-04T14:46:46.480Z</time>
      </trkpt>
      <trkpt lat="38.77607345581055" lon="-0.0640511512756348">
        <ele>167.4966625711544</ele>
        <time>2022-10-04T14:46:50.143Z</time>
      </trkpt>
      <trkpt lat="38.77759703435004" lon="-0.0659716129302979">
        <ele>165.0686209411657</ele>
        <time>2022-10-04T14:46:53.839Z</time>
      </trkpt>
      <trkpt lat="38.777596950531006" lon="-0.0659716129302979">
        <ele>163.3948010325903</ele>
        <time>2022-10-04T14:46:57.535Z</time>
      </trkpt>
      <trkpt lat="38.77773642539978" lon="-0.0661540031433105">
        <ele>161.6309215859074</ele>
        <time>2022-10-04T14:47:01.234Z</time>
      </trkpt>
      <trkpt lat="38.77794027328491" lon="-0.0663149356842041">
        <ele>159.94922871512608</ele>
        <time>2022-10-04T14:47:04.936Z</time>
      </trkpt>
      <trkpt lat="38.77821922302246" lon="-0.0664973258972168">
        <ele>158.3164978096413</ele>
        <time>2022-10-04T14:47:08.643Z</time>
      </trkpt>
      <trkpt lat="38.77847671508789" lon="-0.0665616989135742">
        <ele>156.6441484681746</ele>
        <time>2022-10-04T14:47:12.354Z</time>
      </trkpt>
      <trkpt lat="38.778594732284546" lon="-0.0665509700775146">
        <ele>155.18706051451895</ele>
        <time>2022-10-04T14:47:16.067Z</time>
      </trkpt>
      <trkpt lat="38.77860554493964" lon="-0.0665402412414551">
        <ele>153.82322825972653</ele>
        <time>2022-10-04T14:47:19.780Z</time>
      </trkpt>
      <trkpt lat="38.77870210446417" lon="-0.0665080547332764">
        <ele>152.52384964206527</ele>
        <time>2022-10-04T14:47:23.495Z</time>
      </trkpt>
      <trkpt lat="38.77872347831726" lon="-0.0665080547332764">
        <ele>151.29970713125746</ele>
        <time>2022-10-04T14:47:27.210Z</time>
      </trkpt>
      <trkpt lat="38.7791633605957" lon="-0.066368579864502">
        <ele>150.07331736226922</ele>
        <time>2022-10-04T14:47:30.932Z</time>
      </trkpt>
      <trkpt lat="38.7800217512995" lon="-0.0659608840942383">
        <ele>148.7086723161787</ele>
        <time>2022-10-04T14:47:34.668Z</time>
      </trkpt>
      <trkpt lat="38.78033288754523" lon="-0.0658214092254639">
        <ele>147.73395586077552</ele>
        <time>2022-10-04T14:47:38.409Z</time>
      </trkpt>
      <trkpt lat="38.78051527775824" lon="-0.0657355785369873">
        <ele>146.8244756319572</ele>
        <time>2022-10-04T14:47:42.153Z</time>
      </trkpt>
      <trkpt lat="38.78095516003668" lon="-0.0655102729797363">
        <ele>145.84859219482902</ele>
        <time>2022-10-04T14:47:45.904Z</time>
      </trkpt>
      <trkpt lat="38.781920755282044" lon="-0.0645554065704346">
        <ele>144.96596193531502</ele>
        <time>2022-10-04T14:47:49.674Z</time>
      </trkpt>
      <trkpt lat="38.78192067146301" lon="-0.0645554065704346">
        <ele>144.33542602748622</ele>
        <time>2022-10-04T14:47:53.444Z</time>
      </trkpt>
      <trkpt lat="38.78196358680725" lon="-0.0645124912261963">
        <ele>143.7635128858277</ele>
        <time>2022-10-04T14:47:57.215Z</time>
      </trkpt>
      <trkpt lat="38.78243565559387" lon="-0.0640511512756348">
        <ele>143.09259736764142</ele>
        <time>2022-10-04T14:48:00.995Z</time>
      </trkpt>
      <trkpt lat="38.78266096115112" lon="-0.0638687610626221">
        <ele>142.67289911948654</ele>
        <time>2022-10-04T14:48:04.779Z</time>
      </trkpt>
      <trkpt lat="38.78271460533142" lon="-0.0637078285217285">
        <ele>142.37999955499726</ele>
        <time>2022-10-04T14:48:08.565Z</time>
      </trkpt>
      <trkpt lat="38.78271460533142" lon="-0.0636541843414307">
        <ele>142.1409330537797</ele>
        <time>2022-10-04T14:48:12.352Z</time>
      </trkpt>
      <trkpt lat="38.782639503479004" lon="-0.0634825229644775">
        <ele>142.01086863943942</ele>
        <time>2022-10-04T14:48:16.141Z</time>
      </trkpt>
      <trkpt lat="38.78254294395447" lon="-0.0633645057678223">
        <ele>141.91825513364435</ele>
        <time>2022-10-04T14:48:19.932Z</time>
      </trkpt>
      <trkpt lat="38.78242492675781" lon="-0.0631392002105713">
        <ele>141.94123160949303</ele>
        <time>2022-10-04T14:48:23.727Z</time>
      </trkpt>
      <trkpt lat="38.782392824068666" lon="-0.0630640983581543">
        <ele>141.8181377265281</ele>
        <time>2022-10-04T14:48:27.523Z</time>
      </trkpt>
      <trkpt lat="38.782339096069336" lon="-0.0629246234893799">
        <ele>141.71897417255957</ele>
        <time>2022-10-04T14:48:31.321Z</time>
      </trkpt>
      <trkpt lat="38.78231763839722" lon="-0.0627636909484863">
        <ele>141.56275330571552</ele>
        <time>2022-10-04T14:48:35.121Z</time>
      </trkpt>
      <trkpt lat="38.78231772221625" lon="-0.0626134872436523">
        <ele>141.33586730568055</ele>
        <time>2022-10-04T14:48:38.922Z</time>
      </trkpt>
      <trkpt lat="38.782371282577515" lon="-0.0622272491455078">
        <ele>140.98607367565555</ele>
        <time>2022-10-04T14:48:42.728Z</time>
      </trkpt>
      <trkpt lat="38.7824893835932" lon="-0.0617337226867676">
        <ele>140.5368386340707</ele>
        <time>2022-10-04T14:48:46.540Z</time>
      </trkpt>
      <trkpt lat="38.782596588134766" lon="-0.0613045692443848">
        <ele>140.01200404459786</ele>
        <time>2022-10-04T14:48:50.358Z</time>
      </trkpt>
      <trkpt lat="38.78266096115112" lon="-0.0611329078674316">
        <ele>139.4686614464713</ele>
        <time>2022-10-04T14:48:54.178Z</time>
      </trkpt>
      <trkpt lat="38.78307946957648" lon="-0.0604248046875">
        <ele>138.68588749831363</ele>
        <time>2022-10-04T14:48:58.009Z</time>
      </trkpt>
      <trkpt lat="38.783122384920716" lon="-0.0603389739990234">
        <ele>138.04018931777156</ele>
        <time>2022-10-04T14:49:01.841Z</time>
      </trkpt>
      <trkpt lat="38.7833046913147" lon="-0.0599420070648193">
        <ele>137.1796342363837</ele>
        <time>2022-10-04T14:49:05.678Z</time>
      </trkpt>
      <trkpt lat="38.78386267460883" lon="-0.0591051578521729">
        <ele>136.28493593015685</ele>
        <time>2022-10-04T14:49:09.529Z</time>
      </trkpt>
      <trkpt lat="38.78404506482184" lon="-0.0588691234588623">
        <ele>135.6553977189547</ele>
        <time>2022-10-04T14:49:13.384Z</time>
      </trkpt>
      <trkpt lat="38.78404498100281" lon="-0.0588691234588623">
        <ele>134.9573230760264</ele>
        <time>2022-10-04T14:49:17.239Z</time>
      </trkpt>
      <trkpt lat="38.784087896347046" lon="-0.0588154792785645">
        <ele>134.26722692704948</ele>
        <time>2022-10-04T14:49:21.095Z</time>
      </trkpt>
      <trkpt lat="38.7841522693634" lon="-0.0587832927703857">
        <ele>133.5769558090187</ele>
        <time>2022-10-04T14:49:24.952Z</time>
      </trkpt>
      <trkpt lat="38.78472089767456" lon="-0.0586652755737305">
        <ele>132.68239515162782</ele>
        <time>2022-10-04T14:49:28.817Z</time>
      </trkpt>
      <trkpt lat="38.78594406880438" lon="-0.0581824779510498">
        <ele>131.88147593644936</ele>
        <time>2022-10-04T14:49:32.702Z</time>
      </trkpt>
      <trkpt lat="38.78594398498535" lon="-0.0581824779510498">
        <ele>131.25096235124056</ele>
        <time>2022-10-04T14:49:36.587Z</time>
      </trkpt>
      <trkpt lat="38.78639459609985" lon="-0.0579893589019775">
        <ele>130.51202763890586</ele>
        <time>2022-10-04T14:49:40.479Z</time>
      </trkpt>
      <trkpt lat="38.786641443148255" lon="-0.057828426361084">
        <ele>129.89559444677926</ele>
        <time>2022-10-04T14:49:44.376Z</time>
      </trkpt>
      <trkpt lat="38.786684358492494" lon="-0.0577855110168457">
        <ele>129.38832131141297</ele>
        <time>2022-10-04T14:49:48.274Z</time>
      </trkpt>
      <trkpt lat="38.78731735982001" lon="-0.0571310520172119">
        <ele>128.81773717607234</ele>
        <time>2022-10-04T14:49:52.184Z</time>
      </trkpt>
      <trkpt lat="38.78828295506537" lon="-0.0562083721160889">
        <ele>128.61813941964877</ele>
        <time>2022-10-04T14:49:56.113Z</time>
      </trkpt>
      <trkpt lat="38.788400972262025" lon="-0.056079626083374">
        <ele>128.3037279649659</ele>
        <time>2022-10-04T14:50:00.044Z</time>
      </trkpt>
      <trkpt lat="38.78844388760626" lon="-0.0560367107391357">
        <ele>128.00821798684265</ele>
        <time>2022-10-04T14:50:03.976Z</time>
      </trkpt>
      <trkpt lat="38.78844380378723" lon="-0.0560367107391357">
        <ele>127.74259093150131</ele>
        <time>2022-10-04T14:50:07.908Z</time>
      </trkpt>
      <trkpt lat="38.78860482014716" lon="-0.0558865070343018">
        <ele>127.51379531899441</ele>
        <time>2022-10-04T14:50:11.843Z</time>
      </trkpt>
      <trkpt lat="38.78871202468872" lon="-0.0557684898376465">
        <ele>127.31161581646788</ele>
        <time>2022-10-04T14:50:15.780Z</time>
      </trkpt>
      <trkpt lat="38.78878712654114" lon="-0.0556504726409912">
        <ele>127.12707703922757</ele>
        <time>2022-10-04T14:50:19.719Z</time>
      </trkpt>
      <trkpt lat="38.7889910582453" lon="-0.055232048034668">
        <ele>126.99953534503567</ele>
        <time>2022-10-04T14:50:23.664Z</time>
      </trkpt>
      <trkpt lat="38.7890447024256" lon="-0.0551033020019531">
        <ele>126.85187028481108</ele>
        <time>2022-10-04T14:50:27.611Z</time>
      </trkpt>
      <trkpt lat="38.7896454334259" lon="-0.0536978244781494">
        <ele>126.78416692777944</ele>
        <time>2022-10-04T14:50:31.577Z</time>
      </trkpt>
      <trkpt lat="38.78970989026129" lon="-0.0534403324127197">
        <ele>126.60771372816006</ele>
        <time>2022-10-04T14:50:35.546Z</time>
      </trkpt>
      <trkpt lat="38.78970980644226" lon="-0.0534403324127197">
        <ele>126.42576595420982</ele>
        <time>2022-10-04T14:50:39.515Z</time>
      </trkpt>
      <trkpt lat="38.78977417945862" lon="-0.0531721115112305">
        <ele>126.16687426675922</ele>
        <time>2022-10-04T14:50:43.487Z</time>
      </trkpt>
      <trkpt lat="38.789870738983154" lon="-0.0525927543640137">
        <ele>125.80631660991884</ele>
        <time>2022-10-04T14:50:47.467Z</time>
      </trkpt>
      <trkpt lat="38.78989219665527" lon="-0.052260160446167">
        <ele>125.53153042265629</ele>
        <time>2022-10-04T14:50:51.451Z</time>
      </trkpt>
      <trkpt lat="38.789903009310365" lon="-0.0519704818725586">
        <ele>125.2797267070505</ele>
        <time>2022-10-04T14:50:55.438Z</time>
      </trkpt>
      <trkpt lat="38.789870738983154" lon="-0.0513911247253418">
        <ele>124.88347527060239</ele>
        <time>2022-10-04T14:50:59.432Z</time>
      </trkpt>
      <trkpt lat="38.78979572094977" lon="-0.0504791736602783">
        <ele>124.62089703640652</ele>
        <time>2022-10-04T14:51:03.437Z</time>
      </trkpt>
      <trkpt lat="38.78978490829468" lon="-0.0501573085784912">
        <ele>124.40192863731738</ele>
        <time>2022-10-04T14:51:07.446Z</time>
      </trkpt>
      <trkpt lat="38.7898063659668" lon="-0.0499641895294189">
        <ele>124.04584361999278</ele>
        <time>2022-10-04T14:51:11.457Z</time>
      </trkpt>
      <trkpt lat="38.789913738146424" lon="-0.0495672225952148">
        <ele>123.617171430031</ele>
        <time>2022-10-04T14:51:15.473Z</time>
      </trkpt>
      <trkpt lat="38.79002094268799" lon="-0.0492453575134277">
        <ele>123.08166392771045</ele>
        <time>2022-10-04T14:51:19.494Z</time>
      </trkpt>
      <trkpt lat="38.79008539952338" lon="-0.0491058826446533">
        <ele>122.55734503448312</ele>
        <time>2022-10-04T14:51:23.517Z</time>
      </trkpt>
      <trkpt lat="38.790407264605165" lon="-0.0484514236450195">
        <ele>121.98376842977862</ele>
        <time>2022-10-04T14:51:27.549Z</time>
      </trkpt>
      <trkpt lat="38.79052519798279" lon="-0.0482261180877686">
        <ele>121.37626169578056</ele>
        <time>2022-10-04T14:51:31.584Z</time>
      </trkpt>
      <trkpt lat="38.79072904586792" lon="-0.0477540493011475">
        <ele>120.70531347329886</ele>
        <time>2022-10-04T14:51:35.626Z</time>
      </trkpt>
      <trkpt lat="38.79095435142517" lon="-0.0470995903015137">
        <ele>120.07636146678124</ele>
        <time>2022-10-04T14:51:39.676Z</time>
      </trkpt>
      <trkpt lat="38.79095435142517" lon="-0.046917200088501">
        <ele>119.50673136433285</ele>
        <time>2022-10-04T14:51:43.728Z</time>
      </trkpt>
      <trkpt lat="38.79093289375305" lon="-0.0467991828918457">
        <ele>118.95771667698934</ele>
        <time>2022-10-04T14:51:47.782Z</time>
      </trkpt>
      <trkpt lat="38.79078277386725" lon="-0.0463593006134033">
        <ele>118.49306615910457</ele>
        <time>2022-10-04T14:51:51.842Z</time>
      </trkpt>
      <trkpt lat="38.79073977470398" lon="-0.0461125373840332">
        <ele>118.08343285186817</ele>
        <time>2022-10-04T14:51:55.905Z</time>
      </trkpt>
      <trkpt lat="38.79073985852301" lon="-0.0459837913513184">
        <ele>117.6530847004594</ele>
        <time>2022-10-04T14:51:59.969Z</time>
      </trkpt>
      <trkpt lat="38.79081496037543" lon="-0.045018196105957">
        <ele>116.86116100139056</ele>
        <time>2022-10-04T14:52:04.045Z</time>
      </trkpt>
      <trkpt lat="38.7908148765564" lon="-0.045018196105957">
        <ele>116.42324151243984</ele>
        <time>2022-10-04T14:52:08.121Z</time>
      </trkpt>
      <trkpt lat="38.790900791063905" lon="-0.0439238548278809">
        <ele>116.00642973850915</ele>
        <time>2022-10-04T14:52:12.210Z</time>
      </trkpt>
      <trkpt lat="38.79094370640814" lon="-0.0435483455657959">
        <ele>115.65022673965484</ele>
        <time>2022-10-04T14:52:16.304Z</time>
      </trkpt>
      <trkpt lat="38.7910080794245" lon="-0.0432586669921875">
        <ele>115.25098099059048</ele>
        <time>2022-10-04T14:52:20.401Z</time>
      </trkpt>
      <trkpt lat="38.79106163978577" lon="-0.0430762767791748">
        <ele>114.88999758506199</ele>
        <time>2022-10-04T14:52:24.501Z</time>
      </trkpt>
      <trkpt lat="38.79124402999878" lon="-0.0426363945007324">
        <ele>114.65306778685414</ele>
        <time>2022-10-04T14:52:28.607Z</time>
      </trkpt>
      <trkpt lat="38.791383588686585" lon="-0.0422286987304688">
        <ele>114.51660794641148</ele>
        <time>2022-10-04T14:52:32.718Z</time>
      </trkpt>
      <trkpt lat="38.79148006439209" lon="-0.0418853759765625">
        <ele>114.35592927516032</ele>
        <time>2022-10-04T14:52:36.833Z</time>
      </trkpt>
      <trkpt lat="38.79153379239142" lon="-0.0415527820587158">
        <ele>114.24960568264913</ele>
        <time>2022-10-04T14:52:40.952Z</time>
      </trkpt>
      <trkpt lat="38.791608810424805" lon="-0.0403618812561035">
        <ele>114.10755841703742</ele>
        <time>2022-10-04T14:52:45.086Z</time>
      </trkpt>
      <trkpt lat="38.7917160987854" lon="-0.0398147106170654">
        <ele>113.89653932961639</ele>
        <time>2022-10-04T14:52:49.227Z</time>
      </trkpt>
      <trkpt lat="38.79182347096503" lon="-0.0394070148468018">
        <ele>113.6295692257452</ele>
        <time>2022-10-04T14:52:53.373Z</time>
      </trkpt>
      <trkpt lat="38.791823387145996" lon="-0.0394070148468018">
        <ele>113.52405892586435</ele>
        <time>2022-10-04T14:52:57.519Z</time>
      </trkpt>
      <trkpt lat="38.79203804768622" lon="-0.0388062000274658">
        <ele>113.44577692628519</ele>
        <time>2022-10-04T14:53:01.673Z</time>
      </trkpt>
      <trkpt lat="38.792134607210755" lon="-0.0385379791259766">
        <ele>113.26940646284254</ele>
        <time>2022-10-04T14:53:05.830Z</time>
      </trkpt>
      <trkpt lat="38.792134523391724" lon="-0.0385379791259766">
        <ele>113.24230902945811</ele>
        <time>2022-10-04T14:53:09.987Z</time>
      </trkpt>
      <trkpt lat="38.7922203540802" lon="-0.0382804870605469">
        <ele>113.24191038151936</ele>
        <time>2022-10-04T14:53:14.148Z</time>
      </trkpt>
      <trkpt lat="38.79225254058838" lon="-0.0380122661590576">
        <ele>113.37393736266884</ele>
        <time>2022-10-04T14:53:18.312Z</time>
      </trkpt>
      <trkpt lat="38.79225254058838" lon="-0.0371646881103516">
        <ele>113.44520316459658</ele>
        <time>2022-10-04T14:53:22.486Z</time>
      </trkpt>
      <trkpt lat="38.79215598106384" lon="-0.0365424156188965">
        <ele>113.49262253027584</ele>
        <time>2022-10-04T14:53:26.668Z</time>
      </trkpt>
      <trkpt lat="38.79198431968689" lon="-0.035780668258667">
        <ele>113.47094859470073</ele>
        <time>2022-10-04T14:53:30.859Z</time>
      </trkpt>
      <trkpt lat="38.791877031326294" lon="-0.0352656841278076">
        <ele>113.59780920092197</ele>
        <time>2022-10-04T14:53:35.057Z</time>
      </trkpt>
      <trkpt lat="38.791887843981385" lon="-0.0350189208984375">
        <ele>113.705434620336</ele>
        <time>2022-10-04T14:53:39.258Z</time>
      </trkpt>
      <trkpt lat="38.79193075932562" lon="-0.0348579883575439">
        <ele>113.81322643917048</ele>
        <time>2022-10-04T14:53:43.461Z</time>
      </trkpt>
      <trkpt lat="38.79193067550659" lon="-0.0348579883575439">
        <ele>114.03770143266274</ele>
        <time>2022-10-04T14:53:47.664Z</time>
      </trkpt>
      <trkpt lat="38.7922739982605" lon="-0.034106969833374">
        <ele>114.2611762879061</ele>
        <time>2022-10-04T14:53:51.877Z</time>
      </trkpt>
      <trkpt lat="38.792359828948975" lon="-0.033881664276123">
        <ele>114.54642937536465</ele>
        <time>2022-10-04T14:53:56.093Z</time>
      </trkpt>
      <trkpt lat="38.79242420196533" lon="-0.0336027145385742">
        <ele>114.84081930799772</ele>
        <time>2022-10-04T14:54:00.313Z</time>
      </trkpt>
      <trkpt lat="38.79248857498169" lon="-0.0331628322601318">
        <ele>115.17098966662142</ele>
        <time>2022-10-04T14:54:04.538Z</time>
      </trkpt>
      <trkpt lat="38.792595863342285" lon="-0.0324547290802002">
        <ele>115.92753644094478</ele>
        <time>2022-10-04T14:54:08.772Z</time>
      </trkpt>
      <trkpt lat="38.792606592178345" lon="-0.0321650505065918">
        <ele>116.14620475501374</ele>
        <time>2022-10-04T14:54:13.009Z</time>
      </trkpt>
      <trkpt lat="38.792585134506226" lon="-0.0319826602935791">
        <ele>116.28838940950874</ele>
        <time>2022-10-04T14:54:17.248Z</time>
      </trkpt>
      <trkpt lat="38.79249930381775" lon="-0.031510591506958">
        <ele>116.34571609130512</ele>
        <time>2022-10-04T14:54:21.493Z</time>
      </trkpt>
      <trkpt lat="38.79227408207953" lon="-0.0305235385894775">
        <ele>116.73905273052705</ele>
        <time>2022-10-04T14:54:25.751Z</time>
      </trkpt>
      <trkpt lat="38.7921667098999" lon="-0.0300514698028564">
        <ele>116.7153056360944</ele>
        <time>2022-10-04T14:54:30.015Z</time>
      </trkpt>
      <trkpt lat="38.79214525222778" lon="-0.0299012660980225">
        <ele>116.65967551209621</ele>
        <time>2022-10-04T14:54:34.280Z</time>
      </trkpt>
      <trkpt lat="38.79226335324347" lon="-0.0294399261474609">
        <ele>116.34314737259618</ele>
        <time>2022-10-04T14:54:38.551Z</time>
      </trkpt>
      <trkpt lat="38.79233845509589" lon="-0.0291180610656738">
        <ele>116.0800914162991</ele>
        <time>2022-10-04T14:54:42.826Z</time>
      </trkpt>
      <trkpt lat="38.792381370440125" lon="-0.0289356708526611">
        <ele>115.8407426112829</ele>
        <time>2022-10-04T14:54:47.104Z</time>
      </trkpt>
      <trkpt lat="38.79245638847351" lon="-0.0286030769348145">
        <ele>115.57793583779919</ele>
        <time>2022-10-04T14:54:51.386Z</time>
      </trkpt>
      <trkpt lat="38.79253157414496" lon="-0.0284528732299805">
        <ele>115.20326138576405</ele>
        <time>2022-10-04T14:54:55.670Z</time>
      </trkpt>
      <trkpt lat="38.79251003265381" lon="-0.0284206867218018">
        <ele>114.79931693180272</ele>
        <time>2022-10-04T14:54:59.954Z</time>
      </trkpt>
      <trkpt lat="38.79252076148987" lon="-0.0283455848693848">
        <ele>114.32684862260888</ele>
        <time>2022-10-04T14:55:04.239Z</time>
      </trkpt>
      <trkpt lat="38.79255294799805" lon="-0.0283133983612061">
        <ele>113.75375682621727</ele>
        <time>2022-10-04T14:55:08.525Z</time>
      </trkpt>
      <trkpt lat="38.792606592178345" lon="-0.0283026695251465">
        <ele>113.08381432020914</ele>
        <time>2022-10-04T14:55:12.812Z</time>
      </trkpt>
      <trkpt lat="38.79264950752258" lon="-0.0283348560333252">
        <ele>112.32439416213883</ele>
        <time>2022-10-04T14:55:17.100Z</time>
      </trkpt>
      <trkpt lat="38.79266023635864" lon="-0.0283670425415039">
        <ele>111.51483762722897</ele>
        <time>2022-10-04T14:55:21.388Z</time>
      </trkpt>
      <trkpt lat="38.792724609375" lon="-0.0284099578857422">
        <ele>110.61554067331913</ele>
        <time>2022-10-04T14:55:25.677Z</time>
      </trkpt>
      <trkpt lat="38.79298210144043" lon="-0.0284314155578613">
        <ele>109.58520790823184</ele>
        <time>2022-10-04T14:55:29.970Z</time>
      </trkpt>
      <trkpt lat="38.793346881866455" lon="-0.028388500213623">
        <ele>108.49217949553427</ele>
        <time>2022-10-04T14:55:34.269Z</time>
      </trkpt>
      <trkpt lat="38.79348635673523" lon="-0.0283455848693848">
        <ele>107.42393707103797</ele>
        <time>2022-10-04T14:55:38.570Z</time>
      </trkpt>
      <trkpt lat="38.793582916259766" lon="-0.0282919406890869">
        <ele>106.31621756172373</ele>
        <time>2022-10-04T14:55:42.873Z</time>
      </trkpt>
      <trkpt lat="38.79389405250549" lon="-0.0279808044433594">
        <ele>105.03745824405837</ele>
        <time>2022-10-04T14:55:47.182Z</time>
      </trkpt>
      <trkpt lat="38.794065713882446" lon="-0.0277876853942871">
        <ele>103.84309184660219</ele>
        <time>2022-10-04T14:55:51.494Z</time>
      </trkpt>
      <trkpt lat="38.79439830780029" lon="-0.0274550914764404">
        <ele>102.65322063276264</ele>
        <time>2022-10-04T14:55:55.813Z</time>
      </trkpt>
      <trkpt lat="38.79452705383301" lon="-0.0273799896240234">
        <ele>101.48608289574696</ele>
        <time>2022-10-04T14:56:00.134Z</time>
      </trkpt>
      <trkpt lat="38.79480608738959" lon="-0.0272834300994873">
        <ele>100.15504110513668</ele>
        <time>2022-10-04T14:56:04.459Z</time>
      </trkpt>
      <trkpt lat="38.79481681622565" lon="-0.0272834300994873">
        <ele>98.97238030530804</ele>
        <time>2022-10-04T14:56:08.784Z</time>
      </trkpt>
      <trkpt lat="38.79530363716185" lon="-0.0271082483232021">
        <ele>97.67942129126125</ele>
        <time>2022-10-04T14:56:13.117Z</time>
      </trkpt>
      <trkpt lat="38.79530346952379" lon="-0.0271082483232021">
        <ele>96.51883599512686</ele>
        <time>2022-10-04T14:56:17.450Z</time>
      </trkpt>
      <trkpt lat="38.795889699831605" lon="-0.0268971920013428">
        <ele>95.22013907134858</ele>
        <time>2022-10-04T14:56:21.793Z</time>
      </trkpt>
      <trkpt lat="38.7962007522583" lon="-0.0267791748046875">
        <ele>93.83611344352431</ele>
        <time>2022-10-04T14:56:26.141Z</time>
      </trkpt>
      <trkpt lat="38.796383226290345" lon="-0.0266611576080322">
        <ele>92.68911237049636</ele>
        <time>2022-10-04T14:56:30.492Z</time>
      </trkpt>
      <trkpt lat="38.7964475993067" lon="-0.0266182422637939">
        <ele>91.60990007144193</ele>
        <time>2022-10-04T14:56:34.844Z</time>
      </trkpt>
      <trkpt lat="38.79653334617615" lon="-0.026543140411377">
        <ele>90.57433667696093</ele>
        <time>2022-10-04T14:56:39.197Z</time>
      </trkpt>
      <trkpt lat="38.79675873555243" lon="-0.0262641906738281">
        <ele>89.66379946515715</ele>
        <time>2022-10-04T14:56:43.555Z</time>
      </trkpt>
      <trkpt lat="38.7967586517334" lon="-0.0262641906738281">
        <ele>88.68854145682556</ele>
        <time>2022-10-04T14:56:47.913Z</time>
      </trkpt>
      <trkpt lat="38.79694112576544" lon="-0.026017427444458">
        <ele>87.78182386425522</ele>
        <time>2022-10-04T14:56:52.275Z</time>
      </trkpt>
      <trkpt lat="38.79716634750366" lon="-0.0257599353790283">
        <ele>86.7818440338246</ele>
        <time>2022-10-04T14:56:56.642Z</time>
      </trkpt>
      <trkpt lat="38.79742392338812" lon="-0.0255668163299561">
        <ele>85.77289197869172</ele>
        <time>2022-10-04T14:57:01.014Z</time>
      </trkpt>
      <trkpt lat="38.79742383956909" lon="-0.0255668163299561">
        <ele>84.87390572079258</ele>
        <time>2022-10-04T14:57:05.386Z</time>
      </trkpt>
      <trkpt lat="38.797627771273255" lon="-0.0254166126251221">
        <ele>83.92939388817987</ele>
        <time>2022-10-04T14:57:09.761Z</time>
      </trkpt>
      <trkpt lat="38.79782089032233" lon="-0.0252771377563477">
        <ele>82.98127086669959</ele>
        <time>2022-10-04T14:57:14.140Z</time>
      </trkpt>
      <trkpt lat="38.79818558692932" lon="-0.0249767303466797">
        <ele>81.97026794893989</ele>
        <time>2022-10-04T14:57:18.525Z</time>
      </trkpt>
      <trkpt lat="38.79829287528992" lon="-0.0248587131500244">
        <ele>81.11946916643925</ele>
        <time>2022-10-04T14:57:22.912Z</time>
      </trkpt>
      <trkpt lat="38.79840016365051" lon="-0.02471923828125">
        <ele>80.2706230526456</ele>
        <time>2022-10-04T14:57:27.302Z</time>
      </trkpt>
      <trkpt lat="38.79853972233832" lon="-0.0244724750518799">
        <ele>79.34814747538677</ele>
        <time>2022-10-04T14:57:31.695Z</time>
      </trkpt>
      <trkpt lat="38.79859336651862" lon="-0.0243759155273438">
        <ele>78.50192831981101</ele>
        <time>2022-10-04T14:57:36.090Z</time>
      </trkpt>
      <trkpt lat="38.79868984222412" lon="-0.0241935253143311">
        <ele>77.63836740999646</ele>
        <time>2022-10-04T14:57:40.487Z</time>
      </trkpt>
      <trkpt lat="38.79881867207587" lon="-0.0240325927734375">
        <ele>76.78273073380814</ele>
        <time>2022-10-04T14:57:44.887Z</time>
      </trkpt>
      <trkpt lat="38.79894733428955" lon="-0.0239574909210205">
        <ele>75.98446257690667</ele>
        <time>2022-10-04T14:57:49.289Z</time>
      </trkpt>
      <trkpt lat="38.799022519961" lon="-0.0239360332489014">
        <ele>75.20461781179681</ele>
        <time>2022-10-04T14:57:53.693Z</time>
      </trkpt>
      <trkpt lat="38.79950523376465" lon="-0.0238180160522461">
        <ele>74.40888900555791</ele>
        <time>2022-10-04T14:57:58.104Z</time>
      </trkpt>
      <trkpt lat="38.80048155784607" lon="-0.023646354675293">
        <ele>73.50083501528965</ele>
        <time>2022-10-04T14:58:02.530Z</time>
      </trkpt>
      <trkpt lat="38.800867879763246" lon="-0.0235497951507568">
        <ele>72.73410389578694</ele>
        <time>2022-10-04T14:58:06.962Z</time>
      </trkpt>
      <trkpt lat="38.801082372665405" lon="-0.0234425067901611">
        <ele>71.92205331329674</ele>
        <time>2022-10-04T14:58:11.398Z</time>
      </trkpt>
      <trkpt lat="38.80162954330444" lon="-0.0229382514953613">
        <ele>71.19805617837267</ele>
        <time>2022-10-04T14:58:15.844Z</time>
      </trkpt>
      <trkpt lat="38.80171537399292" lon="-0.0228738784790039">
        <ele>70.47352987693715</ele>
        <time>2022-10-04T14:58:20.292Z</time>
      </trkpt>
      <trkpt lat="38.8025523070246" lon="-0.0224339962005615">
        <ele>69.63204818840934</ele>
        <time>2022-10-04T14:58:24.754Z</time>
      </trkpt>
      <trkpt lat="38.80377539433539" lon="-0.0217902660369873">
        <ele>68.88739266751742</ele>
        <time>2022-10-04T14:58:29.236Z</time>
      </trkpt>
      <trkpt lat="38.804365396499634" lon="-0.0214791297912598">
        <ele>68.159193614895</ele>
        <time>2022-10-04T14:58:33.728Z</time>
      </trkpt>
      <trkpt lat="38.80475171841681" lon="-0.0212216377258301">
        <ele>67.53817625195114</ele>
        <time>2022-10-04T14:58:38.227Z</time>
      </trkpt>
      <trkpt lat="38.805094957351685" lon="-0.020899772644043">
        <ele>66.7996920089444</ele>
        <time>2022-10-04T14:58:42.732Z</time>
      </trkpt>
      <trkpt lat="38.80543828010559" lon="-0.0206315517425537">
        <ele>66.13165114015064</ele>
        <time>2022-10-04T14:58:47.243Z</time>
      </trkpt>
      <trkpt lat="38.805599212646484" lon="-0.020449161529541">
        <ele>65.51308811110428</ele>
        <time>2022-10-04T14:58:51.758Z</time>
      </trkpt>
      <trkpt lat="38.80576014518738" lon="-0.0201272964477539">
        <ele>64.984828323904</ele>
        <time>2022-10-04T14:58:56.277Z</time>
      </trkpt>
      <trkpt lat="38.80581387318671" lon="-0.0200414657592773">
        <ele>64.48410901164708</ele>
        <time>2022-10-04T14:59:00.797Z</time>
      </trkpt>
      <trkpt lat="38.80587816238403" lon="-0.0199770927429199">
        <ele>63.99861602286187</ele>
        <time>2022-10-04T14:59:05.319Z</time>
      </trkpt>
      <trkpt lat="38.80663990974426" lon="-0.0194728374481201">
        <ele>63.590632774693056</ele>
        <time>2022-10-04T14:59:09.854Z</time>
      </trkpt>
      <trkpt lat="38.8067901134491" lon="-0.0193548202514648">
        <ele>63.14188503618361</ele>
        <time>2022-10-04T14:59:14.392Z</time>
      </trkpt>
      <trkpt lat="38.80691885948181" lon="-0.0191402435302734">
        <ele>62.753502546533994</ele>
        <time>2022-10-04T14:59:18.933Z</time>
      </trkpt>
      <trkpt lat="38.80696177482605" lon="-0.0190222263336182">
        <ele>62.338603470036475</ele>
        <time>2022-10-04T14:59:23.475Z</time>
      </trkpt>
      <trkpt lat="38.80712270736694" lon="-0.0182926654815674">
        <ele>61.851847547270935</ele>
        <time>2022-10-04T14:59:28.027Z</time>
      </trkpt>
      <trkpt lat="38.80721935071051" lon="-0.0180244445800781">
        <ele>61.44645390391811</ele>
        <time>2022-10-04T14:59:32.582Z</time>
      </trkpt>
      <trkpt lat="38.80721926689148" lon="-0.0180244445800781">
        <ele>61.03925889797709</ele>
        <time>2022-10-04T14:59:37.137Z</time>
      </trkpt>
      <trkpt lat="38.80762696266174" lon="-0.0173377990722656">
        <ele>60.677937782297256</ele>
        <time>2022-10-04T14:59:41.702Z</time>
      </trkpt>
      <trkpt lat="38.80793809890747" lon="-0.0168657302856445">
        <ele>60.111560305882335</ele>
        <time>2022-10-04T14:59:46.275Z</time>
      </trkpt>
      <trkpt lat="38.80852818489075" lon="-0.0162112712860107">
        <ele>59.69279149884292</ele>
        <time>2022-10-04T14:59:50.860Z</time>
      </trkpt>
      <trkpt lat="38.808903777971864" lon="-0.0157606601715088">
        <ele>59.099879761232685</ele>
        <time>2022-10-04T14:59:55.453Z</time>
      </trkpt>
      <trkpt lat="38.80918272770941" lon="-0.0153100490570068">
        <ele>58.664345473963095</ele>
        <time>2022-10-04T15:00:00.053Z</time>
      </trkpt>
      <trkpt lat="38.809579610824585" lon="-0.0146770477294922">
        <ele>58.27468389625514</ele>
        <time>2022-10-04T15:00:04.663Z</time>
      </trkpt>
      <trkpt lat="38.8097620010376" lon="-0.0144946575164795">
        <ele>57.80578189912403</ele>
        <time>2022-10-04T15:00:09.276Z</time>
      </trkpt>
      <trkpt lat="38.809890830889344" lon="-0.0143873691558838">
        <ele>57.32440995256155</ele>
        <time>2022-10-04T15:00:13.891Z</time>
      </trkpt>
      <trkpt lat="38.80989074707031" lon="-0.0143873691558838">
        <ele>56.85566173078436</ele>
        <time>2022-10-04T15:00:18.506Z</time>
      </trkpt>
      <trkpt lat="38.81016969680786" lon="-0.0141620635986328">
        <ele>56.316679234428165</ele>
        <time>2022-10-04T15:00:23.127Z</time>
      </trkpt>
      <trkpt lat="38.810341442003846" lon="-0.0139904022216797">
        <ele>55.80366360600536</ele>
        <time>2022-10-04T15:00:27.751Z</time>
      </trkpt>
      <trkpt lat="38.810362899675965" lon="-0.0139689445495605">
        <ele>55.31060599000493</ele>
        <time>2022-10-04T15:00:32.375Z</time>
      </trkpt>
      <trkpt lat="38.811103189364076" lon="-0.0129604339599609">
        <ele>54.595324313599775</ele>
        <time>2022-10-04T15:00:37.016Z</time>
      </trkpt>
      <trkpt lat="38.81125339306891" lon="-0.0127673149108887">
        <ele>54.03260306650664</ele>
        <time>2022-10-04T15:00:41.660Z</time>
      </trkpt>
      <trkpt lat="38.81152153015137" lon="-0.0124239921569824">
        <ele>53.56160008719894</ele>
        <time>2022-10-04T15:00:46.310Z</time>
      </trkpt>
      <trkpt lat="38.81155799143016" lon="-0.0123683363199234">
        <ele>53.09830753234709</ele>
        <time>2022-10-04T15:00:50.961Z</time>
      </trkpt>
      <trkpt lat="38.8115578237921" lon="-0.0123684201389551">
        <ele>52.60686780904054</ele>
        <time>2022-10-04T15:00:55.612Z</time>
      </trkpt>
      <trkpt lat="38.81170392036438" lon="-0.0121450424194336">
        <ele>52.176158753046764</ele>
        <time>2022-10-04T15:01:00.266Z</time>
      </trkpt>
      <trkpt lat="38.811886394396424" lon="-0.0117695331573486">
        <ele>51.73561058523434</ele>
        <time>2022-10-04T15:01:04.926Z</time>
      </trkpt>
      <trkpt lat="38.812122428789735" lon="-0.0112545490264893">
        <ele>51.33244693825306</ele>
        <time>2022-10-04T15:01:09.593Z</time>
      </trkpt>
      <trkpt lat="38.81240129470825" lon="-0.0106000900268555">
        <ele>50.55502360467162</ele>
        <time>2022-10-04T15:01:14.269Z</time>
      </trkpt>
      <trkpt lat="38.81255158223212" lon="-0.0102889537811279">
        <ele>50.03380509026483</ele>
        <time>2022-10-04T15:01:18.949Z</time>
      </trkpt>
      <trkpt lat="38.81306656636298" lon="-0.0092053413391113">
        <ele>49.394844087448334</ele>
        <time>2022-10-04T15:01:23.644Z</time>
      </trkpt>
      <trkpt lat="38.813066482543945" lon="-0.0092053413391113">
        <ele>48.93816600834394</ele>
        <time>2022-10-04T15:01:28.339Z</time>
      </trkpt>
      <trkpt lat="38.8135386351496" lon="-0.008164644241333">
        <ele>48.363034654688676</ele>
        <time>2022-10-04T15:01:33.049Z</time>
      </trkpt>
      <trkpt lat="38.81374248303473" lon="-0.0076603889465332">
        <ele>47.979817468795694</ele>
        <time>2022-10-04T15:01:37.766Z</time>
      </trkpt>
      <trkpt lat="38.81448277272284" lon="-0.0059759616851807">
        <ele>47.82868623992968</ele>
        <time>2022-10-04T15:01:42.506Z</time>
      </trkpt>
      <trkpt lat="38.81448268890381" lon="-0.0059759616851807">
        <ele>47.43996562659504</ele>
        <time>2022-10-04T15:01:47.246Z</time>
      </trkpt>
      <trkpt lat="38.814815282821655" lon="-0.0052893161773682">
        <ele>46.86447678384804</ele>
        <time>2022-10-04T15:01:51.996Z</time>
      </trkpt>
      <trkpt lat="38.815040588378906" lon="-0.0048816204071045">
        <ele>46.53071393831613</ele>
        <time>2022-10-04T15:01:56.752Z</time>
      </trkpt>
      <trkpt lat="38.815373266115785" lon="-0.0043344497680664">
        <ele>46.22955749304666</ele>
        <time>2022-10-04T15:02:01.516Z</time>
      </trkpt>
      <trkpt lat="38.815577030181885" lon="-0.0040018558502197">
        <ele>45.92659155701236</ele>
        <time>2022-10-04T15:02:06.285Z</time>
      </trkpt>
      <trkpt lat="38.81578087806702" lon="-0.0034224987030029">
        <ele>45.641387332090794</ele>
        <time>2022-10-04T15:02:11.062Z</time>
      </trkpt>
      <trkpt lat="38.816038370132446" lon="-0.0026822090148926">
        <ele>45.29785284725962</ele>
        <time>2022-10-04T15:02:15.849Z</time>
      </trkpt>
      <trkpt lat="38.81625303067267" lon="-0.0021028518676758">
        <ele>45.2176590226253</ele>
        <time>2022-10-04T15:02:20.643Z</time>
      </trkpt>
      <trkpt lat="38.816564083099365" lon="-0.0014054775238037">
        <ele>44.898937996447565</ele>
        <time>2022-10-04T15:02:25.447Z</time>
      </trkpt>
      <trkpt lat="38.81676801480353" lon="-0.0009012222290039">
        <ele>44.801373929326786</ele>
        <time>2022-10-04T15:02:30.258Z</time>
      </trkpt>
      <trkpt lat="38.81717571057379" lon="0.0001716613769531">
        <ele>44.72607008189302</ele>
        <time>2022-10-04T15:02:35.083Z</time>
      </trkpt>
      <trkpt lat="38.81736874580383" lon="0.0007402896881104">
        <ele>44.63491400010073</ele>
        <time>2022-10-04T15:02:39.916Z</time>
      </trkpt>
      <trkpt lat="38.81745457649231" lon="0.0012445449829102">
        <ele>44.76972759049513</ele>
        <time>2022-10-04T15:02:44.755Z</time>
      </trkpt>
      <trkpt lat="38.81744384765625" lon="0.0014913082122803">
        <ele>44.92815816507547</ele>
        <time>2022-10-04T15:02:49.597Z</time>
      </trkpt>
      <trkpt lat="38.81742247380316" lon="0.0015664100646973">
        <ele>44.91800019955383</ele>
        <time>2022-10-04T15:02:54.440Z</time>
      </trkpt>
      <trkpt lat="38.81743311882019" lon="0.0016629695892334">
        <ele>44.88499566876712</ele>
        <time>2022-10-04T15:02:59.284Z</time>
      </trkpt>
      <trkpt lat="38.81748684681952" lon="0.00174880027771">
        <ele>44.85744364194748</ele>
        <time>2022-10-04T15:03:04.129Z</time>
      </trkpt>
      <trkpt lat="38.81748676300049" lon="0.00174880027771">
        <ele>44.82406228316455</ele>
        <time>2022-10-04T15:03:08.974Z</time>
      </trkpt>
      <trkpt lat="38.81750822067261" lon="0.0017595291137695">
        <ele>44.774293997901665</ele>
        <time>2022-10-04T15:03:13.820Z</time>
      </trkpt>
      <trkpt lat="38.8176155090332" lon="0.001823902130127">
        <ele>44.70525604266922</ele>
        <time>2022-10-04T15:03:18.667Z</time>
      </trkpt>
      <trkpt lat="38.81769061088562" lon="0.0019097328186035">
        <ele>44.59993837048464</ele>
        <time>2022-10-04T15:03:23.516Z</time>
      </trkpt>
      <trkpt lat="38.817787170410156" lon="0.0020599365234375">
        <ele>44.45177123050646</ele>
        <time>2022-10-04T15:03:28.367Z</time>
      </trkpt>
      <trkpt lat="38.817883813753724" lon="0.0022637844085693">
        <ele>44.288990057161406</ele>
        <time>2022-10-04T15:03:33.221Z</time>
      </trkpt>
      <trkpt lat="38.81794810295105" lon="0.0023818016052246">
        <ele>44.06726397648407</ele>
        <time>2022-10-04T15:03:38.077Z</time>
      </trkpt>
      <trkpt lat="38.81818422116339" lon="0.0030255317687988">
        <ele>43.71667302791187</ele>
        <time>2022-10-04T15:03:42.941Z</time>
      </trkpt>
      <trkpt lat="38.81824859417975" lon="0.0031757354736328">
        <ele>43.43813592266967</ele>
        <time>2022-10-04T15:03:47.807Z</time>
      </trkpt>
      <trkpt lat="38.818634832277894" lon="0.0038409233093262">
        <ele>42.98927871331837</ele>
        <time>2022-10-04T15:03:52.683Z</time>
      </trkpt>
      <trkpt lat="38.81886005401611" lon="0.0041735172271729">
        <ele>42.74831592924433</ele>
        <time>2022-10-04T15:03:57.565Z</time>
      </trkpt>
      <trkpt lat="38.81916054524481" lon="0.0046670436859131">
        <ele>42.37238722265944</ele>
        <time>2022-10-04T15:04:02.454Z</time>
      </trkpt>
      <trkpt lat="38.819611156359315" lon="0.005342960357666">
        <ele>41.93853311813744</ele>
        <time>2022-10-04T15:04:07.354Z</time>
      </trkpt>
      <trkpt lat="38.81997593678534" lon="0.005793571472168">
        <ele>41.598429563503544</ele>
        <time>2022-10-04T15:04:12.262Z</time>
      </trkpt>
      <trkpt lat="38.82019051350653" lon="0.0061047077178955">
        <ele>41.16610275416324</ele>
        <time>2022-10-04T15:04:17.175Z</time>
      </trkpt>
      <trkpt lat="38.820351446047425" lon="0.0063621997833252">
        <ele>40.67425301291003</ele>
        <time>2022-10-04T15:04:22.092Z</time>
      </trkpt>
      <trkpt lat="38.82050164975226" lon="0.0066196918487549">
        <ele>40.14679747272654</ele>
        <time>2022-10-04T15:04:27.012Z</time>
      </trkpt>
      <trkpt lat="38.82093080319464" lon="0.0074565410614014">
        <ele>39.4588083133094</ele>
        <time>2022-10-04T15:04:31.945Z</time>
      </trkpt>
      <trkpt lat="38.82093071937561" lon="0.0074565410614014">
        <ele>38.9619431578967</ele>
        <time>2022-10-04T15:04:36.878Z</time>
      </trkpt>
      <trkpt lat="38.820995176211" lon="0.0075745582580566">
        <ele>38.4388078279328</ele>
        <time>2022-10-04T15:04:41.812Z</time>
      </trkpt>
      <trkpt lat="38.82101663388312" lon="0.0076067447662354">
        <ele>37.91717447034445</ele>
        <time>2022-10-04T15:04:46.747Z</time>
      </trkpt>
      <trkpt lat="38.821370685473084" lon="0.0083363056182861">
        <ele>37.54077863310078</ele>
        <time>2022-10-04T15:04:51.692Z</time>
      </trkpt>
      <trkpt lat="38.82141360081732" lon="0.0084328651428223">
        <ele>36.999562091160996</ele>
        <time>2022-10-04T15:04:56.638Z</time>
      </trkpt>
      <trkpt lat="38.82267960347235" lon="0.0110721588134766">
        <ele>36.08794083074298</ele>
        <time>2022-10-04T15:05:01.622Z</time>
      </trkpt>
      <trkpt lat="38.822797536849976" lon="0.0113081932067871">
        <ele>35.60790955134967</ele>
        <time>2022-10-04T15:05:06.609Z</time>
      </trkpt>
      <trkpt lat="38.82287263870239" lon="0.0115334987640381">
        <ele>35.16280585420169</ele>
        <time>2022-10-04T15:05:11.599Z</time>
      </trkpt>
      <trkpt lat="38.82293701171875" lon="0.0117909908294678">
        <ele>34.655302948606135</ele>
        <time>2022-10-04T15:05:16.592Z</time>
      </trkpt>
      <trkpt lat="38.82293709553778" lon="0.0119304656982422">
        <ele>34.23238773432878</ele>
        <time>2022-10-04T15:05:21.587Z</time>
      </trkpt>
      <trkpt lat="38.82299065589905" lon="0.0120270252227783">
        <ele>33.84960016700063</ele>
        <time>2022-10-04T15:05:26.583Z</time>
      </trkpt>
      <trkpt lat="38.823087299242616" lon="0.0120806694030762">
        <ele>33.51376702337427</ele>
        <time>2022-10-04T15:05:31.581Z</time>
      </trkpt>
      <trkpt lat="38.82315158843994" lon="0.0120806694030762">
        <ele>33.24705529461379</ele>
        <time>2022-10-04T15:05:36.580Z</time>
      </trkpt>
      <trkpt lat="38.823312520980835" lon="0.012134313583374">
        <ele>33.0269185948384</ele>
        <time>2022-10-04T15:05:41.581Z</time>
      </trkpt>
      <trkpt lat="38.82349491119385" lon="0.012284517288208">
        <ele>32.86155347761307</ele>
        <time>2022-10-04T15:05:46.586Z</time>
      </trkpt>
      <trkpt lat="38.823613012209535" lon="0.0123488903045654">
        <ele>32.77311627162979</ele>
        <time>2022-10-04T15:05:51.593Z</time>
      </trkpt>
      <trkpt lat="38.8236129283905" lon="0.0123488903045654">
        <ele>32.672730740892135</ele>
        <time>2022-10-04T15:05:56.600Z</time>
      </trkpt>
      <trkpt lat="38.82384896278381" lon="0.0124025344848633">
        <ele>32.65924801138461</ele>
        <time>2022-10-04T15:06:01.610Z</time>
      </trkpt>
      <trkpt lat="38.82423520088196" lon="0.0123810768127441">
        <ele>32.67905530479817</ele>
        <time>2022-10-04T15:06:06.626Z</time>
      </trkpt>
      <trkpt lat="38.824342573061585" lon="0.0124239921569824">
        <ele>32.596808622566385</ele>
        <time>2022-10-04T15:06:11.644Z</time>
      </trkpt>
      <trkpt lat="38.824342489242554" lon="0.0124239921569824">
        <ele>32.53478585284295</ele>
        <time>2022-10-04T15:06:16.662Z</time>
      </trkpt>
      <trkpt lat="38.82440686225891" lon="0.0124776363372803">
        <ele>32.474225512885624</ele>
        <time>2022-10-04T15:06:21.681Z</time>
      </trkpt>
      <trkpt lat="38.82444977760315" lon="0.0125741958618164">
        <ele>32.42143475481131</ele>
        <time>2022-10-04T15:06:26.702Z</time>
      </trkpt>
      <trkpt lat="38.82446050643921" lon="0.0127673149108887">
        <ele>32.39575256285172</ele>
        <time>2022-10-04T15:06:31.725Z</time>
      </trkpt>
      <trkpt lat="38.82442840375006" lon="0.0128960609436035">
        <ele>32.38734170018116</ele>
        <time>2022-10-04T15:06:36.750Z</time>
      </trkpt>
      <trkpt lat="38.82441759109497" lon="0.0131106376647949">
        <ele>32.40566372987963</ele>
        <time>2022-10-04T15:06:41.777Z</time>
      </trkpt>
      <trkpt lat="38.82446059025824" lon="0.0133144855499268">
        <ele>32.43633176507426</ele>
        <time>2022-10-04T15:06:46.807Z</time>
      </trkpt>
      <trkpt lat="38.82450342178345" lon="0.0134003162384033">
        <ele>32.52233845076789</ele>
        <time>2022-10-04T15:06:51.838Z</time>
      </trkpt>
      <trkpt lat="38.8246214389801" lon="0.0135505199432373">
        <ele>32.66393604212265</ele>
        <time>2022-10-04T15:06:56.872Z</time>
      </trkpt>
      <trkpt lat="38.82468581199646" lon="0.0136148929595947">
        <ele>32.796291841198425</ele>
        <time>2022-10-04T15:07:01.907Z</time>
      </trkpt>
      <trkpt lat="38.824846828356385" lon="0.0136792659759521">
        <ele>32.963853549066954</ele>
        <time>2022-10-04T15:07:06.944Z</time>
      </trkpt>
      <trkpt lat="38.82487893104553" lon="0.0136792659759521">
        <ele>33.051779939894615</ele>
        <time>2022-10-04T15:07:11.982Z</time>
      </trkpt>
      <trkpt lat="38.82493257522583" lon="0.0137114524841309">
        <ele>33.156085029843496</ele>
        <time>2022-10-04T15:07:17.021Z</time>
      </trkpt>
      <trkpt lat="38.825039863586426" lon="0.013808012008667">
        <ele>33.27913541665356</ele>
        <time>2022-10-04T15:07:22.062Z</time>
      </trkpt>
      <trkpt lat="38.825093507766724" lon="0.0139153003692627">
        <ele>33.48190542218319</ele>
        <time>2022-10-04T15:07:27.104Z</time>
      </trkpt>
      <trkpt lat="38.82516860961914" lon="0.0143337249755859">
        <ele>33.75687820085422</ele>
        <time>2022-10-04T15:07:32.151Z</time>
      </trkpt>
      <trkpt lat="38.82522225379944" lon="0.0146234035491943">
        <ele>34.171273058117606</ele>
        <time>2022-10-04T15:07:37.202Z</time>
      </trkpt>
      <trkpt lat="38.825283106416464" lon="0.0147722661495209">
        <ele>34.6459191576203</ele>
        <time>2022-10-04T15:07:42.255Z</time>
      </trkpt>
      <trkpt lat="38.825283190235496" lon="0.0147722661495209">
        <ele>35.12415295786809</ele>
        <time>2022-10-04T15:07:47.308Z</time>
      </trkpt>
      <trkpt lat="38.825318897143006" lon="0.0148594379425049">
        <ele>35.673143198091715</ele>
        <time>2022-10-04T15:07:52.362Z</time>
      </trkpt>
      <trkpt lat="38.82565149106085" lon="0.0155353546142578">
        <ele>36.42596649984766</ele>
        <time>2022-10-04T15:07:57.426Z</time>
      </trkpt>
      <trkpt lat="38.8257372379303" lon="0.0156855583190918">
        <ele>36.83224382894921</ele>
        <time>2022-10-04T15:08:02.492Z</time>
      </trkpt>
      <trkpt lat="38.82586598396301" lon="0.0158250331878662">
        <ele>37.233677737746575</ele>
        <time>2022-10-04T15:08:07.561Z</time>
      </trkpt>
      <trkpt lat="38.82595181465149" lon="0.0159215927124023">
        <ele>37.590908928710334</ele>
        <time>2022-10-04T15:08:12.631Z</time>
      </trkpt>
      <trkpt lat="38.82598400115967" lon="0.0160396099090576">
        <ele>37.88400599262816</ele>
        <time>2022-10-04T15:08:17.703Z</time>
      </trkpt>
      <trkpt lat="38.82601618766785" lon="0.0159859657287598">
        <ele>38.026262068354036</ele>
        <time>2022-10-04T15:08:22.776Z</time>
      </trkpt>
      <trkpt lat="38.82601627148688" lon="0.0159859657287598">
        <ele>38.114237380156126</ele>
        <time>2022-10-04T15:08:27.849Z</time>
      </trkpt>
      <trkpt lat="38.826123559847474" lon="0.0158250331878662">
        <ele>38.08871183537498</ele>
        <time>2022-10-04T15:08:32.924Z</time>
      </trkpt>
      <trkpt lat="38.82622003555298" lon="0.0157070159912109">
        <ele>38.06402648487942</ele>
        <time>2022-10-04T15:08:38.001Z</time>
      </trkpt>
      <trkpt lat="38.826273679733276" lon="0.0156533718109131">
        <ele>38.03200223563111</ele>
        <time>2022-10-04T15:08:43.079Z</time>
      </trkpt>
      <trkpt lat="38.82637023925781" lon="0.0156104564666748">
        <ele>37.963590797136966</ele>
        <time>2022-10-04T15:08:48.159Z</time>
      </trkpt>
      <trkpt lat="38.826853120699525" lon="0.0154387950897217">
        <ele>37.81965967175812</ele>
        <time>2022-10-04T15:08:53.247Z</time>
      </trkpt>
      <trkpt lat="38.827550411224365" lon="0.0151920318603516">
        <ele>37.51961652880003</ele>
        <time>2022-10-04T15:08:58.346Z</time>
      </trkpt>
      <trkpt lat="38.8275504950434" lon="0.0151920318603516">
        <ele>37.489343366810466</ele>
        <time>2022-10-04T15:09:03.445Z</time>
      </trkpt>
      <trkpt lat="38.82790630683303" lon="0.0150641240179539">
        <ele>37.457128650303936</ele>
        <time>2022-10-04T15:09:08.549Z</time>
      </trkpt>
    </trkseg>
  </trk>
</gpx>
